Provisional Data: Portage Creek near Emporium, PA


Please select a monitoring station.
Please select start date.
Please select start date.

Toggle Unit: C/F Toggle Unit: C/F
Sample Time Temperature (C) Temperature (F) Specific Conductivity (mS/cm) pH   Turbidity (NTU+) DO (mg/L)
1/12/2021 12:00:00 AM 1.6 34.88 0.063 7.28 2.38 13.59
1/12/2021 12:15:00 AM 1.6 34.88 0.059 7.27 3.33 13.59
1/12/2021 12:30:00 AM 1.59 34.862 0.063 7.28 2.34 13.6
1/12/2021 12:45:00 AM 1.59 34.862 0.063 7.27 2.42 13.6
1/12/2021 1:00:00 AM 1.59 34.862 0.063 7.27 2.4 13.6
1/12/2021 1:15:00 AM 1.59 34.862 0.063 7.27 2.34 13.6
1/12/2021 1:30:00 AM 1.58 34.844 0.063 7.27 2.4 13.6
1/12/2021 1:45:00 AM 1.58 34.844 0.063 7.28 2.43 13.6
1/12/2021 2:00:00 AM 1.57 34.826 0.063 7.28 2.38 13.61
1/12/2021 2:15:00 AM 1.57 34.826 0.063 7.27 2.44 13.61
1/12/2021 2:30:00 AM 1.57 34.826 0.063 7.26 2.31 13.61
1/12/2021 2:45:00 AM 1.58 34.844 0.063 7.27 2.34 13.61
1/12/2021 3:00:00 AM 1.57 34.826 0.063 7.27 2.55 13.61
1/12/2021 3:15:00 AM 1.56 34.808 0.063 7.26 2.4 13.61
1/12/2021 3:30:00 AM 1.55 34.79 0.063 7.28 2.45 13.62
1/12/2021 3:45:00 AM 1.55 34.79 0.063 7.26 2.39 13.62
1/12/2021 4:00:00 AM 1.53 34.754 0.063 7.27 2.43 13.62
1/12/2021 4:15:00 AM 1.52 34.736 0.063 7.28 2.27 13.63
1/12/2021 4:30:00 AM 1.51 34.718 0.063 7.26 2.32 13.63
1/12/2021 4:45:00 AM 1.49 34.682 0.063 7.28 2.3 13.63
1/12/2021 5:00:00 AM 1.47 34.646 0.063 7.26 2.39 13.64
1/12/2021 5:15:00 AM 1.46 34.628 0.063 7.28 2.39 13.64
1/12/2021 5:30:00 AM 1.47 34.646 0.063 7.27 2.28 13.64
1/12/2021 5:45:00 AM 1.46 34.628 0.063 7.27 2.24 13.65
1/12/2021 6:00:00 AM 1.45 34.61 0.063 7.28 2.31 13.65
1/12/2021 6:15:00 AM 1.44 34.592 0.063 7.25 2.31 13.66
1/12/2021 6:30:00 AM 1.42 34.556 0.063 7.27 2.31 13.65
1/12/2021 6:45:00 AM 1.4 34.52 0.063 7.27 2.25 13.66
1/12/2021 7:00:00 AM 1.37 34.466 0.063 7.27 2.27 13.68
1/12/2021 7:15:00 AM 1.35 34.43 0.063 7.27 2.32 13.68
1/12/2021 7:30:00 AM 1.34 34.412 0.063 7.28 2.31 13.69
1/12/2021 7:45:00 AM 1.34 34.412 0.063 7.27 2.28 13.71
1/12/2021 8:00:00 AM 1.33 34.394 0.063 7.28 2.39 13.71
1/12/2021 8:15:00 AM 1.33 34.394 0.063 7.28 2.35 13.73
1/12/2021 8:30:00 AM 1.33 34.394 0.063 7.28 2.2 13.74
1/12/2021 8:45:00 AM 1.33 34.394 0.063 7.28 2.29 13.78
1/12/2021 9:00:00 AM 1.33 34.394 0.063 7.3 2.33 13.81
1/12/2021 9:15:00 AM 1.33 34.394 0.063 7.31 2.34 13.84
1/12/2021 9:30:00 AM 1.34 34.412 0.063 7.3 2.29 13.86
1/12/2021 9:45:00 AM 1.36 34.448 0.063 7.32 2.33 13.87
1/12/2021 10:00:00 AM 1.39 34.502 0.063 7.32 2.27 13.9
1/12/2021 10:15:00 AM 1.42 34.556 0.063 7.32 2.33 13.91
1/12/2021 10:30:00 AM 1.45 34.61 0.063 7.33 2.31 13.91
1/12/2021 10:45:00 AM 1.48 34.664 0.062 7.34 2.31 13.91
1/12/2021 11:00:00 AM 1.51 34.718 0.062 7.33 2.27 13.91
1/12/2021 11:15:00 AM 1.57 34.826 0.062 7.35 2.37 13.91
1/12/2021 11:30:00 AM 1.66 34.988 0.062 7.34 2.61 13.9
1/12/2021 11:45:00 AM 1.75 35.15 0.062 7.36 2.28 13.89
1/12/2021 12:00:00 PM 1.83 35.294 0.062 7.35 2.51 13.87
1/12/2021 12:15:00 PM 1.9 35.42 0.062 7.36 2.31 13.84
1/12/2021 12:30:00 PM 1.99 35.582 0.062 7.36 2.42 13.81
1/12/2021 12:45:00 PM 2.07 35.726 0.062 7.36 2.42 13.78
1/12/2021 1:00:00 PM 2.15 35.87 0.062 7.37 2.29 13.75
1/12/2021 1:15:00 PM 2.22 35.996 0.062 7.34 2.32 13.72
1/12/2021 1:30:00 PM 2.31 36.158 0.062 7.37 2.33 13.68
1/12/2021 1:45:00 PM 2.39 36.302 0.062 7.35 2.42 13.67
1/12/2021 2:00:00 PM 2.45 36.41 0.062 7.37 2.26 13.64
1/12/2021 2:15:00 PM 2.48 36.464 0.062 7.37 49.4 13.61
1/12/2021 2:30:00 PM 2.49 36.482 0.062 7.36 2.07 13.6
1/12/2021 2:45:00 PM 2.5 36.5 0.062 7.37 2.28 13.57
1/12/2021 3:00:00 PM 2.48 36.464 0.059 7.37 2.95 13.56
1/12/2021 3:15:00 PM 2.46 36.428 0.062 7.37 2.21 13.54
1/12/2021 3:30:00 PM 2.44 36.392 0.062 7.37 2.13 13.53
1/12/2021 3:45:00 PM 2.43 36.374 0.062 7.34 2.19 13.52
1/12/2021 4:00:00 PM 2.41 36.338 0.062 7.36 2.1 13.5
1/12/2021 4:15:00 PM 2.39 36.302 0.062 7.35 2.13 13.49
1/12/2021 4:30:00 PM 2.37 36.266 0.062 7.35 2.24 13.47
1/12/2021 4:45:00 PM 2.34 36.212 0.062 7.34 2.14 13.45
1/12/2021 5:00:00 PM 2.32 36.176 0.062 7.33 2.12 13.43
1/12/2021 5:15:00 PM 2.3 36.14 0.063 7.33 2.06 13.41
1/12/2021 5:30:00 PM 2.28 36.104 0.063 7.3 2.16 13.39
1/12/2021 5:45:00 PM 2.26 36.068 0.063 7.32 2.1 13.38
1/12/2021 6:00:00 PM 2.23 36.014 0.063 7.31 2.15 13.37
1/12/2021 6:15:00 PM 2.2 35.96 0.063 7.3 2.16 13.37
1/12/2021 6:30:00 PM 2.17 35.906 0.063 7.3 2.07 13.38
1/12/2021 6:45:00 PM 2.14 35.852 0.063 7.3 2.15 13.38
1/12/2021 7:00:00 PM 2.11 35.798 0.063 7.3 2.22 13.38
1/12/2021 7:15:00 PM 2.09 35.762 0.063 7.29 2.13 13.39
1/12/2021 7:30:00 PM 2.06 35.708 0.063 7.29 2.16 13.4
1/12/2021 7:45:00 PM 2.04 35.672 0.063 7.29 2.37 13.4
1/12/2021 8:00:00 PM 2.02 35.636 0.063 7.29 2.26 13.41
1/12/2021 8:15:00 PM 2.01 35.618 0.063 7.29 2.19 13.41
1/12/2021 8:30:00 PM 1.99 35.582 0.063 7.26 2.2 13.42
1/12/2021 8:45:00 PM 1.98 35.564 0.063 7.28 2.18 13.43
1/12/2021 9:00:00 PM 1.96 35.528 0.063 7.29 2.23 13.43
1/12/2021 9:15:00 PM 1.94 35.492 0.063 7.29 2.21 13.44
1/12/2021 9:30:00 PM 1.92 35.456 0.063 7.28 2.22 13.45
1/12/2021 9:45:00 PM 1.91 35.438 0.063 7.29 2.21 13.46
1/12/2021 10:00:00 PM 1.89 35.402 0.063 7.29 2.11 13.46
1/12/2021 10:15:00 PM 1.88 35.384 0.063 7.27 2.16 13.47
1/12/2021 10:30:00 PM 1.86 35.348 0.063 7.28 2.18 13.47
1/12/2021 10:45:00 PM 1.84 35.312 0.063 7.28 2.1 13.49
1/12/2021 11:00:00 PM 1.82 35.276 0.063 7.28 2.21 13.49
1/12/2021 11:15:00 PM 1.81 35.258 0.063 7.28 2.14 13.5
1/12/2021 11:30:00 PM 1.79 35.222 0.063 7.28 2.16 13.5
1/12/2021 11:45:00 PM 1.78 35.204 0.063 7.28 2.15 13.51
1/13/2021 12:00:00 AM 1.76 35.168 0.063 7.28 2.12 13.51
1/13/2021 12:15:00 AM 1.74 35.132 0.063 7.28 2.15 13.52
1/13/2021 12:30:00 AM 1.72 35.096 0.063 7.28 2.22 13.52
1/13/2021 12:45:00 AM 1.71 35.078 0.063 7.28 2.18 13.53
1/13/2021 1:00:00 AM 1.69 35.042 0.063 7.28 2.2 13.54
1/13/2021 1:15:00 AM 1.68 35.024 0.063 7.28 2.17 13.54
1/13/2021 1:30:00 AM 1.66 34.988 0.063 7.28 2.18 13.55
1/13/2021 1:45:00 AM 1.64 34.952 0.063 7.28 2.18 13.55
1/13/2021 2:00:00 AM 1.62 34.916 0.064 7.28 2.13 13.55
1/13/2021 2:15:00 AM 1.6 34.88 0.064 7.28 2.15 13.56
1/13/2021 2:30:00 AM 1.59 34.862 0.064 7.28 2.16 13.56
1/13/2021 2:45:00 AM 1.57 34.826 0.064 7.28 2.15 13.56
1/13/2021 3:00:00 AM 1.56 34.808 0.064 7.28 2.16 13.58
1/13/2021 3:15:00 AM 1.54 34.772 0.064 7.26 2.13 13.58
1/13/2021 3:30:00 AM 1.53 34.754 0.064 7.28 2.2 13.58
1/13/2021 3:45:00 AM 1.52 34.736 0.064 7.27 2.14 13.59
1/13/2021 4:00:00 AM 1.51 34.718 0.064 7.28 2.15 13.59
1/13/2021 4:15:00 AM 1.5 34.7 0.064 7.27 2.14 13.6
1/13/2021 4:30:00 AM 1.49 34.682 0.064 7.28 2.23 13.6
1/13/2021 4:45:00 AM 1.48 34.664 0.064 7.28 2.15 13.59
1/13/2021 5:00:00 AM 1.47 34.646 0.064 7.27 2.17 13.61
1/13/2021 5:15:00 AM 1.45 34.61 0.064 7.28 2.17 13.62
1/13/2021 5:30:00 AM 1.44 34.592 0.064 7.29 2.12 13.62
1/13/2021 5:45:00 AM 1.43 34.574 0.064 7.27 2.2 13.62
1/13/2021 6:00:00 AM 1.42 34.556 0.064 7.28 2.14 13.62
1/13/2021 6:15:00 AM 1.41 34.538 0.064 7.28 2.23 13.63
1/13/2021 6:30:00 AM 1.4 34.52 0.064 7.28 2.21 13.62
1/13/2021 6:45:00 AM 1.39 34.502 0.064 7.28 2.13 13.64
1/13/2021 7:00:00 AM 1.38 34.484 0.064 7.28 2.18 13.62
1/13/2021 7:15:00 AM 1.36 34.448 0.064 7.28 2.11 13.64
1/13/2021 7:30:00 AM 1.35 34.43 0.064 7.29 2.19 13.64
1/13/2021 7:45:00 AM 1.34 34.412 0.064 7.28 2.13 13.65
1/13/2021 8:00:00 AM 1.33 34.394 0.064 7.28 2.13 13.66
1/13/2021 8:15:00 AM 1.32 34.376 0.064 7.29 2.11 13.66
1/13/2021 8:30:00 AM 1.31 34.358 0.064 7.29 2.1 13.68
1/13/2021 8:45:00 AM 1.31 34.358 0.064 7.29 2.07 13.68
1/13/2021 9:00:00 AM 1.31 34.358 0.064 7.29 2.29 13.7
1/13/2021 9:15:00 AM 1.31 34.358 0.064 7.29 2.18 13.75
1/13/2021 9:30:00 AM 1.31 34.358 0.063 7.31 2.1 13.77
1/13/2021 9:45:00 AM 1.31 34.358 0.063 7.32 2.13 13.8
1/13/2021 10:00:00 AM 1.32 34.376 0.063 7.32 2.11 13.82
1/13/2021 10:15:00 AM 1.34 34.412 0.063 7.33 2.09 13.85
1/13/2021 10:30:00 AM 1.37 34.466 0.063 7.34 2.09 13.86
1/13/2021 10:45:00 AM 1.41 34.538 0.063 7.34 2.19 13.87
1/13/2021 11:00:00 AM 1.45 34.61 0.063 7.35 2.46 13.88
1/13/2021 11:15:00 AM 1.49 34.682 0.063 7.35 2.16 13.88
1/13/2021 11:30:00 AM 1.53 34.754 0.063 7.34 2.18 13.87
1/13/2021 11:45:00 AM 1.57 34.826 0.063 7.36 2.22 13.86
1/13/2021 12:00:00 PM 1.61 34.898 0.063 7.36 2.1 13.84
1/13/2021 12:15:00 PM 1.66 34.988 0.063 7.36 2.14 13.85
1/13/2021 12:30:00 PM 1.71 35.078 0.063 7.37 2.14 13.83
1/13/2021 12:45:00 PM 1.76 35.168 0.063 7.38 2.14 13.82
1/13/2021 1:00:00 PM 1.81 35.258 0.063 7.38 2.22 13.8
1/13/2021 1:15:00 PM 1.86 35.348 0.063 7.37 2.28 13.78
1/13/2021 1:30:00 PM 1.93 35.474 0.063 7.38 2.14 13.75
1/13/2021 1:45:00 PM 2.01 35.618 0.063 7.36 2.21 13.73
1/13/2021 2:00:00 PM 2.15 35.87 0.063 7.39 2.25 13.7
1/13/2021 2:15:00 PM 2.2 35.96 0.063 7.37 2.29 13.67
1/13/2021 2:30:00 PM 2.22 35.996 0.063 7.39 2.11 13.64
1/13/2021 2:45:00 PM 2.23 36.014 0.063 7.38 2.39 13.62
1/13/2021 3:00:00 PM 2.25 36.05 0.063 7.39 2.43 13.6
1/13/2021 3:15:00 PM 2.27 36.086 0.063 7.39 2.31 13.59
1/13/2021 3:30:00 PM 2.3 36.14 0.063 7.39 3.07 13.57
1/13/2021 3:45:00 PM 2.33 36.194 0.063 7.39 2.33 13.55
1/13/2021 4:00:00 PM 2.34 36.212 0.063 7.39 2.54 13.54
1/13/2021 4:15:00 PM 2.34 36.212 0.063 7.38 2.32 13.53
1/13/2021 4:30:00 PM 2.35 36.23 0.063 7.39 2.5 13.51
1/13/2021 4:45:00 PM 2.34 36.212 0.063 7.37 2.33 13.47
1/13/2021 5:00:00 PM 2.33 36.194 0.063 7.37 2.89 13.43
1/13/2021 5:15:00 PM 2.31 36.158 0.063 7.35 2.34 13.39
1/13/2021 5:30:00 PM 2.3 36.14 0.063 7.35 2.29 13.36
1/13/2021 5:45:00 PM 2.28 36.104 0.063 7.34 2.52 13.34
1/13/2021 6:00:00 PM 2.26 36.068 0.063 7.33 2.32 13.31
1/13/2021 6:15:00 PM 2.24 36.032 0.063 7.32 3.03 13.3
1/13/2021 6:30:00 PM 2.21 35.978 0.063 7.32 2.34 13.29
1/13/2021 6:45:00 PM 2.19 35.942 0.064 7.31 2.23 13.28
1/13/2021 7:00:00 PM 2.17 35.906 0.064 7.29 2.29 13.28
1/13/2021 7:15:00 PM 2.15 35.87 0.064 7.3 2.57 13.28
1/13/2021 7:30:00 PM 2.13 35.834 0.064 7.3 2.9 13.28
1/13/2021 7:45:00 PM 2.11 35.798 0.064 7.3 2.64 13.28
1/13/2021 8:00:00 PM 2.1 35.78 0.064 7.3 2.37 13.29
1/13/2021 8:15:00 PM 2.08 35.744 0.064 7.27 2.17 13.29
1/13/2021 8:30:00 PM 2.06 35.708 0.064 7.3 2.35 13.29
1/13/2021 8:45:00 PM 2.04 35.672 0.064 7.29 2.54 13.3
1/13/2021 9:00:00 PM 2.02 35.636 0.064 7.29 2.29 13.31
1/13/2021 9:15:00 PM 2.01 35.618 0.064 7.27 2.3 13.32
1/13/2021 9:30:00 PM 1.99 35.582 0.064 7.29 2.45 13.32
1/13/2021 9:45:00 PM 1.98 35.564 0.064 7.28 2.3 13.33
1/13/2021 10:00:00 PM 1.96 35.528 0.064 7.29 2.26 13.33
1/13/2021 10:15:00 PM 1.95 35.51 0.064 7.29 2.94 13.33
1/13/2021 10:30:00 PM 1.94 35.492 0.064 7.29 2.23 13.35
1/13/2021 10:45:00 PM 1.93 35.474 0.064 7.27 2.28 13.34
1/13/2021 11:00:00 PM 1.92 35.456 0.064 7.28 2.31 13.35
1/13/2021 11:15:00 PM 1.91 35.438 0.064 7.29 2.23 13.36
1/13/2021 11:30:00 PM 1.9 35.42 0.064 7.28 2.34 13.36
1/13/2021 11:45:00 PM 1.89 35.402 0.064 7.28 2.23 13.36
1/14/2021 12:00:00 AM 1.88 35.384 0.064 7.28 2.45 13.36
1/14/2021 12:15:00 AM 1.87 35.366 0.064 7.28 2.78 13.36
1/14/2021 12:30:00 AM 1.86 35.348 0.064 7.28 2.24 13.37
1/14/2021 12:45:00 AM 1.85 35.33 0.064 7.26 2.29 13.37
1/14/2021 1:00:00 AM 1.84 35.312 0.064 7.26 2.31 13.38
1/14/2021 1:15:00 AM 1.83 35.294 0.064 7.28 2.22 13.38
1/14/2021 1:30:00 AM 1.82 35.276 0.064 7.28 2.4 13.38
1/14/2021 1:45:00 AM 1.82 35.276 0.064 7.27 2.32 13.38
1/14/2021 2:00:00 AM 1.81 35.258 0.064 7.28 2.23 13.38
1/14/2021 2:15:00 AM 1.81 35.258 0.064 7.28 2.27 13.39
1/14/2021 2:30:00 AM 1.8 35.24 0.064 7.27 2.34 13.39
1/14/2021 2:45:00 AM 1.8 35.24 0.064 7.28 2.85 13.39
1/14/2021 3:00:00 AM 1.8 35.24 0.064 7.27 2.28 13.39
1/14/2021 3:15:00 AM 1.79 35.222 0.064 7.28 2.54 13.39
1/14/2021 3:30:00 AM 1.79 35.222 0.064 7.25 3.74 13.39
1/14/2021 3:45:00 AM 1.79 35.222 0.064 7.27 2.44 13.39
1/14/2021 4:00:00 AM 1.79 35.222 0.064 7.28 2.26 13.39
1/14/2021 4:15:00 AM 1.79 35.222 0.064 7.28 2.26 13.39
1/14/2021 4:30:00 AM 1.79 35.222 0.064 7.27 2.29 13.39
1/14/2021 4:45:00 AM 1.79 35.222 0.064 7.28 2.3 13.39
1/14/2021 5:00:00 AM 1.8 35.24 0.064 7.27 2.26 13.39
1/14/2021 5:15:00 AM 1.8 35.24 0.064 7.28 2.26 13.39
1/14/2021 5:30:00 AM 1.8 35.24 0.064 7.28 2.31 13.38
1/14/2021 5:45:00 AM 1.8 35.24 0.064 7.27 2.35 13.39
1/14/2021 6:00:00 AM 1.8 35.24 0.064 7.28 2.31 13.39
1/14/2021 6:15:00 AM 1.8 35.24 0.064 7.26 2.31 13.39
1/14/2021 6:30:00 AM 1.79 35.222 0.064 7.28 2.3 13.39
1/14/2021 6:45:00 AM 1.79 35.222 0.064 7.26 2.31 13.39
1/14/2021 7:00:00 AM 1.79 35.222 0.064 7.28 2.27 13.39
1/14/2021 7:15:00 AM 1.79 35.222 0.064 7.27 2.55 13.4
1/14/2021 7:30:00 AM 1.79 35.222 0.064 7.26 2.28 13.39
1/14/2021 7:45:00 AM 1.79 35.222 0.064 7.27 2.28 13.39
1/14/2021 8:00:00 AM 1.79 35.222 0.064 7.28 2.31 13.4
1/14/2021 8:15:00 AM 1.78 35.204 0.064 7.26 2.44 13.41
1/14/2021 8:30:00 AM 1.77 35.186 0.064 7.28 2.27 13.44
1/14/2021 8:45:00 AM 1.78 35.204 0.064 7.29 2.32 13.47
1/14/2021 9:00:00 AM 1.78 35.204 0.064 7.29 2.61 13.5
1/14/2021 9:15:00 AM 1.79 35.222 0.064 7.3 2.29 13.54
1/14/2021 9:30:00 AM 1.81 35.258 0.064 7.31 2.35 13.56
1/14/2021 9:45:00 AM 1.85 35.33 0.063 7.32 2.72 13.6
1/14/2021 10:00:00 AM 1.89 35.402 0.063 7.33 2.35 13.62
1/14/2021 10:15:00 AM 1.94 35.492 0.063 7.34 2.29 13.63
1/14/2021 10:30:00 AM 2 35.6 0.063 7.34 2.29 13.64
1/14/2021 10:45:00 AM 2.07 35.726 0.063 7.36 2.35 13.64
1/14/2021 11:00:00 AM 2.16 35.888 0.063 7.36 2.33 13.63
1/14/2021 11:15:00 AM 2.26 36.068 0.063 7.35 2.45 13.63
1/14/2021 11:30:00 AM 2.36 36.248 0.063 7.38 2.39 13.6
1/14/2021 11:45:00 AM 2.47 36.446 0.063 7.39 2.5 13.58
1/14/2021 12:00:00 PM 2.54 36.572 0.063 7.38 2.38 13.54
1/14/2021 12:15:00 PM 2.58 36.644 0.063 7.39 2.33 13.5
1/14/2021 12:30:00 PM 2.64 36.752 0.063 7.4 2.28 13.47
1/14/2021 12:45:00 PM 2.69 36.842 0.063 7.38 2.3 13.44
1/14/2021 1:00:00 PM 2.74 36.932 0.063 7.4 2.78 13.42
1/14/2021 1:15:00 PM 2.8 37.04 0.063 7.4 2.43 13.4
1/14/2021 1:30:00 PM 2.87 37.166 0.063 7.4 2.34 13.38
1/14/2021 1:45:00 PM 2.93 37.274 0.063 7.4 2.34 13.37
1/14/2021 2:00:00 PM 3.02 37.436 0.063 7.41 2.31 13.35
1/14/2021 2:15:00 PM 3.1 37.58 0.063 7.41 2.34 13.32
1/14/2021 2:30:00 PM 3.18 37.724 0.063 7.42 2.35 13.3
1/14/2021 2:45:00 PM 3.26 37.868 0.063 7.42 2.43 13.27
1/14/2021 3:00:00 PM 3.33 37.994 0.063 7.42 2.77 13.25
1/14/2021 3:15:00 PM 3.38 38.084 0.063 7.42 2.46 13.22
1/14/2021 3:30:00 PM 3.42 38.156 0.063 7.43 2.59 13.2
1/14/2021 3:45:00 PM 3.46 38.228 0.059 7.42 4.08 13.18
1/14/2021 4:00:00 PM 3.45 38.21 0.063 7.43 2.41 13.16
1/14/2021 4:15:00 PM 3.41 38.138 0.063 7.42 2.42 13.13
1/14/2021 4:30:00 PM 3.36 38.048 0.059 7.4 3.47 13.1
1/14/2021 4:45:00 PM 3.31 37.958 0.063 7.39 2.74 13.08
1/14/2021 5:00:00 PM 3.26 37.868 0.063 7.39 2.82 13.05
1/14/2021 5:15:00 PM 3.21 37.778 0.063 7.37 2.6 13.02
1/14/2021 5:30:00 PM 3.15 37.67 0.063 7.36 2.48 13
1/14/2021 5:45:00 PM 3.09 37.562 0.063 7.35 2.74 12.99
1/14/2021 6:00:00 PM 3.03 37.454 0.063 7.31 2.51 12.99
1/14/2021 6:15:00 PM 2.98 37.364 0.063 7.33 2.53 12.98
1/14/2021 6:30:00 PM 2.92 37.256 0.063 7.33 2.65 12.99
1/14/2021 6:45:00 PM 2.86 37.148 0.063 7.32 2.63 12.99
1/14/2021 7:00:00 PM 2.81 37.058 0.063 7.32 2.57 12.99
1/14/2021 7:15:00 PM 2.76 36.968 0.063 7.31 2.69 13.01
1/14/2021 7:30:00 PM 2.72 36.896 0.063 7.29 2.45 13.01
1/14/2021 7:45:00 PM 2.67 36.806 0.063 7.31 2.89 13.04
1/14/2021 8:00:00 PM 2.62 36.716 0.063 7.31 2.5 13.05
1/14/2021 8:15:00 PM 2.58 36.644 0.063 7.28 2.46 13.07
1/14/2021 8:30:00 PM 2.53 36.554 0.064 7.3 2.46 13.08
1/14/2021 8:45:00 PM 2.48 36.464 0.064 7.3 2.52 13.1
1/14/2021 9:00:00 PM 2.43 36.374 0.064 7.3 2.54 13.14
1/14/2021 9:15:00 PM 2.38 36.284 0.064 7.3 2.5 13.15
1/14/2021 9:30:00 PM 2.34 36.212 0.064 7.27 2.57 13.16
1/14/2021 9:45:00 PM 2.3 36.14 0.064 7.29 2.49 13.18
1/14/2021 10:00:00 PM 2.27 36.086 0.064 7.29 2.55 13.2
1/14/2021 10:15:00 PM 2.24 36.032 0.064 7.29 2.51 13.2
1/14/2021 10:30:00 PM 2.21 35.978 0.064 7.29 2.52 13.22
1/14/2021 10:45:00 PM 2.17 35.906 0.064 7.3 2.57 13.23
1/14/2021 11:00:00 PM 2.15 35.87 0.064 7.29 2.6 13.24
1/14/2021 11:15:00 PM 2.12 35.816 0.064 7.28 6.1 13.24
1/14/2021 11:30:00 PM 2.08 35.744 0.064 7.29 2.45 13.26
1/14/2021 11:45:00 PM 2.04 35.672 0.064 7.29 2.49 13.27
1/15/2021 12:00:00 AM 2 35.6 0.064 7.29 3.18 13.29
1/15/2021 12:15:00 AM 1.96 35.528 0.064 7.29 2.46 13.31
1/15/2021 12:30:00 AM 1.93 35.474 0.064 7.28 3.65 13.33
1/15/2021 12:45:00 AM 1.88 35.384 0.064 7.29 2.45 13.34
1/15/2021 1:00:00 AM 1.84 35.312 0.064 7.28 2.76 13.36
1/15/2021 1:15:00 AM 1.8 35.24 0.064 7.29 2.46 13.38
1/15/2021 1:30:00 AM 1.77 35.186 0.064 7.28 2.33 13.4
1/15/2021 1:45:00 AM 1.73 35.114 0.064 7.29 2.44 13.41
1/15/2021 2:00:00 AM 1.7 35.06 0.064 7.29 2.42 13.42
1/15/2021 2:15:00 AM 1.67 35.006 0.064 7.28 2.38 13.43
1/15/2021 2:30:00 AM 1.64 34.952 0.064 7.28 2.36 13.44
1/15/2021 2:45:00 AM 1.61 34.898 0.064 7.28 2.31 13.46
1/15/2021 3:00:00 AM 1.57 34.826 0.064 7.28 2.4 13.47
1/15/2021 3:15:00 AM 1.53 34.754 0.064 7.28 2.41 13.48
1/15/2021 3:30:00 AM 1.5 34.7 0.064 7.28 2.35 13.49
1/15/2021 3:45:00 AM 1.48 34.664 0.064 7.28 2.31 13.5
1/15/2021 4:00:00 AM 1.46 34.628 0.064 7.27 2.34 13.51
1/15/2021 4:15:00 AM 1.44 34.592 0.064 7.29 2.37 13.52
1/15/2021 4:30:00 AM 1.42 34.556 0.064 7.27 2.39 13.53
1/15/2021 4:45:00 AM 1.4 34.52 0.064 7.29 2.4 13.54
1/15/2021 5:00:00 AM 1.37 34.466 0.064 7.28 2.29 13.54
1/15/2021 5:15:00 AM 1.36 34.448 0.064 7.29 2.38 13.55
1/15/2021 5:30:00 AM 1.34 34.412 0.064 7.29 2.51 13.56
1/15/2021 5:45:00 AM 1.32 34.376 0.064 7.29 2.4 13.57
1/15/2021 6:00:00 AM 1.31 34.358 0.064 7.26 2.37 13.58
1/15/2021 6:15:00 AM 1.31 34.358 0.064 7.28 2.37 13.58
1/15/2021 6:30:00 AM 1.31 34.358 0.064 7.29 2.33 13.58
1/15/2021 6:45:00 AM 1.31 34.358 0.064 7.27 2.36 13.59
1/15/2021 7:00:00 AM 1.31 34.358 0.064 7.29 2.35 13.58
1/15/2021 7:15:00 AM 1.32 34.376 0.064 7.29 2.39 13.58
1/15/2021 7:30:00 AM 1.32 34.376 0.064 7.26 2.31 13.58
1/15/2021 7:45:00 AM 1.33 34.394 0.064 7.29 2.29 13.59
1/15/2021 8:00:00 AM 1.34 34.412 0.064 7.29 2.29 13.59
1/15/2021 8:15:00 AM 1.35 34.43 0.064 7.3 2.43 13.61
1/15/2021 8:30:00 AM 1.37 34.466 0.064 7.31 2.33 13.65
1/15/2021 8:45:00 AM 1.4 34.52 0.064 7.32 2.34 13.68
1/15/2021 9:00:00 AM 1.43 34.574 0.064 7.33 2.36 13.71
1/15/2021 9:15:00 AM 1.47 34.646 0.064 7.33 2.34 13.75
1/15/2021 9:30:00 AM 1.52 34.736 0.064 7.35 2.38 13.77
1/15/2021 9:45:00 AM 1.57 34.826 0.064 7.37 2.25 13.78
1/15/2021 10:00:00 AM 1.64 34.952 0.061 7.37 3.22 13.79
1/15/2021 10:15:00 AM 1.69 35.042 0.064 7.38 2.27 13.8
1/15/2021 10:30:00 AM 1.74 35.132 0.064 7.39 2.32 13.78
1/15/2021 10:45:00 AM 1.79 35.222 0.064 7.38 2.27 13.77
1/15/2021 11:00:00 AM 1.87 35.366 0.064 7.4 2.29 13.76
1/15/2021 11:15:00 AM 1.94 35.492 0.064 7.41 3.49 13.74
1/15/2021 11:30:00 AM 2.01 35.618 0.064 7.41 2.3 13.72
1/15/2021 11:45:00 AM 2.08 35.744 0.064 7.41 2.37 13.7
1/15/2021 12:00:00 PM 2.15 35.87 0.064 7.4 2.4 13.67
1/15/2021 12:15:00 PM 2.23 36.014 0.063 7.42 2.29 13.64
1/15/2021 12:30:00 PM 2.29 36.122 0.063 7.43 2.3 13.62
1/15/2021 12:45:00 PM 2.33 36.194 0.063 7.43 2.35 13.59
1/15/2021 1:00:00 PM 2.39 36.302 0.063 7.43 2.34 13.57
1/15/2021 1:15:00 PM 2.46 36.428 0.063 7.43 2.37 13.55
1/15/2021 1:30:00 PM 2.56 36.608 0.063 7.43 2.45 13.52
1/15/2021 1:45:00 PM 2.71 36.878 0.063 7.44 2.34 13.47
1/15/2021 2:00:00 PM 2.77 36.986 0.063 7.44 2.34 13.44
1/15/2021 2:15:00 PM 2.8 37.04 0.063 7.44 2.33 13.42
1/15/2021 2:30:00 PM 2.81 37.058 0.063 7.44 2.33 13.38
1/15/2021 2:45:00 PM 2.82 37.076 0.063 7.43 2.36 13.35
1/15/2021 3:00:00 PM 2.86 37.148 0.063 7.43 3.24 13.33
1/15/2021 3:15:00 PM 2.9 37.22 0.063 7.43 2.38 13.31
1/15/2021 3:30:00 PM 2.92 37.256 0.063 7.44 2.36 13.29
1/15/2021 3:45:00 PM 2.93 37.274 0.063 7.43 2.34 13.26
1/15/2021 4:00:00 PM 2.93 37.274 0.064 7.42 2.4 13.23
1/15/2021 4:15:00 PM 2.93 37.274 0.064 7.41 5.63 13.2
1/15/2021 4:30:00 PM 2.92 37.256 0.064 7.39 2.4 13.15
1/15/2021 4:45:00 PM 2.91 37.238 0.063 7.38 4.84 13.12
1/15/2021 5:00:00 PM 2.91 37.238 0.063 7.38 4 13.09
1/15/2021 5:15:00 PM 2.9 37.22 0.063 7.34 2.36 13.06
1/15/2021 5:30:00 PM 2.9 37.22 0.064 7.35 47.94 13.03
1/15/2021 5:45:00 PM 2.9 37.22 0.064 7.32 4.22 13
1/15/2021 6:00:00 PM 2.89 37.202 0.064 7.34 3.25 12.98
1/15/2021 6:15:00 PM 2.89 37.202 0.065 7.33 3.2 12.97
1/15/2021 6:30:00 PM 2.88 37.184 0.066 7.33 3.17 12.97
1/15/2021 6:45:00 PM 2.87 37.166 0.062 7.31 3.67 12.96
1/15/2021 7:00:00 PM 2.85 37.13 0.065 7.32 2.82 12.96
1/15/2021 7:15:00 PM 2.84 37.112 0.066 7.32 2.65 12.96
1/15/2021 7:30:00 PM 2.84 37.112 0.066 7.3 2.66 12.96
1/15/2021 7:45:00 PM 2.83 37.094 0.066 7.31 2.79 12.95
1/15/2021 8:00:00 PM 2.82 37.076 0.066 7.31 2.89 12.95
1/15/2021 8:15:00 PM 2.81 37.058 0.065 7.31 2.8 12.96
1/15/2021 8:30:00 PM 2.8 37.04 0.065 7.3 2.77 12.97
1/15/2021 8:45:00 PM 2.79 37.022 0.065 7.28 2.91 12.97
1/15/2021 9:00:00 PM 2.77 36.986 0.065 7.3 2.85 12.97
1/15/2021 9:15:00 PM 2.76 36.968 0.067 7.29 2.96 12.97
1/15/2021 9:30:00 PM 2.75 36.95 0.068 7.27 2.99 12.98
1/15/2021 9:45:00 PM 2.74 36.932 0.064 7.29 3.91 12.98
1/15/2021 10:00:00 PM 2.73 36.914 0.067 7.29 2.92 12.98
1/15/2021 10:15:00 PM 2.71 36.878 0.067 7.3 2.99 12.99
1/15/2021 10:30:00 PM 2.69 36.842 0.067 7.28 3.03 12.99
1/15/2021 10:45:00 PM 2.67 36.806 0.067 7.29 2.86 12.99
1/15/2021 11:00:00 PM 2.66 36.788 0.067 7.29 3.23 13
1/15/2021 11:15:00 PM 2.63 36.734 0.067 7.26 2.88 13
1/15/2021 11:30:00 PM 2.59 36.662 0.067 7.29 2.99 13.01
1/15/2021 11:45:00 PM 2.54 36.572 0.067 7.28 2.86 13.02
1/16/2021 12:00:00 AM 2.51 36.518 0.067 7.28 3.35 13.03
1/16/2021 12:15:00 AM 2.5 36.5 0.067 7.29 2.84 13.04
1/16/2021 12:30:00 AM 2.48 36.464 0.067 7.29 2.86 13.06
1/16/2021 12:45:00 AM 2.46 36.428 0.068 7.28 2.87 13.07
1/16/2021 1:00:00 AM 2.44 36.392 0.068 7.28 2.95 13.08
1/16/2021 1:15:00 AM 2.42 36.356 0.067 7.28 2.93 13.09
1/16/2021 1:30:00 AM 2.4 36.32 0.067 7.27 2.96 13.1
1/16/2021 1:45:00 AM 2.37 36.266 0.064 7.28 3.93 13.1
1/16/2021 2:00:00 AM 2.35 36.23 0.067 7.28 2.88 13.11
1/16/2021 2:15:00 AM 2.33 36.194 0.067 7.28 2.93 13.11
1/16/2021 2:30:00 AM 2.32 36.176 0.067 7.28 2.93 13.12
1/16/2021 2:45:00 AM 2.31 36.158 0.068 7.28 2.82 13.13
1/16/2021 3:00:00 AM 2.29 36.122 0.068 7.27 2.83 13.13
1/16/2021 3:15:00 AM 2.26 36.068 0.068 7.28 2.95 13.13
1/16/2021 3:30:00 AM 2.24 36.032 0.068 7.28 2.86 13.13
1/16/2021 3:45:00 AM 2.22 35.996 0.068 7.28 2.89 13.13
1/16/2021 4:00:00 AM 2.2 35.96 0.069 7.28 2.92 13.14
1/16/2021 4:15:00 AM 2.16 35.888 0.069 7.26 2.88 13.15
1/16/2021 4:30:00 AM 2.14 35.852 0.069 7.27 2.86 13.16
1/16/2021 4:45:00 AM 2.1 35.78 0.07 7.28 2.86 13.17
1/16/2021 5:00:00 AM 2.09 35.762 0.07 7.28 2.96 13.17
1/16/2021 5:15:00 AM 2.09 35.762 0.07 7.28 2.92 13.18
1/16/2021 5:30:00 AM 2.09 35.762 0.071 7.28 2.9 13.18
1/16/2021 5:45:00 AM 2.08 35.744 0.071 7.27 2.87 13.18
1/16/2021 6:00:00 AM 2.06 35.708 0.071 7.29 2.91 13.19
1/16/2021 6:15:00 AM 2.04 35.672 0.071 7.28 2.84 13.19
1/16/2021 6:30:00 AM 2.03 35.654 0.072 7.29 2.81 13.2
1/16/2021 6:45:00 AM 2.01 35.618 0.072 7.29 2.81 13.2
1/16/2021 7:00:00 AM 2 35.6 0.072 7.28 2.85 13.21
1/16/2021 7:15:00 AM 1.99 35.582 0.072 7.29 2.77 13.21
1/16/2021 7:30:00 AM 1.98 35.564 0.072 7.3 2.75 13.21
1/16/2021 7:45:00 AM 1.98 35.564 0.072 7.28 2.84 13.22
1/16/2021 8:00:00 AM 1.98 35.564 0.072 7.3 2.87 13.24
1/16/2021 8:15:00 AM 1.97 35.546 0.072 7.31 2.83 13.26
1/16/2021 8:30:00 AM 1.96 35.528 0.072 7.32 2.84 13.31
1/16/2021 8:45:00 AM 1.95 35.51 0.073 7.32 2.76 13.33
1/16/2021 9:00:00 AM 1.95 35.51 0.073 7.33 2.79 13.37
1/16/2021 9:15:00 AM 1.94 35.492 0.073 7.34 2.95 13.43
1/16/2021 9:30:00 AM 1.93 35.474 0.073 7.36 2.7 13.47
1/16/2021 9:45:00 AM 1.95 35.51 0.073 7.37 2.82 13.52
1/16/2021 10:00:00 AM 1.99 35.582 0.073 7.37 2.79 13.53
1/16/2021 10:15:00 AM 2.02 35.636 0.073 7.39 2.71 13.56
1/16/2021 10:30:00 AM 2.05 35.69 0.073 7.4 2.93 13.57
1/16/2021 10:45:00 AM 2.1 35.78 0.073 7.41 2.91 13.57
1/16/2021 11:00:00 AM 2.15 35.87 0.073 7.4 2.82 13.57
1/16/2021 11:15:00 AM 2.22 35.996 0.073 7.42 2.95 13.56
1/16/2021 11:30:00 AM 2.3 36.14 0.073 7.43 2.69 13.56
1/16/2021 11:45:00 AM 2.35 36.23 0.072 7.41 2.71 13.54
1/16/2021 12:00:00 PM 2.43 36.374 0.072 7.44 2.83 13.53
1/16/2021 12:15:00 PM 2.51 36.518 0.072 7.44 2.76 13.5
1/16/2021 12:30:00 PM 2.6 36.68 0.072 7.45 2.89 13.46
1/16/2021 12:45:00 PM 2.68 36.824 0.072 7.43 2.74 13.44
1/16/2021 1:00:00 PM 2.74 36.932 0.072 7.45 2.76 13.41
1/16/2021 1:15:00 PM 2.84 37.112 0.068 7.45 3.66 13.38
1/16/2021 1:30:00 PM 2.91 37.238 0.072 7.45 2.74 13.36
1/16/2021 1:45:00 PM 2.95 37.31 0.072 7.46 2.81 13.34
1/16/2021 2:00:00 PM 2.98 37.364 0.072 7.47 2.73 13.32
1/16/2021 2:15:00 PM 3 37.4 0.072 7.47 2.72 13.31
1/16/2021 2:30:00 PM 3 37.4 0.072 7.45 2.79 13.29
1/16/2021 2:45:00 PM 3.01 37.418 0.072 7.47 2.73 13.29
1/16/2021 3:00:00 PM 3.02 37.436 0.072 7.45 2.72 13.27
1/16/2021 3:15:00 PM 3.05 37.49 0.072 7.47 2.82 13.26
1/16/2021 3:30:00 PM 3.07 37.526 0.072 7.47 2.76 13.26
1/16/2021 3:45:00 PM 3.09 37.562 0.068 7.46 3.6 13.25
1/16/2021 4:00:00 PM 3.1 37.58 0.071 7.44 3.15 13.23
1/16/2021 4:15:00 PM 3.09 37.562 0.071 7.47 2.85 13.21
1/16/2021 4:30:00 PM 3.03 37.454 0.071 7.45 2.96 13.15
1/16/2021 4:45:00 PM 2.86 37.148 0.071 7.43 2.74 13.08
1/16/2021 5:00:00 PM 2.66 36.788 0.071 7.38 3.13 13.06
1/16/2021 5:15:00 PM 2.56 36.608 0.071 7.4 3.02 13.06
1/16/2021 5:30:00 PM 2.49 36.482 0.071 7.38 3.01 13.07
1/16/2021 5:45:00 PM 2.48 36.464 0.071 7.36 2.81 13.06
1/16/2021 6:00:00 PM 2.47 36.446 0.072 7.36 2.81 13.06
1/16/2021 6:15:00 PM 2.48 36.464 0.069 7.35 3.64 13.04
1/16/2021 6:30:00 PM 2.5 36.5 0.073 7.33 2.78 13.03
1/16/2021 6:45:00 PM 2.51 36.518 0.073 7.34 3 13.02
1/16/2021 7:00:00 PM 2.49 36.482 0.073 7.33 2.73 13.02
1/16/2021 7:15:00 PM 2.46 36.428 0.072 7.33 3.03 13.01
1/16/2021 7:30:00 PM 2.42 36.356 0.072 7.33 3.06 13.02
1/16/2021 7:45:00 PM 2.39 36.302 0.072 7.33 3.09 13.03
1/16/2021 8:00:00 PM 2.36 36.248 0.072 7.32 2.95 13.04
1/16/2021 8:15:00 PM 2.32 36.176 0.072 7.3 2.95 13.05
1/16/2021 8:30:00 PM 2.27 36.086 0.072 7.32 2.77 13.06
1/16/2021 8:45:00 PM 2.23 36.014 0.071 7.32 3 13.07
1/16/2021 9:00:00 PM 2.19 35.942 0.071 7.32 2.96 13.09
1/16/2021 9:15:00 PM 2.16 35.888 0.071 7.29 2.93 13.1
1/16/2021 9:30:00 PM 2.14 35.852 0.071 7.31 3 13.11
1/16/2021 9:45:00 PM 2.12 35.816 0.071 7.31 2.89 13.12
1/16/2021 10:00:00 PM 2.1 35.78 0.071 7.3 2.99 13.13
1/16/2021 10:15:00 PM 2.09 35.762 0.071 7.31 2.9 13.13
1/16/2021 10:30:00 PM 2.07 35.726 0.071 7.31 2.86 13.14
1/16/2021 10:45:00 PM 2.05 35.69 0.071 7.29 3.01 13.15
1/16/2021 11:00:00 PM 2.03 35.654 0.071 7.31 4.41 13.16
1/16/2021 11:15:00 PM 2.02 35.636 0.071 7.31 2.9 13.16
1/16/2021 11:30:00 PM 2.01 35.618 0.071 7.31 3.64 13.17
1/16/2021 11:45:00 PM 2 35.6 0.071 7.29 16.13 13.17
1/17/2021 12:00:00 AM 1.99 35.582 0.071 7.31 2.83 13.18
1/17/2021 12:15:00 AM 1.97 35.546 0.071 7.31 3.25 13.19
1/17/2021 12:30:00 AM 1.96 35.528 0.071 7.3 2.75 13.19
1/17/2021 12:45:00 AM 1.95 35.51 0.071 7.31 2.71 13.2
1/17/2021 1:00:00 AM 1.93 35.474 0.071 7.31 2.67 13.21
1/17/2021 1:15:00 AM 1.92 35.456 0.071 7.31 2.74 13.21
1/17/2021 1:30:00 AM 1.9 35.42 0.071 7.31 2.71 13.22
1/17/2021 1:45:00 AM 1.89 35.402 0.071 7.29 2.71 13.23
1/17/2021 2:00:00 AM 1.87 35.366 0.067 7.31 3.53 13.24
1/17/2021 2:15:00 AM 1.85 35.33 0.071 7.3 2.71 13.24
1/17/2021 2:30:00 AM 1.83 35.294 0.071 7.31 2.96 13.26
1/17/2021 2:45:00 AM 1.82 35.276 0.067 7.31 3.78 13.27
1/17/2021 3:00:00 AM 1.8 35.24 0.071 7.29 2.71 13.27
1/17/2021 3:15:00 AM 1.79 35.222 0.071 7.31 2.67 13.28
1/17/2021 3:30:00 AM 1.78 35.204 0.071 7.31 2.63 13.28
1/17/2021 3:45:00 AM 1.76 35.168 0.071 7.29 2.65 13.29
1/17/2021 4:00:00 AM 1.74 35.132 0.071 7.31 2.77 13.3
1/17/2021 4:15:00 AM 1.73 35.114 0.071 7.31 4.08 13.31
1/17/2021 4:30:00 AM 1.7 35.06 0.071 7.31 2.64 13.32
1/17/2021 4:45:00 AM 1.67 35.006 0.071 7.31 2.67 13.32
1/17/2021 5:00:00 AM 1.66 34.988 0.071 7.31 2.65 13.33
1/17/2021 5:15:00 AM 1.65 34.97 0.071 7.31 2.67 13.34
1/17/2021 5:30:00 AM 1.64 34.952 0.071 7.3 2.73 13.35
1/17/2021 5:45:00 AM 1.63 34.934 0.071 7.3 2.79 13.36
1/17/2021 6:00:00 AM 1.61 34.898 0.071 7.31 2.71 13.36
1/17/2021 6:15:00 AM 1.6 34.88 0.071 7.31 2.75 13.37
1/17/2021 6:30:00 AM 1.6 34.88 0.071 7.31 2.74 13.37
1/17/2021 6:45:00 AM 1.59 34.862 0.071 7.31 2.64 13.37
1/17/2021 7:00:00 AM 1.6 34.88 0.071 7.31 2.6 13.37
1/17/2021 7:15:00 AM 1.59 34.862 0.071 7.31 2.63 13.38
1/17/2021 7:30:00 AM 1.59 34.862 0.071 7.3 2.59 13.38
1/17/2021 7:45:00 AM 1.59 34.862 0.071 7.3 2.65 13.38
1/17/2021 8:00:00 AM 1.59 34.862 0.071 7.31 2.62 13.39
1/17/2021 8:15:00 AM 1.6 34.88 0.071 7.32 2.6 13.41
1/17/2021 8:30:00 AM 1.6 34.88 0.071 7.31 2.61 13.43
1/17/2021 8:45:00 AM 1.61 34.898 0.071 7.32 2.58 13.45
1/17/2021 9:00:00 AM 1.62 34.916 0.071 7.32 2.62 13.47
1/17/2021 9:15:00 AM 1.62 34.916 0.071 7.34 2.53 13.51
1/17/2021 9:30:00 AM 1.64 34.952 0.071 7.35 2.53 13.55
1/17/2021 9:45:00 AM 1.66 34.988 0.071 7.35 2.57 13.58
1/17/2021 10:00:00 AM 1.68 35.024 0.071 7.37 2.54 13.61
1/17/2021 10:15:00 AM 1.71 35.078 0.071 7.36 2.53 13.64
1/17/2021 10:30:00 AM 1.74 35.132 0.07 7.39 2.53 13.66
1/17/2021 10:45:00 AM 1.77 35.186 0.07 7.39 2.53 13.68
1/17/2021 11:00:00 AM 1.82 35.276 0.07 7.4 2.76 13.7
1/17/2021 11:15:00 AM 1.87 35.366 0.07 7.42 2.61 13.71
1/17/2021 11:30:00 AM 1.91 35.438 0.07 7.42 2.59 13.7
1/17/2021 11:45:00 AM 1.94 35.492 0.07 7.42 2.56 13.7
1/17/2021 12:00:00 PM 1.97 35.546 0.07 7.43 2.71 13.68
1/17/2021 12:15:00 PM 2 35.6 0.07 7.43 2.57 13.67
1/17/2021 12:30:00 PM 2.03 35.654 0.07 7.42 2.55 13.66
1/17/2021 12:45:00 PM 2.07 35.726 0.07 7.44 2.57 13.65
1/17/2021 1:00:00 PM 2.11 35.798 0.07 7.44 2.53 13.64
1/17/2021 1:15:00 PM 2.13 35.834 0.07 7.45 2.55 13.62
1/17/2021 1:30:00 PM 2.16 35.888 0.07 7.44 2.63 13.61
1/17/2021 1:45:00 PM 2.2 35.96 0.07 7.45 2.65 13.6
1/17/2021 2:00:00 PM 2.25 36.05 0.07 7.45 2.61 13.6
1/17/2021 2:15:00 PM 2.31 36.158 0.07 7.46 2.56 13.6
1/17/2021 2:30:00 PM 2.38 36.284 0.07 7.46 2.81 13.58
1/17/2021 2:45:00 PM 2.44 36.392 0.07 7.46 2.53 13.57
1/17/2021 3:00:00 PM 2.46 36.428 0.07 7.47 2.56 13.56
1/17/2021 3:15:00 PM 2.47 36.446 0.07 7.47 2.81 13.53
1/17/2021 3:30:00 PM 2.48 36.464 0.07 7.46 2.61 13.51
1/17/2021 3:45:00 PM 2.5 36.5 0.07 7.46 2.53 13.51
1/17/2021 4:00:00 PM 2.51 36.518 0.07 7.47 2.7 13.5
1/17/2021 4:15:00 PM 2.53 36.554 0.07 7.45 2.68 13.49
1/17/2021 4:30:00 PM 2.53 36.554 0.07 7.46 2.71 13.46
1/17/2021 4:45:00 PM 2.52 36.536 0.07 7.45 2.69 13.42
1/17/2021 5:00:00 PM 2.51 36.518 0.07 7.43 2.69 13.35
1/17/2021 5:15:00 PM 2.5 36.5 0.07 7.42 2.59 13.3
1/17/2021 5:30:00 PM 2.49 36.482 0.07 7.37 2.62 13.25
1/17/2021 5:45:00 PM 2.47 36.446 0.07 7.39 2.69 13.22
1/17/2021 6:00:00 PM 2.45 36.41 0.07 7.35 2.72 13.19
1/17/2021 6:15:00 PM 2.43 36.374 0.07 7.36 2.54 13.18
1/17/2021 6:30:00 PM 2.41 36.338 0.07 7.34 2.6 13.16
1/17/2021 6:45:00 PM 2.4 36.32 0.07 7.35 2.76 13.15
1/17/2021 7:00:00 PM 2.38 36.284 0.07 7.33 2.68 13.15
1/17/2021 7:15:00 PM 2.37 36.266 0.07 7.34 2.88 13.15
1/17/2021 7:30:00 PM 2.35 36.23 0.07 7.34 2.64 13.14
1/17/2021 7:45:00 PM 2.34 36.212 0.07 7.32 2.65 13.15
1/17/2021 8:00:00 PM 2.32 36.176 0.07 7.33 2.62 13.15
1/17/2021 8:15:00 PM 2.31 36.158 0.07 7.33 2.57 13.14
1/17/2021 8:30:00 PM 2.29 36.122 0.07 7.33 2.67 13.15
1/17/2021 8:45:00 PM 2.28 36.104 0.07 7.31 2.63 13.15
1/17/2021 9:00:00 PM 2.26 36.068 0.07 7.33 2.81 13.16
1/17/2021 9:15:00 PM 2.25 36.05 0.07 7.33 2.82 13.16
1/17/2021 9:30:00 PM 2.22 35.996 0.07 7.3 2.61 13.15
1/17/2021 9:45:00 PM 2.18 35.924 0.07 7.32 2.59 13.16
1/17/2021 10:00:00 PM 2.16 35.888 0.07 7.32 2.53 13.17
1/17/2021 10:15:00 PM 2.14 35.852 0.07 7.32 2.58 13.17
1/17/2021 10:30:00 PM 2.12 35.816 0.07 7.3 2.58 13.18
1/17/2021 10:45:00 PM 2.11 35.798 0.07 7.32 2.55 13.18
1/17/2021 11:00:00 PM 2.1 35.78 0.07 7.31 2.67 13.19
1/17/2021 11:15:00 PM 2.08 35.744 0.07 7.31 2.89 13.2
1/17/2021 11:30:00 PM 2.06 35.708 0.07 7.3 2.72 13.2
1/17/2021 11:45:00 PM 2.05 35.69 0.07 7.31 2.64 13.21
1/18/2021 12:00:00 AM 2.02 35.636 0.07 7.3 2.7 13.21
1/18/2021 12:15:00 AM 2 35.6 0.07 7.29 4.23 13.22
1/18/2021 12:30:00 AM 1.98 35.564 0.07 7.31 2.64 13.23
1/18/2021 12:45:00 AM 1.97 35.546 0.07 7.3 2.57 13.24
1/18/2021 1:00:00 AM 1.96 35.528 0.07 7.31 2.66 13.24
1/18/2021 1:15:00 AM 1.94 35.492 0.07 7.3 2.62 13.25
1/18/2021 1:30:00 AM 1.94 35.492 0.07 7.31 2.61 13.25
1/18/2021 1:45:00 AM 1.93 35.474 0.07 7.31 2.88 13.26
1/18/2021 2:00:00 AM 1.93 35.474 0.07 7.29 2.57 13.26
1/18/2021 2:15:00 AM 1.92 35.456 0.07 7.31 2.56 13.26
1/18/2021 2:30:00 AM 1.92 35.456 0.07 7.31 2.61 13.27
1/18/2021 2:45:00 AM 1.92 35.456 0.07 7.3 2.62 13.28
1/18/2021 3:00:00 AM 1.92 35.456 0.07 7.3 2.62 13.28
1/18/2021 3:15:00 AM 1.92 35.456 0.07 7.3 2.58 13.27
1/18/2021 3:30:00 AM 1.92 35.456 0.07 7.3 2.63 13.27
1/18/2021 3:45:00 AM 1.92 35.456 0.07 7.3 2.56 13.28
1/18/2021 4:00:00 AM 1.92 35.456 0.07 7.29 2.61 13.28
1/18/2021 4:15:00 AM 1.92 35.456 0.07 7.31 2.69 13.28
1/18/2021 4:30:00 AM 1.92 35.456 0.07 7.3 2.65 13.28
1/18/2021 4:45:00 AM 1.92 35.456 0.07 7.31 2.8 13.28
1/18/2021 5:00:00 AM 1.92 35.456 0.07 7.31 2.65 13.28
1/18/2021 5:15:00 AM 1.91 35.438 0.07 7.28 2.63 13.28
1/18/2021 5:30:00 AM 1.91 35.438 0.07 7.31 2.57 13.28
1/18/2021 5:45:00 AM 1.89 35.402 0.07 7.3 2.71 13.29
1/18/2021 6:00:00 AM 1.87 35.366 0.07 7.3 2.63 13.29
1/18/2021 6:15:00 AM 1.86 35.348 0.07 7.29 2.72 13.31
1/18/2021 6:30:00 AM 1.84 35.312 0.07 7.31 2.64 13.32
1/18/2021 6:45:00 AM 1.83 35.294 0.07 7.3 2.71 13.31
1/18/2021 7:00:00 AM 1.81 35.258 0.07 7.3 2.67 13.32
1/18/2021 7:15:00 AM 1.79 35.222 0.07 7.29 2.69 13.33
1/18/2021 7:30:00 AM 1.77 35.186 0.07 7.31 2.63 13.34
1/18/2021 7:45:00 AM 1.77 35.186 0.07 7.31 2.71 13.35
1/18/2021 8:00:00 AM 1.76 35.168 0.07 7.31 2.68 13.39
1/18/2021 8:15:00 AM 1.76 35.168 0.07 7.32 2.67 13.42
1/18/2021 8:30:00 AM 1.76 35.168 0.07 7.34 2.63 13.48
1/18/2021 8:45:00 AM 1.76 35.168 0.07 7.33 2.67 13.53
1/18/2021 9:00:00 AM 1.76 35.168 0.07 7.36 2.76 13.59
1/18/2021 9:15:00 AM 1.77 35.186 0.069 7.38 2.95 13.63
1/18/2021 9:30:00 AM 1.8 35.24 0.07 7.39 2.71 13.68
1/18/2021 9:45:00 AM 1.82 35.276 0.07 7.41 2.92 13.7
1/18/2021 10:00:00 AM 1.88 35.384 0.069 7.42 2.66 13.74
1/18/2021 10:15:00 AM 1.92 35.456 0.069 7.41 2.68 13.75
1/18/2021 10:30:00 AM 1.96 35.528 0.069 7.44 2.66 13.76
1/18/2021 10:45:00 AM 2.01 35.618 0.069 7.45 2.69 13.76
1/18/2021 11:00:00 AM 2.07 35.726 0.069 7.43 2.67 13.76
1/18/2021 11:15:00 AM 2.11 35.798 0.069 7.46 2.73 13.75
1/18/2021 11:30:00 AM 2.17 35.906 0.069 7.47 2.62 13.74
1/18/2021 11:45:00 AM 2.2 35.96 0.069 7.45 2.89 13.71
1/18/2021 12:00:00 PM 2.21 35.978 0.069 7.47 2.87 13.7
1/18/2021 12:15:00 PM 2.23 36.014 0.069 7.47 2.67 13.68
1/18/2021 12:30:00 PM 2.29 36.122 0.069 7.48 2.64 13.67
1/18/2021 12:45:00 PM 2.37 36.266 0.069 7.48 2.76 13.68
1/18/2021 1:00:00 PM 2.45 36.41 0.069 7.49 2.58 13.66
1/18/2021 1:15:00 PM 2.51 36.518 0.069 7.49 2.63 13.64
1/18/2021 1:30:00 PM 2.55 36.59 0.069 7.47 2.64 13.62
1/18/2021 1:45:00 PM 2.56 36.608 0.069 7.49 2.67 13.6
1/18/2021 2:00:00 PM 2.58 36.644 0.069 7.48 2.69 13.58
1/18/2021 2:15:00 PM 2.58 36.644 0.069 7.49 2.65 13.56
1/18/2021 2:30:00 PM 2.57 36.626 0.069 7.48 2.68 13.54
1/18/2021 2:45:00 PM 2.55 36.59 0.069 7.48 2.98 13.52
1/18/2021 3:00:00 PM 2.54 36.572 0.069 7.46 2.77 13.51
1/18/2021 3:15:00 PM 2.51 36.518 0.069 7.46 3.53 13.46
1/18/2021 3:30:00 PM 2.5 36.5 0.069 7.47 4.03 13.5
1/18/2021 3:45:00 PM 2.47 36.446 0.069 7.46 2.88 13.49
1/18/2021 4:00:00 PM 2.45 36.41 0.069 7.44 3.27 13.47
1/18/2021 4:15:00 PM 2.43 36.374 0.069 7.45 3.27 13.45
1/18/2021 4:30:00 PM 2.41 36.338 0.069 7.43 1.9 13.43
1/18/2021 4:45:00 PM 2.38 36.284 0.069 7.41 1.33 13.4
1/18/2021 5:00:00 PM 2.36 36.248 0.069 7.41 3.54 13.37
1/18/2021 5:15:00 PM 2.35 36.23 0.069 7.39 5.27 13.33
1/18/2021 5:30:00 PM 2.33 36.194 0.069 7.38 2.74 13.31
1/18/2021 5:45:00 PM 2.31 36.158 0.07 7.37 2.69 13.29
1/18/2021 6:00:00 PM 2.3 36.14 0.07 7.36 2.74 13.27
1/18/2021 6:15:00 PM 2.28 36.104 0.07 7.35 2.67 13.27
1/18/2021 6:30:00 PM 2.25 36.05 0.07 7.35 2.65 13.26
1/18/2021 6:45:00 PM 2.23 36.014 0.07 7.34 2.71 13.25
1/18/2021 7:00:00 PM 2.21 35.978 0.07 7.34 2.68 13.26
1/18/2021 7:15:00 PM 2.19 35.942 0.07 7.33 2.76 13.26
1/18/2021 7:30:00 PM 2.17 35.906 0.07 7.33 2.61 13.26
1/18/2021 7:45:00 PM 2.15 35.87 0.071 7.31 2.85 13.27
1/18/2021 8:00:00 PM 2.14 35.852 0.071 7.33 2.67 13.28
1/18/2021 8:15:00 PM 2.12 35.816 0.071 7.33 2.63 13.29
1/18/2021 8:30:00 PM 2.1 35.78 0.071 7.33 2.77 13.29
1/18/2021 8:45:00 PM 2.08 35.744 0.071 7.3 2.62 13.31
1/18/2021 9:00:00 PM 2.07 35.726 0.071 7.32 2.67 13.31
1/18/2021 9:15:00 PM 2.05 35.69 0.071 7.32 2.56 13.32
1/18/2021 9:30:00 PM 2.03 35.654 0.071 7.32 2.6 13.33
1/18/2021 9:45:00 PM 2.02 35.636 0.071 7.31 2.65 13.33
1/18/2021 10:00:00 PM 2 35.6 0.071 7.32 2.62 13.34
1/18/2021 10:15:00 PM 1.98 35.564 0.071 7.32 2.68 13.35
1/18/2021 10:30:00 PM 1.97 35.546 0.071 7.31 2.61 13.36
1/18/2021 10:45:00 PM 1.95 35.51 0.071 7.32 2.57 13.36
1/18/2021 11:00:00 PM 1.94 35.492 0.071 7.3 2.62 13.37
1/18/2021 11:15:00 PM 1.92 35.456 0.071 7.32 2.61 13.38
1/18/2021 11:30:00 PM 1.89 35.402 0.071 7.3 2.63 13.39
1/18/2021 11:45:00 PM 1.86 35.348 0.071 7.31 2.59 13.4
1/19/2021 12:00:00 AM 1.84 35.312 0.071 7.32 2.61 13.41
1/19/2021 12:15:00 AM 1.81 35.258 0.071 7.32 2.65 13.42
1/19/2021 12:30:00 AM 1.79 35.222 0.071 7.31 2.66 13.43
1/19/2021 12:45:00 AM 1.77 35.186 0.071 7.32 2.63 13.44
1/19/2021 1:00:00 AM 1.75 35.15 0.071 7.32 2.8 13.45
1/19/2021 1:15:00 AM 1.72 35.096 0.071 7.29 2.59 13.46
1/19/2021 1:30:00 AM 1.71 35.078 0.071 7.32 2.6 13.47
1/19/2021 1:45:00 AM 1.67 35.006 0.071 7.31 2.57 13.48
1/19/2021 2:00:00 AM 1.65 34.97 0.071 7.32 2.57 13.49
1/19/2021 2:15:00 AM 1.63 34.934 0.071 7.32 2.63 13.49
1/19/2021 2:30:00 AM 1.61 34.898 0.071 7.32 2.55 13.51
1/19/2021 2:45:00 AM 1.6 34.88 0.071 7.32 2.64 13.51
1/19/2021 3:00:00 AM 1.59 34.862 0.071 7.3 2.59 13.51
1/19/2021 3:15:00 AM 1.58 34.844 0.071 7.32 2.54 13.53
1/19/2021 3:30:00 AM 1.56 34.808 0.071 7.32 2.69 13.53
1/19/2021 3:45:00 AM 1.54 34.772 0.071 7.31 2.58 13.55
1/19/2021 4:00:00 AM 1.52 34.736 0.071 7.3 2.57 13.56
1/19/2021 4:15:00 AM 1.51 34.718 0.071 7.32 2.8 13.55
1/19/2021 4:30:00 AM 1.49 34.682 0.071 7.31 3.04 13.57
1/19/2021 4:45:00 AM 1.48 34.664 0.071 7.31 2.48 13.57
1/19/2021 5:00:00 AM 1.47 34.646 0.071 7.31 4.22 13.57
1/19/2021 5:15:00 AM 1.46 34.628 0.071 7.32 2.58 13.58
1/19/2021 5:30:00 AM 1.46 34.628 0.071 7.3 2.49 13.59
1/19/2021 5:45:00 AM 1.44 34.592 0.071 7.31 2.57 13.59
1/19/2021 6:00:00 AM 1.43 34.574 0.071 7.32 3.73 13.6
1/19/2021 6:15:00 AM 1.42 34.556 0.071 7.31 2.54 13.61
1/19/2021 6:30:00 AM 1.41 34.538 0.071 7.32 2.63 13.61
1/19/2021 6:45:00 AM 1.4 34.52 0.071 7.32 2.49 13.62
1/19/2021 7:00:00 AM 1.4 34.52 0.071 7.32 2.6 13.61
1/19/2021 7:15:00 AM 1.39 34.502 0.071 7.29 2.47 13.62
1/19/2021 7:30:00 AM 1.38 34.484 0.071 7.31 2.5 13.62
1/19/2021 7:45:00 AM 1.36 34.448 0.071 7.32 2.59 13.64
1/19/2021 8:00:00 AM 1.36 34.448 0.071 7.32 2.47 13.67
1/19/2021 8:15:00 AM 1.35 34.43 0.071 7.33 2.49 13.7
1/19/2021 8:30:00 AM 1.36 34.448 0.071 7.32 2.69 13.73
1/19/2021 8:45:00 AM 1.36 34.448 0.071 7.34 2.59 13.74
1/19/2021 9:00:00 AM 1.35 34.43 0.071 7.35 2.5 13.78
1/19/2021 9:15:00 AM 1.31 34.358 0.071 7.36 2.52 13.82
1/19/2021 9:30:00 AM 1.29 34.322 0.071 7.36 2.51 13.87
1/19/2021 9:45:00 AM 1.29 34.322 0.071 7.38 3.06 13.91
1/19/2021 10:00:00 AM 1.27 34.286 0.071 7.39 2.74 13.93
1/19/2021 10:15:00 AM 1.25 34.25 0.071 7.4 2.6 13.98
1/19/2021 10:30:00 AM 1.22 34.196 0.071 7.4 2.74 14.01
1/19/2021 10:45:00 AM 1.19 34.142 0.071 7.41 2.62 14.05
1/19/2021 11:00:00 AM 1.2 34.16 0.071 7.42 4.43 14.08
1/19/2021 11:15:00 AM 1.25 34.25 0.071 7.44 2.56 14.13
1/19/2021 11:30:00 AM 1.31 34.358 0.071 7.45 3.18 14.16
1/19/2021 11:45:00 AM 1.4 34.52 0.071 7.46 2.71 14.17
1/19/2021 12:00:00 PM 1.49 34.682 0.073 7.45 2.62 14.15
1/19/2021 12:15:00 PM 1.62 34.916 0.073 7.47 2.58 14.13
1/19/2021 12:30:00 PM 1.78 35.204 0.072 7.48 2.66 14.11
1/19/2021 12:45:00 PM 1.85 35.33 0.072 7.48 2.68 14.06
1/19/2021 1:00:00 PM 1.95 35.51 0.072 7.49 2.64 14.02
1/19/2021 1:15:00 PM 2.01 35.618 0.072 7.48 2.6 13.98
1/19/2021 1:30:00 PM 2.08 35.744 0.071 7.49 2.63 13.96
1/19/2021 1:45:00 PM 2.14 35.852 0.071 7.5 2.62 13.94
1/19/2021 2:00:00 PM 2.2 35.96 0.07 7.5 2.59 13.93
1/19/2021 2:15:00 PM 2.26 36.068 0.07 7.51 2.81 13.91
1/19/2021 2:30:00 PM 2.29 36.122 0.07 7.5 2.55 13.89
1/19/2021 2:45:00 PM 2.32 36.176 0.07 7.51 2.66 13.87
1/19/2021 3:00:00 PM 2.34 36.212 0.07 7.52 2.62 13.85
1/19/2021 3:15:00 PM 2.37 36.266 0.07 7.52 2.63 13.84
1/19/2021 3:30:00 PM 2.39 36.302 0.07 7.51 2.69 13.82
1/19/2021 3:45:00 PM 2.4 36.32 0.07 7.52 2.61 13.81
1/19/2021 4:00:00 PM 2.39 36.302 0.07 7.52 2.55 13.8
1/19/2021 4:15:00 PM 2.39 36.302 0.07 7.51 2.56 13.79
1/19/2021 4:30:00 PM 2.37 36.266 0.07 7.51 2.57 13.77
1/19/2021 4:45:00 PM 2.34 36.212 0.07 7.51 2.52 13.76
1/19/2021 5:00:00 PM 2.28 36.104 0.07 7.49 2.59 13.71
1/19/2021 5:15:00 PM 2.24 36.032 0.071 7.47 2.66 13.65
1/19/2021 5:30:00 PM 2.19 35.942 0.071 7.44 2.55 13.59
1/19/2021 5:45:00 PM 2.15 35.87 0.071 7.42 2.73 13.55
1/19/2021 6:00:00 PM 2.1 35.78 0.071 7.4 2.83 13.52
1/19/2021 6:15:00 PM 2.06 35.708 0.071 7.37 3.22 13.49
1/19/2021 6:30:00 PM 2.02 35.636 0.071 7.37 2.86 13.47
1/19/2021 6:45:00 PM 1.98 35.564 0.071 7.37 2.79 13.47
1/19/2021 7:00:00 PM 1.94 35.492 0.071 7.36 2.94 13.46
1/19/2021 7:15:00 PM 1.91 35.438 0.071 7.36 2.68 13.47
1/19/2021 7:30:00 PM 1.88 35.384 0.071 7.35 3.1 13.47
1/19/2021 7:45:00 PM 1.85 35.33 0.072 7.34 2.75 13.47
1/19/2021 8:00:00 PM 1.82 35.276 0.072 7.34 2.82 13.48
1/19/2021 8:15:00 PM 1.8 35.24 0.072 7.34 2.82 13.48
1/19/2021 8:30:00 PM 1.77 35.186 0.072 7.33 3.11 13.48
1/19/2021 8:45:00 PM 1.74 35.132 0.072 7.34 3.05 13.49
1/19/2021 9:00:00 PM 1.72 35.096 0.072 7.34 2.71 13.49
1/19/2021 9:15:00 PM 1.7 35.06 0.072 7.32 2.71 13.5
1/19/2021 9:30:00 PM 1.68 35.024 0.072 7.33 2.78 13.5
1/19/2021 9:45:00 PM 1.66 34.988 0.072 7.33 2.82 13.51
1/19/2021 10:00:00 PM 1.64 34.952 0.072 7.33 3.16 13.5
1/19/2021 10:15:00 PM 1.62 34.916 0.072 7.33 2.73 13.51
1/19/2021 10:30:00 PM 1.59 34.862 0.072 7.33 2.72 13.53
1/19/2021 10:45:00 PM 1.57 34.826 0.073 7.33 2.71 13.52
1/19/2021 11:00:00 PM 1.54 34.772 0.073 7.33 2.82 13.53
1/19/2021 11:15:00 PM 1.52 34.736 0.073 7.33 3.02 13.54
1/19/2021 11:30:00 PM 1.51 34.718 0.073 7.31 2.73 13.55
1/19/2021 11:45:00 PM 1.49 34.682 0.073 7.33 2.68 13.55
1/20/2021 12:00:00 AM 1.48 34.664 0.073 7.33 2.8 13.55
1/20/2021 12:15:00 AM 1.47 34.646 0.073 7.3 2.71 13.55
1/20/2021 12:30:00 AM 1.45 34.61 0.073 7.32 2.68 13.56
1/20/2021 12:45:00 AM 1.44 34.592 0.073 7.32 2.81 13.56
1/20/2021 1:00:00 AM 1.43 34.574 0.073 7.32 2.78 13.55
1/20/2021 1:15:00 AM 1.42 34.556 0.073 7.33 2.72 13.56
1/20/2021 1:30:00 AM 1.41 34.538 0.073 7.33 2.68 13.56
1/20/2021 1:45:00 AM 1.39 34.502 0.073 7.3 2.63 13.57
1/20/2021 2:00:00 AM 1.35 34.43 0.073 7.33 2.61 13.57
1/20/2021 2:15:00 AM 1.29 34.322 0.073 7.33 2.74 13.57
1/20/2021 2:30:00 AM 1.26 34.268 0.072 7.32 2.64 13.58
1/20/2021 2:45:00 AM 1.23 34.214 0.072 7.33 2.62 13.59
1/20/2021 3:00:00 AM 1.2 34.16 0.072 7.32 2.67 13.6
1/20/2021 3:15:00 AM 1.16 34.088 0.072 7.33 2.6 13.62
1/20/2021 3:30:00 AM 1.11 33.998 0.072 7.31 2.67 13.64
1/20/2021 3:45:00 AM 1.08 33.944 0.072 7.33 2.66 13.64
1/20/2021 4:00:00 AM 1.05 33.89 0.072 7.32 2.83 13.65
1/20/2021 4:15:00 AM 0.99 33.782 0.072 7.3 2.64 13.66
1/20/2021 4:30:00 AM 0.93 33.674 0.072 7.32 2.67 13.67
1/20/2021 4:45:00 AM 0.85 33.53 0.072 7.32 2.67 13.68
1/20/2021 5:00:00 AM 0.81 33.458 0.072 7.33 2.67 13.72
1/20/2021 5:15:00 AM 0.8 33.44 0.072 7.32 2.74 13.74
1/20/2021 5:30:00 AM 0.75 33.35 0.072 7.32 2.64 13.75
1/20/2021 5:45:00 AM 0.73 33.314 0.072 7.33 2.79 13.78
1/20/2021 6:00:00 AM 0.74 33.332 0.072 7.32 2.62 13.79
1/20/2021 6:15:00 AM 0.75 33.35 0.072 7.32 2.64 13.8
1/20/2021 6:30:00 AM 0.75 33.35 0.072 7.32 2.62 13.81
1/20/2021 6:45:00 AM 0.75 33.35 0.072 7.32 2.63 13.82
1/20/2021 7:00:00 AM 0.74 33.332 0.072 7.32 2.59 13.83
1/20/2021 7:15:00 AM 0.73 33.314 0.072 7.32 2.66 13.83
1/20/2021 7:30:00 AM 0.71 33.278 0.072 7.32 2.61 13.84
1/20/2021 7:45:00 AM 0.68 33.224 0.072 7.31 2.63 13.87
1/20/2021 8:00:00 AM 0.67 33.206 0.072 7.34 2.74 13.91
1/20/2021 8:15:00 AM 0.66 33.188 0.072 7.35 2.94 13.98
1/20/2021 8:30:00 AM 0.66 33.188 0.072 7.36 3.12 14.05
1/20/2021 8:45:00 AM 0.68 33.224 0.072 7.37 2.82 14.12
1/20/2021 9:00:00 AM 0.69 33.242 0.072 7.4 2.78 14.18
1/20/2021 9:15:00 AM 0.72 33.296 0.071 7.41 2.64 14.24
1/20/2021 9:30:00 AM 0.75 33.35 0.071 7.43 2.67 14.27
1/20/2021 9:45:00 AM 0.78 33.404 0.071 7.44 2.66 14.31
1/20/2021 10:00:00 AM 0.82 33.476 0.071 7.46 2.64 14.33
1/20/2021 10:15:00 AM 0.84 33.512 0.071 7.47 3.42 14.34
1/20/2021 10:30:00 AM 0.9 33.62 0.071 7.45 2.63 14.35
1/20/2021 10:45:00 AM 0.95 33.71 0.071 7.49 2.71 14.34
1/20/2021 11:00:00 AM 1.04 33.872 0.071 7.47 2.73 14.36
1/20/2021 11:15:00 AM 1.17 34.106 0.071 7.49 2.62 14.34
1/20/2021 11:30:00 AM 1.23 34.214 0.071 7.49 2.61 14.3
1/20/2021 11:45:00 AM 1.29 34.322 0.071 7.5 2.91 14.26
1/20/2021 12:00:00 PM 1.43 34.574 0.071 7.5 2.63 14.24
1/20/2021 12:15:00 PM 1.54 34.772 0.071 7.5 2.6 14.21
1/20/2021 12:30:00 PM 1.63 34.934 0.071 7.49 2.62 14.18
1/20/2021 12:45:00 PM 1.59 34.862 0.071 7.49 2.61 14.14
1/20/2021 1:00:00 PM 1.61 34.898 0.071 7.5 2.68 14.13
1/20/2021 1:15:00 PM 1.61 34.898 0.071 7.51 2.77 14.12
1/20/2021 1:30:00 PM 1.63 34.934 0.072 7.51 2.84 14.1
1/20/2021 1:45:00 PM 1.65 34.97 0.072 7.51 2.66 14.11
1/20/2021 2:00:00 PM 1.67 35.006 0.073 7.51 2.64 14.12
1/20/2021 2:15:00 PM 1.65 34.97 0.073 7.5 2.59 14.12
1/20/2021 2:30:00 PM 1.66 34.988 0.073 7.52 2.8 14.12
1/20/2021 2:45:00 PM 1.66 34.988 0.072 7.52 2.55 14.12
1/20/2021 3:00:00 PM 1.62 34.916 0.072 7.52 2.7 14.13
1/20/2021 3:15:00 PM 1.58 34.844 0.072 7.51 2.65 14.14
1/20/2021 3:30:00 PM 1.51 34.718 0.072 7.52 2.58 14.13
1/20/2021 3:45:00 PM 1.46 34.628 0.072 7.52 2.61 14.14
1/20/2021 4:00:00 PM 1.42 34.556 0.072 7.52 2.62 14.15
1/20/2021 4:15:00 PM 1.41 34.538 0.072 7.52 2.54 14.14
1/20/2021 4:30:00 PM 1.39 34.502 0.071 7.51 2.64 14.14
1/20/2021 4:45:00 PM 1.34 34.412 0.071 7.51 2.55 14.14
1/20/2021 5:00:00 PM 1.27 34.286 0.071 7.5 2.54 14.11
1/20/2021 5:15:00 PM 1.19 34.142 0.071 7.48 2.52 14.09
1/20/2021 5:30:00 PM 1.13 34.034 0.071 7.46 2.63 14.02
1/20/2021 5:45:00 PM 1.09 33.962 0.071 7.44 3.09 13.97
1/20/2021 6:00:00 PM 1.05 33.89 0.072 7.4 2.6 13.94
1/20/2021 6:15:00 PM 0.99 33.782 0.072 7.41 2.75 13.91
1/20/2021 6:30:00 PM 0.92 33.656 0.072 7.4 2.74 13.9
1/20/2021 6:45:00 PM 0.84 33.512 0.072 7.39 2.57 13.89
1/20/2021 7:00:00 PM 0.78 33.404 0.072 7.38 2.55 13.9
1/20/2021 7:15:00 PM 0.71 33.278 0.073 7.37 2.57 13.91
1/20/2021 7:30:00 PM 0.64 33.152 0.073 7.34 2.69 13.93
1/20/2021 7:45:00 PM 0.59 33.062 0.073 7.36 2.57 13.95
1/20/2021 8:00:00 PM 0.53 32.954 0.073 7.36 2.65 13.97
1/20/2021 8:15:00 PM 0.47 32.846 0.073 7.35 2.6 13.99
1/20/2021 8:30:00 PM 0.41 32.738 0.073 7.35 2.59 14.01
1/20/2021 8:45:00 PM 0.34 32.612 0.073 7.35 2.65 14.02
1/20/2021 9:00:00 PM 0.28 32.504 0.074 7.34 2.56 14.05
1/20/2021 9:15:00 PM 0.23 32.414 0.074 7.34 2.78 14.07
1/20/2021 9:30:00 PM 0.17 32.306 0.074 7.33 2.63 14.09
1/20/2021 9:45:00 PM 0.1 32.18 0.074 7.31 2.54 14.12
1/20/2021 10:00:00 PM 0.03 32.054 0.074 7.33 2.57 14.15
1/20/2021 10:15:00 PM -0.01 31.982 0.074 7.33 2.58 14.18
1/20/2021 10:30:00 PM -0.04 31.928 0.074 7.33 2.57 14.19
1/20/2021 10:45:00 PM -0.08 31.856 0.074 7.31 2.58 14.2
1/20/2021 11:00:00 PM -0.11 31.802 0.074 7.34 2.57 14.23
1/20/2021 11:15:00 PM -0.13 31.766 0.074 7.32 2.54 14.24
1/20/2021 11:30:00 PM -0.12 31.784 0.074 7.34 2.56 14.24
1/20/2021 11:45:00 PM -0.12 31.784 0.074 7.34 2.54 14.26
1/21/2021 12:00:00 AM -0.12 31.784 0.074 7.33 2.55 14.26
1/21/2021 12:15:00 AM -0.12 31.784 0.074 7.34 2.52 14.26
1/21/2021 12:30:00 AM -0.12 31.784 0.074 7.32 2.93 14.27
1/21/2021 12:45:00 AM -0.11 31.802 0.074 7.34 2.58 14.26
1/21/2021 1:00:00 AM -0.11 31.802 0.074 7.33 2.61 14.27
1/21/2021 1:15:00 AM -0.11 31.802 0.074 7.33 2.56 14.26
1/21/2021 1:30:00 AM -0.12 31.784 0.074 7.33 2.54 14.26
1/21/2021 1:45:00 AM -0.11 31.802 0.074 7.32 2.6 14.26
1/21/2021 2:00:00 AM -0.11 31.802 0.075 7.33 2.59 14.25
1/21/2021 2:15:00 AM -0.11 31.802 0.075 7.32 2.57 14.26
1/21/2021 2:30:00 AM -0.11 31.802 0.075 7.33 6.8 14.25
1/21/2021 2:45:00 AM -0.11 31.802 0.075 7.33 2.98 14.26
1/21/2021 3:00:00 AM -0.11 31.802 0.075 7.33 2.49 14.25
1/21/2021 3:15:00 AM -0.11 31.802 0.075 7.33 2.49 14.24
1/21/2021 3:30:00 AM -0.11 31.802 0.075 7.33 2.42 14.25
1/21/2021 3:45:00 AM -0.11 31.802 0.076 7.32 2.44 14.23
1/21/2021 4:00:00 AM -0.11 31.802 0.076 7.32 2.44 14.23
1/21/2021 4:15:00 AM -0.11 31.802 0.076 7.32 3.64 14.2
1/21/2021 4:30:00 AM -0.11 31.802 0.076 7.32 13.63 14.16
1/21/2021 4:45:00 AM -0.1 31.82 0.076 7.32 2.39 14.19
1/21/2021 5:00:00 AM -0.11 31.802 0.077 7.32 2.37 14.18
1/21/2021 5:15:00 AM -0.11 31.802 0.077 7.29 2.41 14.17
1/21/2021 5:30:00 AM -0.11 31.802 0.077 7.32 2.35 14.17
1/21/2021 5:45:00 AM -0.11 31.802 0.077 7.32 2.31 14.16
1/21/2021 6:00:00 AM -0.1 31.82 0.077 7.29 2.31 14.14
1/21/2021 6:15:00 AM -0.11 31.802 0.077 7.32 2.36 14.14
1/21/2021 6:30:00 AM -0.11 31.802 0.077 7.32 2.38 14.14
1/21/2021 6:45:00 AM -0.11 31.802 0.078 7.32 2.32 14.13
1/21/2021 7:00:00 AM -0.11 31.802 0.078 7.32 2.4 14.12
1/21/2021 7:15:00 AM -0.1 31.82 0.078 7.32 2.38 14.12
1/21/2021 7:30:00 AM -0.11 31.802 0.078 7.32 2.3 14.12
1/21/2021 7:45:00 AM -0.1 31.82 0.078 7.32 2.38 14.11
1/21/2021 8:00:00 AM -0.1 31.82 0.078 7.3 2.39 14.11
1/21/2021 8:15:00 AM -0.1 31.82 0.078 7.33 2.34 14.15
1/21/2021 8:30:00 AM -0.1 31.82 0.078 7.34 2.33 14.18
1/21/2021 8:45:00 AM -0.1 31.82 0.078 7.35 2.35 14.22
1/21/2021 9:00:00 AM -0.1 31.82 0.078 7.35 2.42 14.28
1/21/2021 9:15:00 AM -0.1 31.82 0.078 7.37 2.42 14.34
1/21/2021 9:30:00 AM -0.1 31.82 0.078 7.39 2.37 14.38
1/21/2021 9:45:00 AM -0.1 31.82 0.078 7.4 2.34 14.44
1/21/2021 10:00:00 AM -0.1 31.82 0.078 7.4 2.35 14.45
1/21/2021 10:15:00 AM -0.1 31.82 0.078 7.43 2.43 14.48
1/21/2021 10:30:00 AM -0.11 31.802 0.078 7.42 2.34 14.5
1/21/2021 10:45:00 AM -0.1 31.82 0.079 7.45 2.45 14.52
1/21/2021 11:00:00 AM -0.1 31.82 0.078 7.46 2.37 14.52
1/21/2021 11:15:00 AM -0.09 31.838 0.078 7.47 2.36 14.53
1/21/2021 11:30:00 AM -0.08 31.856 0.078 7.48 2.39 14.52
1/21/2021 11:45:00 AM -0.07 31.874 0.078 7.49 2.41 14.5
1/21/2021 12:00:00 PM -0.05 31.91 0.078 7.47 2.39 14.49
1/21/2021 12:15:00 PM -0.04 31.928 0.077 7.49 2.47 14.46
1/21/2021 12:30:00 PM -0.02 31.964 0.077 7.49 2.84 14.43
1/21/2021 12:45:00 PM 0 32 0.077 7.48 2.5 14.41
1/21/2021 1:00:00 PM 0.07 32.126 0.077 7.49 2.48 14.38
1/21/2021 1:15:00 PM 0.17 32.306 0.077 7.5 2.46 14.34
1/21/2021 1:30:00 PM 0.32 32.576 0.076 7.49 2.52 14.3
1/21/2021 1:45:00 PM 0.45 32.81 0.076 7.49 2.86 14.27
1/21/2021 2:00:00 PM 0.59 33.062 0.075 7.49 2.44 14.24
1/21/2021 2:15:00 PM 0.72 33.296 0.075 7.49 2.43 14.2
1/21/2021 2:30:00 PM 0.86 33.548 0.075 7.49 2.53 14.16
1/21/2021 2:45:00 PM 1.02 33.836 0.074 7.49 2.55 14.12
1/21/2021 3:00:00 PM 1.11 33.998 0.074 7.49 2.59 14.08
1/21/2021 3:15:00 PM 1.15 34.07 0.074 7.5 2.56 14.06
1/21/2021 3:30:00 PM 1.14 34.052 0.073 7.49 2.55 14.05
1/21/2021 3:45:00 PM 1.1 33.98 0.073 7.49 2.76 14.06
1/21/2021 4:00:00 PM 1.03 33.854 0.073 7.49 2.53 14.05
1/21/2021 4:15:00 PM 0.95 33.71 0.072 7.47 2.61 14.05
1/21/2021 4:30:00 PM 0.88 33.584 0.072 7.47 2.57 14.05
1/21/2021 4:45:00 PM 0.81 33.458 0.072 7.47 3 14.03
1/21/2021 5:00:00 PM 0.76 33.368 0.071 7.46 2.79 14.02
1/21/2021 5:15:00 PM 0.73 33.314 0.071 7.45 2.63 13.97
1/21/2021 5:30:00 PM 0.71 33.278 0.071 7.43 2.78 13.92
1/21/2021 5:45:00 PM 0.71 33.278 0.071 7.41 2.65 13.87
1/21/2021 6:00:00 PM 0.72 33.296 0.071 7.4 2.58 13.81
1/21/2021 6:15:00 PM 0.75 33.35 0.07 7.4 2.67 13.78
1/21/2021 6:30:00 PM 0.8 33.44 0.07 7.39 2.59 13.74
1/21/2021 6:45:00 PM 0.83 33.494 0.07 7.36 2.63 13.71
1/21/2021 7:00:00 PM 0.87 33.566 0.07 7.37 2.87 13.67
1/21/2021 7:15:00 PM 0.9 33.62 0.07 7.37 2.63 13.65
1/21/2021 7:30:00 PM 0.92 33.656 0.07 7.36 2.7 13.64
1/21/2021 7:45:00 PM 0.92 33.656 0.07 7.35 2.99 13.64
1/21/2021 8:00:00 PM 0.91 33.638 0.07 7.35 2.71 13.65
1/21/2021 8:15:00 PM 0.9 33.62 0.07 7.36 2.79 13.65
1/21/2021 8:30:00 PM 0.88 33.584 0.07 7.36 2.57 13.67
1/21/2021 8:45:00 PM 0.86 33.548 0.07 7.34 2.63 13.67
1/21/2021 9:00:00 PM 0.85 33.53 0.07 7.35 2.62 13.68
1/21/2021 9:15:00 PM 0.84 33.512 0.07 7.35 3.45 13.69
1/21/2021 9:30:00 PM 0.82 33.476 0.07 7.34 2.6 13.68
1/21/2021 9:45:00 PM 0.82 33.476 0.07 7.34 2.68 13.7
1/21/2021 10:00:00 PM 0.82 33.476 0.07 7.35 2.72 13.69
1/21/2021 10:15:00 PM 0.83 33.494 0.07 7.35 2.55 13.69
1/21/2021 10:30:00 PM 0.84 33.512 0.07 7.35 2.62 13.68
1/21/2021 10:45:00 PM 0.84 33.512 0.07 7.34 2.55 13.67
1/21/2021 11:00:00 PM 0.84 33.512 0.07 7.35 3.15 13.66
1/21/2021 11:15:00 PM 0.84 33.512 0.071 7.34 2.6 13.67
1/21/2021 11:30:00 PM 0.84 33.512 0.071 7.35 2.6 13.67
1/21/2021 11:45:00 PM 0.83 33.494 0.071 7.34 2.68 13.68
1/22/2021 12:00:00 AM 0.83 33.494 0.072 7.33 2.67 13.66
1/22/2021 12:15:00 AM 0.83 33.494 0.072 7.34 2.65 13.68
1/22/2021 12:30:00 AM 0.83 33.494 0.072 7.33 2.55 13.67
1/22/2021 12:45:00 AM 0.84 33.512 0.073 7.34 2.61 13.68
1/22/2021 1:00:00 AM 0.83 33.494 0.073 7.34 2.62 13.66
1/22/2021 1:15:00 AM 0.83 33.494 0.073 7.34 2.73 13.68
1/22/2021 1:30:00 AM 0.83 33.494 0.073 7.33 3.28 13.69
1/22/2021 1:45:00 AM 0.83 33.494 0.073 7.33 2.63 13.69
1/22/2021 2:00:00 AM 0.83 33.494 0.073 7.33 2.59 13.69
1/22/2021 2:15:00 AM 0.82 33.476 0.073 7.34 2.68 13.69
1/22/2021 2:30:00 AM 0.83 33.494 0.073 7.32 2.66 13.69
1/22/2021 2:45:00 AM 0.82 33.476 0.073 7.33 2.68 13.7
1/22/2021 3:00:00 AM 0.82 33.476 0.073 7.34 2.58 13.7
1/22/2021 3:15:00 AM 0.81 33.458 0.073 7.34 2.59 13.7
1/22/2021 3:30:00 AM 0.81 33.458 0.073 7.33 2.71 13.71
1/22/2021 3:45:00 AM 0.81 33.458 0.073 7.34 2.64 13.7
1/22/2021 4:00:00 AM 0.8 33.44 0.073 7.34 2.55 13.7
1/22/2021 4:15:00 AM 0.8 33.44 0.073 7.32 2.57 13.7
1/22/2021 4:30:00 AM 0.8 33.44 0.073 7.34 2.58 13.71
1/22/2021 4:45:00 AM 0.79 33.422 0.073 7.34 2.58 13.7
1/22/2021 5:00:00 AM 0.8 33.44 0.073 7.31 2.54 13.71
1/22/2021 5:15:00 AM 0.8 33.44 0.073 7.34 2.54 13.7
1/22/2021 5:30:00 AM 0.8 33.44 0.073 7.32 2.53 13.7
1/22/2021 5:45:00 AM 0.8 33.44 0.073 7.34 2.54 13.7
1/22/2021 6:00:00 AM 0.81 33.458 0.073 7.34 2.59 13.7
1/22/2021 6:15:00 AM 0.81 33.458 0.072 7.33 2.56 13.7
1/22/2021 6:30:00 AM 0.8 33.44 0.072 7.33 2.54 13.7
1/22/2021 6:45:00 AM 0.8 33.44 0.072 7.34 2.6 13.7
1/22/2021 7:00:00 AM 0.8 33.44 0.072 7.34 2.65 13.7
1/22/2021 7:15:00 AM 0.8 33.44 0.072 7.33 2.56 13.71
1/22/2021 7:30:00 AM 0.8 33.44 0.072 7.32 2.55 13.71
1/22/2021 7:45:00 AM 0.8 33.44 0.072 7.34 2.5 13.72
1/22/2021 8:00:00 AM 0.8 33.44 0.072 7.34 2.53 13.75
1/22/2021 8:15:00 AM 0.81 33.458 0.072 7.35 2.5 13.78
1/22/2021 8:30:00 AM 0.82 33.476 0.072 7.33 2.49 13.83
1/22/2021 8:45:00 AM 0.84 33.512 0.072 7.38 2.46 13.89
1/22/2021 9:00:00 AM 0.86 33.548 0.072 7.38 2.52 13.95
1/22/2021 9:15:00 AM 0.88 33.584 0.072 7.42 2.7 14.02
1/22/2021 9:30:00 AM 0.93 33.674 0.072 7.43 2.57 14.07
1/22/2021 9:45:00 AM 0.97 33.746 0.072 7.45 2.5 14.11
1/22/2021 10:00:00 AM 1.02 33.836 0.071 7.46 2.58 14.14
1/22/2021 10:15:00 AM 1.08 33.944 0.071 7.47 2.54 14.17
1/22/2021 10:30:00 AM 1.13 34.034 0.071 7.49 2.5 14.17
1/22/2021 10:45:00 AM 1.2 34.16 0.071 7.5 2.47 14.17
1/22/2021 11:00:00 AM 1.28 34.304 0.071 7.5 2.48 14.17
1/22/2021 11:15:00 AM 1.33 34.394 0.071 7.52 2.53 14.14
1/22/2021 11:30:00 AM 1.37 34.466 0.071 7.52 2.43 14.11
1/22/2021 11:45:00 AM 1.4 34.52 0.071 7.52 2.45 14.08
1/22/2021 12:00:00 PM 1.43 34.574 0.071 7.52 2.45 14.08
1/22/2021 12:15:00 PM 1.44 34.592 0.071 7.52 2.45 14.05
1/22/2021 12:30:00 PM 1.46 34.628 0.07 7.51 2.46 14.02
1/22/2021 12:45:00 PM 1.51 34.718 0.07 7.53 2.51 14.04
1/22/2021 1:00:00 PM 1.47 34.646 0.07 7.5 2.45 13.99
1/22/2021 1:15:00 PM 1.41 34.538 0.07 7.52 2.64 13.98
1/22/2021 1:30:00 PM 1.48 34.664 0.07 7.52 2.74 14
1/22/2021 1:45:00 PM 1.6 34.88 0.07 7.52 2.49 14.01
1/22/2021 2:00:00 PM 1.63 34.934 0.07 7.54 2.69 13.99
1/22/2021 2:15:00 PM 1.65 34.97 0.07 7.54 2.47 14
1/22/2021 2:30:00 PM 1.64 34.952 0.07 7.54 2.51 13.98
1/22/2021 2:45:00 PM 1.63 34.934 0.07 7.54 2.8 13.96
1/22/2021 3:00:00 PM 1.64 34.952 0.07 7.53 2.43 13.93
1/22/2021 3:15:00 PM 1.67 35.006 0.07 7.53 2.51 13.92
1/22/2021 3:30:00 PM 1.68 35.024 0.07 7.49 4.71 13.89
1/22/2021 3:45:00 PM 1.68 35.024 0.07 7.51 3.04 13.88
1/22/2021 4:00:00 PM 1.66 34.988 0.07 7.5 3.04 13.85
1/22/2021 4:15:00 PM 1.63 34.934 0.07 7.49 3.03 13.82
1/22/2021 4:30:00 PM 1.6 34.88 0.07 7.47 3.01 13.8
1/22/2021 4:45:00 PM 1.55 34.79 0.071 7.46 3.33 13.79
1/22/2021 5:00:00 PM 1.51 34.718 0.071 7.46 3.34 13.77
1/22/2021 5:15:00 PM 1.47 34.646 0.071 7.44 2.93 13.74
1/22/2021 5:30:00 PM 1.43 34.574 0.071 7.43 2.92 13.71
1/22/2021 5:45:00 PM 1.4 34.52 0.071 7.4 3.09 13.68
1/22/2021 6:00:00 PM 1.36 34.448 0.071 7.4 3.02 13.66
1/22/2021 6:15:00 PM 1.32 34.376 0.071 7.39 3.32 13.65
1/22/2021 6:30:00 PM 1.28 34.304 0.071 7.37 2.9 13.65
1/22/2021 6:45:00 PM 1.24 34.232 0.071 7.38 3.13 13.66
1/22/2021 7:00:00 PM 1.21 34.178 0.071 7.38 2.91 13.67
1/22/2021 7:15:00 PM 1.17 34.106 0.071 7.36 2.84 13.66
1/22/2021 7:30:00 PM 1.12 34.016 0.071 7.37 2.79 13.68
1/22/2021 7:45:00 PM 1.07 33.926 0.071 7.36 2.88 13.68
1/22/2021 8:00:00 PM 1.03 33.854 0.072 7.34 2.92 13.71
1/22/2021 8:15:00 PM 0.99 33.782 0.072 7.36 2.86 13.72
1/22/2021 8:30:00 PM 0.93 33.674 0.072 7.36 2.91 13.74
1/22/2021 8:45:00 PM 0.89 33.602 0.072 7.35 2.82 13.76
1/22/2021 9:00:00 PM 0.85 33.53 0.072 7.34 2.88 13.78
1/22/2021 9:15:00 PM 0.81 33.458 0.072 7.35 2.88 13.79
1/22/2021 9:30:00 PM 0.77 33.386 0.072 7.33 2.85 13.81
1/22/2021 9:45:00 PM 0.73 33.314 0.072 7.35 2.87 13.83
1/22/2021 10:00:00 PM 0.69 33.242 0.072 7.35 2.87 13.84
1/22/2021 10:15:00 PM 0.65 33.17 0.072 7.33 2.86 13.87
1/22/2021 10:30:00 PM 0.62 33.116 0.072 7.35 2.91 13.89
1/22/2021 10:45:00 PM 0.57 33.026 0.072 7.32 2.82 13.91
1/22/2021 11:00:00 PM 0.52 32.936 0.072 7.34 2.81 13.94
1/22/2021 11:15:00 PM 0.47 32.846 0.072 7.35 2.86 13.96
1/22/2021 11:30:00 PM 0.42 32.756 0.072 7.33 2.87 13.97
1/22/2021 11:45:00 PM 0.38 32.684 0.072 7.35 2.88 13.99
1/23/2021 12:00:00 AM 0.35 32.63 0.072 7.34 2.8 14
1/23/2021 12:15:00 AM 0.31 32.558 0.072 7.34 2.92 14.02
1/23/2021 12:30:00 AM 0.26 32.468 0.072 7.31 2.89 14.04
1/23/2021 12:45:00 AM 0.21 32.378 0.072 7.34 3.55 14.06
1/23/2021 1:00:00 AM 0.15 32.27 0.072 7.32 2.82 14.09
1/23/2021 1:15:00 AM 0.08 32.144 0.072 7.34 2.81 14.12
1/23/2021 1:30:00 AM 0.01 32.018 0.072 7.33 2.86 14.15
1/23/2021 1:45:00 AM -0.03 31.946 0.072 7.34 2.89 14.17
1/23/2021 2:00:00 AM -0.08 31.856 0.072 7.34 2.85 14.19
1/23/2021 2:15:00 AM -0.12 31.784 0.072 7.34 2.87 14.22
1/23/2021 2:30:00 AM -0.11 31.802 0.072 7.34 2.84 14.25
1/23/2021 2:45:00 AM -0.11 31.802 0.072 7.34 2.8 14.25
1/23/2021 3:00:00 AM -0.11 31.802 0.072 7.33 2.76 14.27
1/23/2021 3:15:00 AM -0.11 31.802 0.072 7.34 2.75 14.28
1/23/2021 3:30:00 AM -0.1 31.82 0.073 7.34 2.68 14.27
1/23/2021 3:45:00 AM -0.11 31.802 0.073 7.32 2.73 14.28
1/23/2021 4:00:00 AM -0.11 31.802 0.073 7.33 2.74 14.29
1/23/2021 4:15:00 AM -0.11 31.802 0.073 7.34 2.78 14.3
1/23/2021 4:30:00 AM -0.11 31.802 0.073 7.34 2.71 14.3
1/23/2021 4:45:00 AM -0.11 31.802 0.073 7.31 2.78 14.29
1/23/2021 5:00:00 AM -0.11 31.802 0.073 7.33 2.74 14.31
1/23/2021 5:15:00 AM -0.11 31.802 0.073 7.33 2.68 14.3
1/23/2021 5:30:00 AM -0.11 31.802 0.073 7.33 2.61 14.3
1/23/2021 5:45:00 AM -0.11 31.802 0.074 7.33 2.61 14.3
1/23/2021 6:00:00 AM -0.11 31.802 0.074 7.33 2.59 14.31
1/23/2021 6:15:00 AM -0.11 31.802 0.074 7.3 2.62 14.29
1/23/2021 6:30:00 AM -0.11 31.802 0.074 7.32 2.7 14.3
1/23/2021 6:45:00 AM -0.11 31.802 0.074 7.33 2.69 14.31
1/23/2021 7:00:00 AM -0.11 31.802 0.074 7.31 2.68 14.3
1/23/2021 7:15:00 AM -0.11 31.802 0.074 7.32 2.73 14.31
1/23/2021 7:30:00 AM -0.11 31.802 0.074 7.32 2.88 14.31
1/23/2021 7:45:00 AM -0.11 31.802 0.074 7.33 2.97 14.33
1/23/2021 8:00:00 AM -0.11 31.802 0.074 7.34 2.95 14.37
1/23/2021 8:15:00 AM -0.11 31.802 0.075 7.35 2.81 14.4
1/23/2021 8:30:00 AM -0.11 31.802 0.075 7.32 2.74 14.47
1/23/2021 8:45:00 AM -0.11 31.802 0.075 7.37 2.64 14.54
1/23/2021 9:00:00 AM -0.11 31.802 0.075 7.38 2.73 14.6
1/23/2021 9:15:00 AM -0.11 31.802 0.075 7.4 2.69 14.64
1/23/2021 9:30:00 AM -0.11 31.802 0.075 7.41 2.68 14.68
1/23/2021 9:45:00 AM -0.11 31.802 0.075 7.43 2.82 14.73
1/23/2021 10:00:00 AM -0.11 31.802 0.074 7.45 2.66 14.77
1/23/2021 10:15:00 AM -0.1 31.82 0.074 7.45 2.69 14.81
1/23/2021 10:30:00 AM -0.1 31.82 0.074 7.47 2.77 14.83
1/23/2021 10:45:00 AM -0.1 31.82 0.074 7.48 2.7 14.86
1/23/2021 11:00:00 AM -0.1 31.82 0.074 7.49 2.71 14.88
1/23/2021 11:15:00 AM -0.1 31.82 0.074 7.5 2.68 14.88
1/23/2021 11:30:00 AM -0.1 31.82 0.074 7.49 2.72 14.9
1/23/2021 11:45:00 AM -0.1 31.82 0.074 7.52 2.75 14.9
1/23/2021 12:00:00 PM -0.09 31.838 0.074 7.52 2.63 14.9
1/23/2021 12:15:00 PM -0.1 31.82 0.074 7.53 2.66 14.92
1/23/2021 12:30:00 PM -0.09 31.838 0.074 7.53 2.67 14.92
1/23/2021 12:45:00 PM -0.1 31.82 0.074 7.53 2.67 14.91
1/23/2021 1:00:00 PM -0.1 31.82 0.074 7.54 2.7 14.92
1/23/2021 1:15:00 PM -0.1 31.82 0.074 7.52 2.69 14.92
1/23/2021 1:30:00 PM -0.1 31.82 0.074 7.54 2.67 14.92
1/23/2021 1:45:00 PM -0.09 31.838 0.074 7.54 2.58 14.92
1/23/2021 2:00:00 PM -0.09 31.838 0.074 7.55 2.57 14.92
1/23/2021 2:15:00 PM -0.08 31.856 0.074 7.55 2.84 14.92
1/23/2021 2:30:00 PM -0.08 31.856 0.074 7.53 2.64 14.92
1/23/2021 2:45:00 PM -0.08 31.856 0.074 7.56 2.64 14.91
1/23/2021 3:00:00 PM -0.08 31.856 0.074 7.54 2.69 14.92
1/23/2021 3:15:00 PM -0.08 31.856 0.074 7.56 2.6 14.91
1/23/2021 3:30:00 PM -0.08 31.856 0.074 7.56 2.64 14.92
1/23/2021 3:45:00 PM -0.09 31.838 0.074 7.54 2.75 14.91
1/23/2021 4:00:00 PM -0.09 31.838 0.074 7.56 2.6 14.91
1/23/2021 4:15:00 PM -0.11 31.802 0.074 7.55 2.61 14.9
1/23/2021 4:30:00 PM -0.11 31.802 0.074 7.54 2.61 14.87
1/23/2021 4:45:00 PM -0.12 31.784 0.074 7.52 2.55 14.82
1/23/2021 5:00:00 PM -0.11 31.802 0.074 7.48 2.54 14.77
1/23/2021 5:15:00 PM -0.11 31.802 0.074 7.48 2.59 14.72
1/23/2021 5:30:00 PM -0.11 31.802 0.074 7.46 2.61 14.66
1/23/2021 5:45:00 PM -0.11 31.802 0.074 7.44 2.61 14.61
1/23/2021 6:00:00 PM -0.11 31.802 0.074 7.42 2.62 14.57
1/23/2021 6:15:00 PM -0.11 31.802 0.074 7.41 2.65 14.53
1/23/2021 6:30:00 PM -0.11 31.802 0.074 7.38 2.59 14.51
1/23/2021 6:45:00 PM -0.11 31.802 0.074 7.39 2.61 14.47
1/23/2021 7:00:00 PM -0.1 31.82 0.074 7.37 2.59 14.45
1/23/2021 7:15:00 PM -0.1 31.82 0.074 7.38 2.59 14.44
1/23/2021 7:30:00 PM -0.11 31.802 0.074 7.37 2.64 14.43
1/23/2021 7:45:00 PM -0.1 31.82 0.074 7.36 2.62 14.42
1/23/2021 8:00:00 PM -0.11 31.802 0.074 7.34 2.59 14.41
1/23/2021 8:15:00 PM -0.11 31.802 0.074 7.35 2.67 14.4
1/23/2021 8:30:00 PM -0.11 31.802 0.074 7.35 2.6 14.4
1/23/2021 8:45:00 PM -0.11 31.802 0.074 7.35 2.57 14.4
1/23/2021 9:00:00 PM -0.11 31.802 0.074 7.34 2.56 14.39
1/23/2021 9:15:00 PM -0.11 31.802 0.074 7.35 2.59 14.38
1/23/2021 9:30:00 PM -0.11 31.802 0.074 7.35 2.66 14.39
1/23/2021 9:45:00 PM -0.11 31.802 0.074 7.33 2.6 14.39
1/23/2021 10:00:00 PM -0.11 31.802 0.074 7.35 2.52 14.39
1/23/2021 10:15:00 PM -0.11 31.802 0.074 7.34 2.64 14.38
1/23/2021 10:30:00 PM -0.11 31.802 0.074 7.33 2.6 14.38
1/23/2021 10:45:00 PM -0.11 31.802 0.074 7.34 2.54 14.38
1/23/2021 11:00:00 PM -0.11 31.802 0.074 7.34 2.59 14.37
1/23/2021 11:15:00 PM -0.11 31.802 0.074 7.31 2.59 14.39
1/23/2021 11:30:00 PM -0.11 31.802 0.074 7.34 2.68 14.39
1/23/2021 11:45:00 PM -0.11 31.802 0.074 7.34 2.6 14.38
1/24/2021 12:00:00 AM -0.11 31.802 0.074 7.34 2.53 14.39
1/24/2021 12:15:00 AM -0.11 31.802 0.074 7.33 2.51 14.39
1/24/2021 12:30:00 AM -0.11 31.802 0.074 7.33 2.48 14.39
1/24/2021 12:45:00 AM -0.11 31.802 0.074 7.33 2.8 14.38
1/24/2021 1:00:00 AM -0.11 31.802 0.075 7.33 2.7 14.38
1/24/2021 1:15:00 AM -0.11 31.802 0.075 7.34 2.64 14.39
1/24/2021 1:30:00 AM -0.11 31.802 0.075 7.33 2.58 14.39
1/24/2021 1:45:00 AM -0.11 31.802 0.075 7.33 2.57 14.39
1/24/2021 2:00:00 AM -0.11 31.802 0.075 7.3 2.65 14.39
1/24/2021 2:15:00 AM -0.11 31.802 0.075 7.33 2.57 14.38
1/24/2021 2:30:00 AM -0.11 31.802 0.075 7.33 2.59 14.38
1/24/2021 2:45:00 AM -0.11 31.802 0.075 7.33 2.51 14.39
1/24/2021 3:00:00 AM -0.11 31.802 0.075 7.31 2.51 14.39
1/24/2021 3:15:00 AM -0.11 31.802 0.075 7.33 2.49 14.39
1/24/2021 3:30:00 AM -0.12 31.784 0.076 7.33 2.6 14.4
1/24/2021 3:45:00 AM -0.12 31.784 0.076 7.31 2.56 14.4
1/24/2021 4:00:00 AM -0.12 31.784 0.076 7.33 2.58 14.4
1/24/2021 4:15:00 AM -0.11 31.802 0.077 7.3 2.64 14.4
1/24/2021 4:30:00 AM -0.11 31.802 0.077 7.32 2.59 14.4
1/24/2021 4:45:00 AM -0.11 31.802 0.077 7.32 2.58 14.41
1/24/2021 5:00:00 AM -0.11 31.802 0.077 7.32 2.55 14.4
1/24/2021 5:15:00 AM -0.11 31.802 0.078 7.3 2.6 14.41
1/24/2021 5:30:00 AM -0.11 31.802 0.078 7.33 2.57 14.41
1/24/2021 5:45:00 AM -0.11 31.802 0.078 7.32 2.56 14.41
1/24/2021 6:00:00 AM -0.11 31.802 0.078 7.32 2.49 14.4
1/24/2021 6:15:00 AM -0.11 31.802 0.079 7.31 2.64 14.42
1/24/2021 6:30:00 AM -0.11 31.802 0.079 7.32 2.55 14.41
1/24/2021 6:45:00 AM -0.11 31.802 0.079 7.33 2.5 14.42
1/24/2021 7:00:00 AM -0.11 31.802 0.079 7.32 2.51 14.42
1/24/2021 7:15:00 AM -0.11 31.802 0.08 7.32 2.52 14.41
1/24/2021 7:30:00 AM -0.11 31.802 0.08 7.33 2.41 14.44
1/24/2021 7:45:00 AM -0.11 31.802 0.08 7.33 2.41 14.44
1/24/2021 8:00:00 AM -0.1 31.82 0.08 7.33 2.42 14.45
1/24/2021 8:15:00 AM -0.1 31.82 0.081 7.34 2.46 14.49
1/24/2021 8:30:00 AM -0.1 31.82 0.081 7.33 2.5 14.56
1/24/2021 8:45:00 AM -0.1 31.82 0.081 7.36 2.45 14.6
1/24/2021 9:00:00 AM -0.1 31.82 0.081 7.37 2.49 14.65
1/24/2021 9:15:00 AM -0.1 31.82 0.081 7.36 2.49 14.72
1/24/2021 9:30:00 AM -0.1 31.82 0.081 7.39 2.47 14.75
1/24/2021 9:45:00 AM -0.09 31.838 0.081 7.41 2.48 14.8
1/24/2021 10:00:00 AM -0.09 31.838 0.082 7.41 2.49 14.83
1/24/2021 10:15:00 AM -0.09 31.838 0.082 7.41 2.44 14.86
1/24/2021 10:30:00 AM -0.09 31.838 0.082 7.44 2.54 14.89
1/24/2021 10:45:00 AM -0.09 31.838 0.082 7.45 2.5 14.92
1/24/2021 11:00:00 AM -0.08 31.856 0.082 7.43 2.5 14.9
1/24/2021 11:15:00 AM -0.08 31.856 0.082 7.45 2.49 14.88
1/24/2021 11:30:00 AM -0.07 31.874 0.082 7.44 2.49 14.86
1/24/2021 11:45:00 AM -0.07 31.874 0.082 7.47 2.5 14.88
1/24/2021 12:00:00 PM -0.07 31.874 0.082 7.47 2.5 14.87
1/24/2021 12:15:00 PM -0.07 31.874 0.082 7.48 2.48 14.88
1/24/2021 12:30:00 PM -0.07 31.874 0.081 7.51 2.52 14.9
1/24/2021 12:45:00 PM -0.06 31.892 0.08 7.5 2.51 14.87
1/24/2021 1:00:00 PM -0.07 31.874 0.079 7.51 2.56 14.86
1/24/2021 1:15:00 PM -0.06 31.892 0.078 7.52 2.56 14.85
1/24/2021 1:30:00 PM -0.07 31.874 0.078 7.51 2.53 14.85
1/24/2021 1:45:00 PM -0.07 31.874 0.077 7.53 2.61 14.83
1/24/2021 2:00:00 PM -0.09 31.838 0.077 7.53 3.1 14.84
1/24/2021 2:15:00 PM -0.1 31.82 0.078 7.51 2.79 14.82
1/24/2021 2:30:00 PM -0.1 31.82 0.079 7.53 2.76 14.81
1/24/2021 2:45:00 PM -0.09 31.838 0.08 7.55 2.77 14.83
1/24/2021 3:00:00 PM -0.09 31.838 0.08 7.56 2.63 14.84
1/24/2021 3:15:00 PM -0.09 31.838 0.08 7.57 2.68 14.84
1/24/2021 3:30:00 PM -0.09 31.838 0.08 7.54 2.6 14.85
1/24/2021 3:45:00 PM -0.09 31.838 0.08 7.57 2.58 14.85
1/24/2021 4:00:00 PM -0.1 31.82 0.079 7.57 2.53 14.85
1/24/2021 4:15:00 PM -0.1 31.82 0.079 7.54 2.6 14.84
1/24/2021 4:30:00 PM -0.11 31.802 0.079 7.55 2.63 14.82
1/24/2021 4:45:00 PM -0.11 31.802 0.078 7.55 2.58 14.8
1/24/2021 5:00:00 PM -0.11 31.802 0.078 7.53 2.59 14.77
1/24/2021 5:15:00 PM -0.11 31.802 0.077 7.5 2.7 14.72
1/24/2021 5:30:00 PM -0.11 31.802 0.077 7.49 2.6 14.65
1/24/2021 5:45:00 PM -0.11 31.802 0.077 7.47 2.53 14.59
1/24/2021 6:00:00 PM -0.11 31.802 0.076 7.42 2.55 14.54
1/24/2021 6:15:00 PM -0.12 31.784 0.076 7.43 2.53 14.49
1/24/2021 6:30:00 PM -0.11 31.802 0.076 7.42 2.49 14.46
1/24/2021 6:45:00 PM -0.11 31.802 0.076 7.38 3.03 14.43
1/24/2021 7:00:00 PM -0.11 31.802 0.076 7.39 3.16 14.41
1/24/2021 7:15:00 PM -0.11 31.802 0.075 7.39 2.83 14.38
1/24/2021 7:30:00 PM -0.11 31.802 0.075 7.38 2.53 14.37
1/24/2021 7:45:00 PM -0.11 31.802 0.075 7.38 2.67 14.35
1/24/2021 8:00:00 PM -0.11 31.802 0.075 7.37 2.48 14.34
1/24/2021 8:15:00 PM -0.11 31.802 0.075 7.37 2.5 14.32
1/24/2021 8:30:00 PM -0.12 31.784 0.075 7.36 2.62 14.32
1/24/2021 8:45:00 PM -0.11 31.802 0.075 7.36 2.79 14.31
1/24/2021 9:00:00 PM -0.12 31.784 0.075 7.36 2.55 14.3
1/24/2021 9:15:00 PM -0.12 31.784 0.075 7.32 2.46 14.29
1/24/2021 9:30:00 PM -0.12 31.784 0.075 7.35 2.6 14.29
1/24/2021 9:45:00 PM -0.11 31.802 0.075 7.35 2.5 14.29
1/24/2021 10:00:00 PM -0.11 31.802 0.075 7.33 2.55 14.29
1/24/2021 10:15:00 PM -0.12 31.784 0.075 7.34 2.5 14.28
1/24/2021 10:30:00 PM -0.11 31.802 0.075 7.34 2.49 14.27
1/24/2021 10:45:00 PM -0.11 31.802 0.075 7.34 2.54 14.28
1/24/2021 11:00:00 PM -0.11 31.802 0.075 7.31 2.47 14.28
1/24/2021 11:15:00 PM -0.11 31.802 0.075 7.34 2.43 14.27
1/24/2021 11:30:00 PM -0.12 31.784 0.075 7.34 2.51 14.27
1/24/2021 11:45:00 PM -0.11 31.802 0.075 7.34 2.51 14.27
1/25/2021 12:00:00 AM -0.12 31.784 0.075 7.33 2.72 14.27
1/25/2021 12:15:00 AM -0.12 31.784 0.075 7.33 2.49 14.27
1/25/2021 12:30:00 AM -0.12 31.784 0.075 7.33 2.46 14.27
1/25/2021 12:45:00 AM -0.12 31.784 0.075 7.33 2.52 14.27
1/25/2021 1:00:00 AM -0.12 31.784 0.074 7.33 2.47 14.27
1/25/2021 1:15:00 AM -0.12 31.784 0.074 7.32 2.49 14.27
1/25/2021 1:30:00 AM -0.12 31.784 0.074 7.33 2.46 14.27
1/25/2021 1:45:00 AM -0.12 31.784 0.074 7.32 2.51 14.26
1/25/2021 2:00:00 AM -0.11 31.802 0.074 7.32 2.52 14.25
1/25/2021 2:15:00 AM -0.12 31.784 0.074 7.33 2.47 14.26
1/25/2021 2:30:00 AM -0.12 31.784 0.074 7.32 2.46 14.26
1/25/2021 2:45:00 AM -0.12 31.784 0.074 7.32 2.46 14.26
1/25/2021 3:00:00 AM -0.11 31.802 0.074 7.3 2.43 14.26
1/25/2021 3:15:00 AM -0.11 31.802 0.074 7.32 2.46 14.26
1/25/2021 3:30:00 AM -0.11 31.802 0.074 7.32 2.49 14.26
1/25/2021 3:45:00 AM -0.11 31.802 0.074 7.31 2.52 14.26
1/25/2021 4:00:00 AM -0.11 31.802 0.074 7.32 2.48 14.27
1/25/2021 4:15:00 AM -0.11 31.802 0.074 7.32 2.47 14.27
1/25/2021 4:30:00 AM -0.11 31.802 0.075 7.32 2.52 14.26
1/25/2021 4:45:00 AM -0.11 31.802 0.075 7.32 2.53 14.26
1/25/2021 5:00:00 AM -0.11 31.802 0.075 7.31 2.49 14.26
1/25/2021 5:15:00 AM -0.11 31.802 0.075 7.32 2.51 14.26
1/25/2021 5:30:00 AM -0.11 31.802 0.075 7.32 2.57 14.25
1/25/2021 5:45:00 AM -0.11 31.802 0.075 7.3 2.55 14.27
1/25/2021 6:00:00 AM -0.11 31.802 0.075 7.31 2.53 14.27
1/25/2021 6:15:00 AM -0.12 31.784 0.075 7.32 2.56 14.27
1/25/2021 6:30:00 AM -0.12 31.784 0.075 7.32 2.6 14.27
1/25/2021 6:45:00 AM -0.12 31.784 0.075 7.3 2.57 14.27
1/25/2021 7:00:00 AM -0.12 31.784 0.075 7.32 2.49 14.28
1/25/2021 7:15:00 AM -0.11 31.802 0.075 7.3 2.55 14.27
1/25/2021 7:30:00 AM -0.11 31.802 0.075 7.32 2.49 14.28
1/25/2021 7:45:00 AM -0.11 31.802 0.075 7.32 2.56 14.28
1/25/2021 8:00:00 AM -0.11 31.802 0.075 7.32 2.6 14.32
1/25/2021 8:15:00 AM -0.11 31.802 0.075 7.35 2.54 14.39
1/25/2021 8:30:00 AM -0.11 31.802 0.075 7.36 2.46 14.48
1/25/2021 8:45:00 AM -0.1 31.82 0.075 7.38 2.5 14.55
1/25/2021 9:00:00 AM -0.1 31.82 0.075 7.41 2.49 14.64
1/25/2021 9:15:00 AM -0.1 31.82 0.075 7.42 2.42 14.71
1/25/2021 9:30:00 AM -0.1 31.82 0.075 7.44 2.45 14.77
1/25/2021 9:45:00 AM -0.1 31.82 0.075 7.46 2.43 14.82
1/25/2021 10:00:00 AM -0.09 31.838 0.075 7.48 2.47 14.85
1/25/2021 10:15:00 AM -0.09 31.838 0.075 7.48 2.53 14.89
1/25/2021 10:30:00 AM -0.08 31.856 0.075 7.51 2.52 14.89
1/25/2021 10:45:00 AM -0.08 31.856 0.075 7.51 2.5 14.91
1/25/2021 11:00:00 AM -0.06 31.892 0.075 7.53 2.49 14.91
1/25/2021 11:15:00 AM -0.05 31.91 0.075 7.54 2.52 14.9
1/25/2021 11:30:00 AM -0.05 31.91 0.075 7.55 2.53 14.89
1/25/2021 11:45:00 AM -0.04 31.928 0.075 7.54 2.51 14.86
1/25/2021 12:00:00 PM -0.02 31.964 0.075 7.54 2.63 14.84
1/25/2021 12:15:00 PM -0.02 31.964 0.075 7.56 2.55 14.82
1/25/2021 12:30:00 PM 0.01 32.018 0.075 7.56 2.6 14.8
1/25/2021 12:45:00 PM 0.02 32.036 0.075 7.54 2.56 14.77
1/25/2021 1:00:00 PM 0.05 32.09 0.075 7.55 2.56 14.74
1/25/2021 1:15:00 PM 0.08 32.144 0.074 7.57 2.57 14.73
1/25/2021 1:30:00 PM 0.11 32.198 0.074 7.57 2.56 14.69
1/25/2021 1:45:00 PM 0.11 32.198 0.074 7.56 2.61 14.67
1/25/2021 2:00:00 PM 0.12 32.216 0.074 7.56 2.6 14.66
1/25/2021 2:15:00 PM 0.13 32.234 0.073 7.57 2.53 14.65
1/25/2021 2:30:00 PM 0.14 32.252 0.073 7.57 2.61 14.65
1/25/2021 2:45:00 PM 0.14 32.252 0.073 7.55 2.6 14.65
1/25/2021 3:00:00 PM 0.14 32.252 0.073 7.56 2.54 14.65
1/25/2021 3:15:00 PM 0.15 32.27 0.073 7.57 2.58 14.65
1/25/2021 3:30:00 PM 0.16 32.288 0.073 7.57 2.63 14.65
1/25/2021 3:45:00 PM 0.16 32.288 0.072 7.57 2.72 14.65
1/25/2021 4:00:00 PM 0.15 32.27 0.072 7.54 2.54 14.63
1/25/2021 4:15:00 PM 0.14 32.252 0.072 7.56 2.61 14.62
1/25/2021 4:30:00 PM 0.14 32.252 0.072 7.53 2.71 14.6
1/25/2021 4:45:00 PM 0.12 32.216 0.072 7.54 2.57 14.57
1/25/2021 5:00:00 PM 0.1 32.18 0.072 7.5 2.61 14.53
1/25/2021 5:15:00 PM 0.09 32.162 0.072 7.5 2.66 14.48
1/25/2021 5:30:00 PM 0.07 32.126 0.072 7.47 2.71 14.43
1/25/2021 5:45:00 PM 0.05 32.09 0.072 7.45 2.58 14.38
1/25/2021 6:00:00 PM 0.04 32.072 0.072 7.44 2.62 14.34
1/25/2021 6:15:00 PM 0.03 32.054 0.072 7.4 2.62 14.29
1/25/2021 6:30:00 PM 0.02 32.036 0.072 7.4 2.59 14.27
1/25/2021 6:45:00 PM 0.01 32.018 0.072 7.38 2.59 14.24
1/25/2021 7:00:00 PM 0 32 0.072 7.38 2.64 14.23
1/25/2021 7:15:00 PM -0.01 31.982 0.072 7.38 2.58 14.22
1/25/2021 7:30:00 PM -0.01 31.982 0.072 7.37 2.61 14.21
1/25/2021 7:45:00 PM -0.02 31.964 0.072 7.35 2.56 14.21
1/25/2021 8:00:00 PM -0.02 31.964 0.072 7.36 2.6 14.19
1/25/2021 8:15:00 PM -0.02 31.964 0.072 7.34 2.63 14.19
1/25/2021 8:30:00 PM -0.02 31.964 0.073 7.35 2.59 14.18
1/25/2021 8:45:00 PM -0.02 31.964 0.073 7.35 2.67 14.18
1/25/2021 9:00:00 PM -0.01 31.982 0.073 7.35 2.64 14.18
1/25/2021 9:15:00 PM -0.01 31.982 0.073 7.33 2.61 14.17
1/25/2021 9:30:00 PM -0.01 31.982 0.073 7.34 2.63 14.17
1/25/2021 9:45:00 PM -0.01 31.982 0.073 7.34 2.57 14.17
1/25/2021 10:00:00 PM 0 32 0.073 7.34 2.52 14.17
1/25/2021 10:15:00 PM 0 32 0.073 7.34 2.54 14.16
1/25/2021 10:30:00 PM 0 32 0.073 7.34 2.55 14.16
1/25/2021 10:45:00 PM 0 32 0.073 7.34 2.56 14.15
1/25/2021 11:00:00 PM 0 32 0.073 7.34 2.5 14.16
1/25/2021 11:15:00 PM 0 32 0.073 7.32 2.57 14.15
1/25/2021 11:30:00 PM 0.01 32.018 0.073 7.34 2.58 14.15
1/25/2021 11:45:00 PM 0 32 0.073 7.34 2.52 14.15
1/26/2021 12:00:00 AM 0 32 0.073 7.34 2.77 14.15
1/26/2021 12:15:00 AM 0 32 0.073 7.35 2.72 14.14
1/26/2021 12:30:00 AM -0.01 31.982 0.073 7.34 2.54 14.16
1/26/2021 12:45:00 AM -0.01 31.982 0.073 7.33 2.69 14.15
1/26/2021 1:00:00 AM -0.01 31.982 0.073 7.34 2.55 14.16
1/26/2021 1:15:00 AM -0.02 31.964 0.073 7.34 2.51 14.15
1/26/2021 1:30:00 AM -0.01 31.982 0.073 7.34 2.53 14.15
1/26/2021 1:45:00 AM -0.01 31.982 0.073 7.35 2.49 14.14
1/26/2021 2:00:00 AM 0 32 0.073 7.34 2.52 14.14
1/26/2021 2:15:00 AM 0 32 0.073 7.33 2.58 14.14
1/26/2021 2:30:00 AM 0 32 0.073 7.34 2.49 14.13
1/26/2021 2:45:00 AM 0 32 0.073 7.34 2.46 14.14
1/26/2021 3:00:00 AM 0 32 0.073 7.34 2.53 14.14
1/26/2021 3:15:00 AM 0 32 0.073 7.35 2.57 14.13
1/26/2021 3:30:00 AM 0 32 0.073 7.32 2.49 14.12
1/26/2021 3:45:00 AM -0.01 31.982 0.073 7.34 2.45 14.13
1/26/2021 4:00:00 AM 0 32 0.073 7.34 2.47 14.11
1/26/2021 4:15:00 AM 0 32 0.073 7.34 2.49 14.11
1/26/2021 4:30:00 AM 0 32 0.073 7.34 2.46 14.11
1/26/2021 4:45:00 AM 0 32 0.073 7.34 2.49 14.11
1/26/2021 5:00:00 AM 0 32 0.073 7.32 2.57 14.11
1/26/2021 5:15:00 AM 0.01 32.018 0.073 7.34 2.46 14.1
1/26/2021 5:30:00 AM 0.01 32.018 0.073 7.33 2.52 14.1
1/26/2021 5:45:00 AM 0.01 32.018 0.073 7.34 2.51 14.1
1/26/2021 6:00:00 AM 0.01 32.018 0.073 7.34 2.54 14.09
1/26/2021 6:15:00 AM 0.01 32.018 0.073 7.34 2.48 14.09
1/26/2021 6:30:00 AM 0.01 32.018 0.073 7.34 2.47 14.08
1/26/2021 6:45:00 AM 0.02 32.036 0.073 7.3 2.5 14.07
1/26/2021 7:00:00 AM 0.01 32.018 0.073 7.34 2.49 14.07
1/26/2021 7:15:00 AM -0.02 31.964 0.073 7.33 2.58 14.08
1/26/2021 7:30:00 AM -0.06 31.892 0.073 7.34 2.53 14.07
1/26/2021 7:45:00 AM -0.08 31.856 0.073 7.34 2.54 14.09
1/26/2021 8:00:00 AM -0.08 31.856 0.073 7.34 2.53 14.1
1/26/2021 8:15:00 AM -0.08 31.856 0.073 7.35 2.68 14.14
1/26/2021 8:30:00 AM -0.08 31.856 0.073 7.34 2.5 14.19
1/26/2021 8:45:00 AM -0.09 31.838 0.074 7.36 2.49 14.19
1/26/2021 9:00:00 AM -0.09 31.838 0.075 7.36 2.51 14.25
1/26/2021 9:15:00 AM -0.09 31.838 0.075 7.38 2.45 14.27
1/26/2021 9:30:00 AM -0.1 31.82 0.075 7.38 2.55 14.31
1/26/2021 9:45:00 AM -0.1 31.82 0.074 7.39 2.5 14.34
1/26/2021 10:00:00 AM -0.1 31.82 0.073 7.4 2.56 14.38
1/26/2021 10:15:00 AM -0.1 31.82 0.073 7.42 2.45 14.42
1/26/2021 10:30:00 AM -0.1 31.82 0.072 7.43 2.54 14.47
1/26/2021 10:45:00 AM -0.09 31.838 0.072 7.45 2.49 14.52
1/26/2021 11:00:00 AM -0.08 31.856 0.072 7.45 2.57 14.55
1/26/2021 11:15:00 AM -0.08 31.856 0.072 7.43 2.59 14.55
1/26/2021 11:30:00 AM -0.07 31.874 0.071 7.46 2.69 14.56
1/26/2021 11:45:00 AM -0.07 31.874 0.071 7.47 2.47 14.57
1/26/2021 12:00:00 PM -0.06 31.892 0.071 7.46 2.54 14.59
1/26/2021 12:15:00 PM -0.07 31.874 0.071 7.48 2.53 14.6
1/26/2021 12:30:00 PM -0.06 31.892 0.071 7.49 2.58 14.59
1/26/2021 12:45:00 PM -0.06 31.892 0.074 7.5 2.59 14.6
1/26/2021 1:00:00 PM -0.05 31.91 0.078 7.49 2.56 14.59
1/26/2021 1:15:00 PM -0.04 31.928 0.079 7.5 2.58 14.59
1/26/2021 1:30:00 PM -0.02 31.964 0.077 7.51 2.65 14.6
1/26/2021 1:45:00 PM -0.01 31.982 0.077 7.51 2.73 14.6
1/26/2021 2:00:00 PM 0 32 0.077 7.52 2.74 14.62
1/26/2021 2:15:00 PM 0.02 32.036 0.076 7.53 2.61 14.6
1/26/2021 2:30:00 PM 0.04 32.072 0.076 7.54 2.59 14.59
1/26/2021 2:45:00 PM 0.05 32.09 0.075 7.52 2.66 14.57
1/26/2021 3:00:00 PM 0.07 32.126 0.075 7.53 2.57 14.55
1/26/2021 3:15:00 PM 0.08 32.144 0.075 7.52 2.65 14.51
1/26/2021 3:30:00 PM 0.09 32.162 0.075 7.51 2.66 14.48
1/26/2021 3:45:00 PM 0.1 32.18 0.074 7.5 2.61 14.45
1/26/2021 4:00:00 PM 0.11 32.198 0.074 7.46 2.59 14.4
1/26/2021 4:15:00 PM 0.12 32.216 0.074 7.48 2.6 14.36
1/26/2021 4:30:00 PM 0.13 32.234 0.073 7.45 2.64 14.34
1/26/2021 4:45:00 PM 0.14 32.252 0.073 7.45 2.61 14.31
1/26/2021 5:00:00 PM 0.14 32.252 0.073 7.45 2.62 14.29
1/26/2021 5:15:00 PM 0.14 32.252 0.073 7.44 2.6 14.25
1/26/2021 5:30:00 PM 0.14 32.252 0.073 7.42 2.62 14.21
1/26/2021 5:45:00 PM 0.14 32.252 0.073 7.41 2.58 14.17
1/26/2021 6:00:00 PM 0.14 32.252 0.073 7.39 2.57 14.14
1/26/2021 6:15:00 PM 0.14 32.252 0.073 7.39 2.62 14.11
1/26/2021 6:30:00 PM 0.14 32.252 0.073 7.35 2.65 14.08
1/26/2021 6:45:00 PM 0.14 32.252 0.073 7.37 2.7 14.07
1/26/2021 7:00:00 PM 0.14 32.252 0.073 7.36 2.6 14.06
1/26/2021 7:15:00 PM 0.14 32.252 0.073 7.36 2.6 14.04
1/26/2021 7:30:00 PM 0.15 32.27 0.073 7.36 2.6 14.03
1/26/2021 7:45:00 PM 0.15 32.27 0.073 7.35 2.63 14.02
1/26/2021 8:00:00 PM 0.15 32.27 0.073 7.35 2.56 14.01
1/26/2021 8:15:00 PM 0.16 32.288 0.074 7.32 2.55 14.02
1/26/2021 8:30:00 PM 0.16 32.288 0.074 7.34 2.61 14.01
1/26/2021 8:45:00 PM 0.17 32.306 0.074 7.33 2.56 13.99
1/26/2021 9:00:00 PM 0.18 32.324 0.074 7.34 2.67 13.99
1/26/2021 9:15:00 PM 0.18 32.324 0.074 7.33 2.63 14
1/26/2021 9:30:00 PM 0.19 32.342 0.074 7.32 2.55 13.98
1/26/2021 9:45:00 PM 0.2 32.36 0.074 7.33 2.53 13.98
1/26/2021 10:00:00 PM 0.2 32.36 0.074 7.33 2.6 13.98
1/26/2021 10:15:00 PM 0.21 32.378 0.074 7.33 2.62 13.99
1/26/2021 10:30:00 PM 0.22 32.396 0.074 7.33 2.65 13.97
1/26/2021 10:45:00 PM 0.23 32.414 0.074 7.31 2.72 13.96
1/26/2021 11:00:00 PM 0.23 32.414 0.075 7.32 3.74 13.97
1/26/2021 11:15:00 PM 0.23 32.414 0.075 7.32 2.66 13.96
1/26/2021 11:30:00 PM 0.23 32.414 0.075 7.32 2.57 13.98
1/26/2021 11:45:00 PM 0.24 32.432 0.075 7.32 2.71 13.98
1/27/2021 12:00:00 AM 0.24 32.432 0.075 7.33 2.58 13.99
1/27/2021 12:15:00 AM 0.25 32.45 0.076 7.31 2.67 13.98
1/27/2021 12:30:00 AM 0.25 32.45 0.076 7.33 2.62 13.98
1/27/2021 12:45:00 AM 0.25 32.45 0.076 7.33 2.7 13.98
1/27/2021 1:00:00 AM 0.26 32.468 0.076 7.33 2.65 13.98
1/27/2021 1:15:00 AM 0.27 32.486 0.076 7.31 2.71 13.97
1/27/2021 1:30:00 AM 0.27 32.486 0.076 7.33 2.85 13.97
1/27/2021 1:45:00 AM 0.27 32.486 0.076 7.33 2.67 13.97
1/27/2021 2:00:00 AM 0.28 32.504 0.076 7.33 2.68 13.98
1/27/2021 2:15:00 AM 0.28 32.504 0.077 7.33 2.62 13.97
1/27/2021 2:30:00 AM 0.29 32.522 0.077 7.33 2.71 13.97
1/27/2021 2:45:00 AM 0.29 32.522 0.077 7.33 2.7 13.98
1/27/2021 3:00:00 AM 0.29 32.522 0.077 7.33 2.63 13.98
1/27/2021 3:15:00 AM 0.29 32.522 0.077 7.3 2.6 13.98
1/27/2021 3:30:00 AM 0.29 32.522 0.077 7.32 2.66 13.99
1/27/2021 3:45:00 AM 0.28 32.504 0.077 7.33 2.63 14
1/27/2021 4:00:00 AM 0.28 32.504 0.077 7.33 2.65 14
1/27/2021 4:15:00 AM 0.29 32.522 0.078 7.33 2.6 14
1/27/2021 4:30:00 AM 0.28 32.504 0.078 7.3 2.58 14.02
1/27/2021 4:45:00 AM 0.29 32.522 0.078 7.32 2.66 13.99
1/27/2021 5:00:00 AM 0.29 32.522 0.078 7.32 2.64 14
1/27/2021 5:15:00 AM 0.28 32.504 0.078 7.32 2.57 14
1/27/2021 5:30:00 AM 0.28 32.504 0.078 7.32 2.61 14.01
1/27/2021 5:45:00 AM 0.28 32.504 0.078 7.32 2.73 14.01
1/27/2021 6:00:00 AM 0.28 32.504 0.078 7.32 2.62 14.01
1/27/2021 6:15:00 AM 0.28 32.504 0.079 7.33 2.64 14.01
1/27/2021 6:30:00 AM 0.27 32.486 0.079 7.31 2.66 14.02
1/27/2021 6:45:00 AM 0.26 32.468 0.079 7.33 2.64 14.03
1/27/2021 7:00:00 AM 0.26 32.468 0.079 7.32 2.61 14.03
1/27/2021 7:15:00 AM 0.25 32.45 0.079 7.33 2.64 14.05
1/27/2021 7:30:00 AM 0.23 32.414 0.079 7.3 2.59 14.06
1/27/2021 7:45:00 AM 0.23 32.414 0.079 7.33 2.55 14.08
1/27/2021 8:00:00 AM 0.23 32.414 0.079 7.34 2.56 14.11
1/27/2021 8:15:00 AM 0.23 32.414 0.079 7.35 2.57 14.16
1/27/2021 8:30:00 AM 0.23 32.414 0.078 7.34 2.57 14.23
1/27/2021 8:45:00 AM 0.23 32.414 0.078 7.38 2.52 14.28
1/27/2021 9:00:00 AM 0.24 32.432 0.078 7.39 2.57 14.34
1/27/2021 9:15:00 AM 0.25 32.45 0.078 7.4 2.53 14.41
1/27/2021 9:30:00 AM 0.26 32.468 0.078 7.43 2.61 14.48
1/27/2021 9:45:00 AM 0.29 32.522 0.078 7.43 2.62 14.54
1/27/2021 10:00:00 AM 0.32 32.576 0.078 7.47 2.55 14.57
1/27/2021 10:15:00 AM 0.35 32.63 0.078 7.48 2.54 14.62
1/27/2021 10:30:00 AM 0.39 32.702 0.078 7.5 2.55 14.64
1/27/2021 10:45:00 AM 0.44 32.792 0.078 7.47 2.52 14.66
1/27/2021 11:00:00 AM 0.49 32.882 0.077 7.52 2.57 14.69
1/27/2021 11:15:00 AM 0.53 32.954 0.077 7.53 2.6 14.66
1/27/2021 11:30:00 AM 0.57 33.026 0.077 7.52 2.48 14.68
1/27/2021 11:45:00 AM 0.6 33.08 0.077 7.54 2.52 14.67
1/27/2021 12:00:00 PM 0.63 33.134 0.077 7.55 2.53 14.66
1/27/2021 12:15:00 PM 0.66 33.188 0.077 7.55 2.54 14.65
1/27/2021 12:30:00 PM 0.71 33.278 0.077 7.56 2.54 14.63
1/27/2021 12:45:00 PM 0.76 33.368 0.077 7.56 2.5 14.63
1/27/2021 1:00:00 PM 0.81 33.458 0.077 7.57 2.52 14.6
1/27/2021 1:15:00 PM 0.85 33.53 0.077 7.58 2.54 14.58
1/27/2021 1:30:00 PM 0.87 33.566 0.077 7.55 2.52 14.57
1/27/2021 1:45:00 PM 0.88 33.584 0.077 7.57 2.53 14.56
1/27/2021 2:00:00 PM 0.88 33.584 0.077 7.55 2.53 14.54
1/27/2021 2:15:00 PM 0.88 33.584 0.077 7.57 2.51 14.53
1/27/2021 2:30:00 PM 0.9 33.62 0.077 7.58 2.62 14.53
1/27/2021 2:45:00 PM 0.92 33.656 0.077 7.58 2.54 14.52
1/27/2021 3:00:00 PM 0.93 33.674 0.077 7.58 2.51 14.51
1/27/2021 3:15:00 PM 0.93 33.674 0.077 7.58 2.47 14.5
1/27/2021 3:30:00 PM 0.92 33.656 0.076 7.57 2.55 14.47
1/27/2021 3:45:00 PM 0.91 33.638 0.076 7.54 2.62 14.45
1/27/2021 4:00:00 PM 0.89 33.602 0.076 7.56 2.43 14.43
1/27/2021 4:15:00 PM 0.87 33.566 0.077 7.52 2.53 14.4
1/27/2021 4:30:00 PM 0.85 33.53 0.077 7.53 2.52 14.38
1/27/2021 4:45:00 PM 0.82 33.476 0.077 7.52 2.51 14.33
1/27/2021 5:00:00 PM 0.8 33.44 0.077 7.5 2.5 14.29
1/27/2021 5:15:00 PM 0.75 33.35 0.077 7.49 2.48 14.26
1/27/2021 5:30:00 PM 0.71 33.278 0.077 7.47 2.51 14.21
1/27/2021 5:45:00 PM 0.66 33.188 0.077 7.45 2.46 14.18
1/27/2021 6:00:00 PM 0.61 33.098 0.077 7.4 2.58 14.14
1/27/2021 6:15:00 PM 0.57 33.026 0.077 7.41 2.49 14.1
1/27/2021 6:30:00 PM 0.51 32.918 0.078 7.41 2.5 14.08
1/27/2021 6:45:00 PM 0.47 32.846 0.078 7.4 2.48 14.08
1/27/2021 7:00:00 PM 0.41 32.738 0.078 7.39 2.49 14.08
1/27/2021 7:15:00 PM 0.36 32.648 0.078 7.35 2.45 14.07
1/27/2021 7:30:00 PM 0.29 32.522 0.078 7.38 2.45 14.08
1/27/2021 7:45:00 PM 0.25 32.45 0.078 7.37 2.47 14.1
1/27/2021 8:00:00 PM 0.21 32.378 0.078 7.37 2.57 14.1
1/27/2021 8:15:00 PM 0.19 32.342 0.078 7.36 2.47 14.12
1/27/2021 8:30:00 PM 0.14 32.252 0.078 7.36 2.52 14.11
1/27/2021 8:45:00 PM 0.06 32.108 0.078 7.33 2.52 14.15
1/27/2021 9:00:00 PM 0 32 0.078 7.35 2.48 14.19
1/27/2021 9:15:00 PM -0.06 31.892 0.079 7.36 2.53 14.22
1/27/2021 9:30:00 PM -0.12 31.784 0.079 7.36 2.51 14.26
1/27/2021 9:45:00 PM -0.11 31.802 0.079 7.33 2.42 14.27
1/27/2021 10:00:00 PM -0.1 31.82 0.08 7.36 2.5 14.28
1/27/2021 10:15:00 PM -0.11 31.802 0.081 7.33 2.43 14.3
1/27/2021 10:30:00 PM -0.11 31.802 0.081 7.35 2.45 14.32
1/27/2021 10:45:00 PM -0.1 31.82 0.082 7.35 2.39 14.32
1/27/2021 11:00:00 PM -0.1 31.82 0.082 7.35 2.44 14.33
1/27/2021 11:15:00 PM -0.11 31.802 0.083 7.32 2.41 14.3
1/27/2021 11:30:00 PM -0.1 31.82 0.083 7.34 2.44 14.32
1/27/2021 11:45:00 PM -0.11 31.802 0.083 7.34 2.43 14.33
1/28/2021 12:00:00 AM -0.1 31.82 0.083 7.34 2.42 14.31
1/28/2021 12:15:00 AM -0.1 31.82 0.083 7.34 2.45 14.32
1/28/2021 12:30:00 AM -0.09 31.838 0.082 7.34 2.44 14.3
1/28/2021 12:45:00 AM -0.1 31.82 0.082 7.32 2.47 14.3
1/28/2021 1:00:00 AM -0.1 31.82 0.082 7.34 2.43 14.32
1/28/2021 1:15:00 AM -0.1 31.82 0.082 7.34 2.45 14.33
1/28/2021 1:30:00 AM -0.1 31.82 0.082 7.34 2.51 14.31
1/28/2021 1:45:00 AM -0.1 31.82 0.082 7.29 3 14.29
1/28/2021 2:00:00 AM -0.1 31.82 0.082 7.34 2.47 14.31
1/28/2021 2:15:00 AM -0.09 31.838 0.082 7.33 2.52 14.28
1/28/2021 2:30:00 AM -0.1 31.82 0.082 7.33 2.53 14.28
1/28/2021 2:45:00 AM -0.1 31.82 0.082 7.33 2.51 14.29
1/28/2021 3:00:00 AM -0.1 31.82 0.082 7.31 2.43 14.31
1/28/2021 3:15:00 AM -0.1 31.82 0.082 7.34 2.38 14.29
1/28/2021 3:30:00 AM -0.09 31.838 0.082 7.33 2.48 14.27
1/28/2021 3:45:00 AM -0.09 31.838 0.082 7.3 2.43 14.27
1/28/2021 4:00:00 AM -0.09 31.838 0.082 7.33 2.4 14.29
1/28/2021 4:15:00 AM -0.09 31.838 0.082 7.33 2.46 14.28
1/28/2021 4:30:00 AM -0.1 31.82 0.082 7.32 2.46 14.28
1/28/2021 4:45:00 AM -0.09 31.838 0.082 7.33 2.46 14.27
1/28/2021 5:00:00 AM -0.1 31.82 0.082 7.33 2.47 14.28
1/28/2021 5:15:00 AM -0.09 31.838 0.083 7.31 2.48 14.26
1/28/2021 5:30:00 AM -0.09 31.838 0.083 7.32 2.43 14.25
1/28/2021 5:45:00 AM -0.1 31.82 0.083 7.33 2.44 14.28
1/28/2021 6:00:00 AM -0.1 31.82 0.083 7.33 2.42 14.28
1/28/2021 6:15:00 AM -0.11 31.802 0.083 7.33 2.52 14.29
1/28/2021 6:30:00 AM -0.1 31.82 0.083 7.33 2.41 14.29
1/28/2021 6:45:00 AM -0.1 31.82 0.083 7.33 2.4 14.26
1/28/2021 7:00:00 AM -0.1 31.82 0.083 7.31 2.48 14.29
1/28/2021 7:15:00 AM -0.1 31.82 0.083 7.32 2.4 14.28
1/28/2021 7:30:00 AM -0.1 31.82 0.083 7.32 2.49 14.28
1/28/2021 7:45:00 AM -0.09 31.838 0.084 7.32 2.49 14.29
1/28/2021 8:00:00 AM -0.09 31.838 0.084 7.33 2.46 14.31
1/28/2021 8:15:00 AM -0.09 31.838 0.084 7.34 2.45 14.37
1/28/2021 8:30:00 AM -0.09 31.838 0.084 7.35 2.47 14.42
1/28/2021 8:45:00 AM -0.09 31.838 0.084 7.33 2.52 14.51
1/28/2021 9:00:00 AM -0.09 31.838 0.084 7.37 2.47 14.56
1/28/2021 9:15:00 AM -0.09 31.838 0.084 7.39 2.51 14.64
1/28/2021 9:30:00 AM -0.09 31.838 0.084 7.41 2.47 14.69
1/28/2021 9:45:00 AM -0.09 31.838 0.084 7.42 2.65 14.75
1/28/2021 10:00:00 AM -0.08 31.856 0.084 7.44 2.56 14.79
1/28/2021 10:15:00 AM -0.09 31.838 0.084 7.45 2.57 14.84
1/28/2021 10:30:00 AM -0.08 31.856 0.084 7.47 2.59 14.86
1/28/2021 10:45:00 AM -0.09 31.838 0.083 7.48 2.55 14.94
1/28/2021 11:00:00 AM -0.09 31.838 0.083 7.53 2.58 14.98
1/28/2021 11:15:00 AM -0.08 31.856 0.083 7.52 2.75 14.92
1/28/2021 11:30:00 AM -0.08 31.856 0.083 7.5 2.58 14.95
1/28/2021 11:45:00 AM -0.09 31.838 0.083 7.52 2.56 14.94
1/28/2021 12:00:00 PM -0.08 31.856 0.082 7.52 2.66 14.91
1/28/2021 12:15:00 PM -0.08 31.856 0.082 7.52 2.56 14.9
1/28/2021 12:30:00 PM -0.08 31.856 0.082 7.52 2.6 14.9
1/28/2021 12:45:00 PM -0.08 31.856 0.081 7.53 2.64 14.91
1/28/2021 1:00:00 PM -0.09 31.838 0.081 7.52 2.59 14.91
1/28/2021 1:15:00 PM -0.07 31.874 0.081 7.53 2.57 14.9
1/28/2021 1:30:00 PM -0.08 31.856 0.081 7.53 2.59 14.89
1/28/2021 1:45:00 PM -0.09 31.838 0.081 7.54 2.6 14.88
1/28/2021 2:00:00 PM -0.07 31.874 0.081 7.53 2.62 14.89
1/28/2021 2:15:00 PM -0.07 31.874 0.081 7.55 2.63 14.89
1/28/2021 2:30:00 PM -0.07 31.874 0.081 7.56 2.59 14.88
1/28/2021 2:45:00 PM -0.06 31.892 0.081 7.54 2.63 14.87
1/28/2021 3:00:00 PM -0.07 31.874 0.081 7.54 2.7 14.86
1/28/2021 3:15:00 PM -0.08 31.856 0.08 7.56 2.57 14.88
1/28/2021 3:30:00 PM -0.09 31.838 0.08 7.55 2.63 14.87
1/28/2021 3:45:00 PM -0.1 31.82 0.08 7.55 2.63 14.87
1/28/2021 4:00:00 PM -0.11 31.802 0.08 7.55 2.65 14.91
1/28/2021 4:15:00 PM -0.11 31.802 0.08 7.55 2.7 14.92
1/28/2021 4:30:00 PM -0.11 31.802 0.08 7.54 2.63 14.92
1/28/2021 4:45:00 PM -0.11 31.802 0.08 7.53 2.69 14.95
1/28/2021 5:00:00 PM -0.11 31.802 0.08 7.54 2.6 14.92
1/28/2021 5:15:00 PM -0.11 31.802 0.079 7.51 2.62 14.86
1/28/2021 5:30:00 PM -0.11 31.802 0.079 7.5 2.86 14.81
1/28/2021 5:45:00 PM -0.11 31.802 0.079 7.48 2.62 14.75
1/28/2021 6:00:00 PM -0.11 31.802 0.079 7.46 2.58 14.69
1/28/2021 6:15:00 PM -0.1 31.82 0.079 7.4 2.58 14.63
1/28/2021 6:30:00 PM -0.1 31.82 0.079 7.42 2.6 14.57
1/28/2021 6:45:00 PM -0.1 31.82 0.079 7.41 2.59 14.52
1/28/2021 7:00:00 PM -0.1 31.82 0.079 7.38 2.54 14.5
1/28/2021 7:15:00 PM -0.1 31.82 0.079 7.39 2.69 14.47
1/28/2021 7:30:00 PM -0.1 31.82 0.079 7.39 2.55 14.46
1/28/2021 7:45:00 PM -0.1 31.82 0.079 7.37 2.55 14.43
1/28/2021 8:00:00 PM -0.1 31.82 0.079 7.37 2.54 14.43
1/28/2021 8:15:00 PM -0.1 31.82 0.079 7.37 2.57 14.42
1/28/2021 8:30:00 PM -0.1 31.82 0.079 7.34 2.54 14.41
1/28/2021 8:45:00 PM -0.1 31.82 0.08 7.36 2.55 14.38
1/28/2021 9:00:00 PM -0.11 31.802 0.08 7.36 2.72 14.38
1/28/2021 9:15:00 PM -0.1 31.82 0.08 7.35 2.57 14.37
1/28/2021 9:30:00 PM -0.11 31.802 0.08 7.35 2.63 14.37
1/28/2021 9:45:00 PM -0.1 31.82 0.08 7.35 2.56 14.36
1/28/2021 10:00:00 PM -0.1 31.82 0.08 7.35 2.56 14.35
1/28/2021 10:15:00 PM -0.11 31.802 0.08 7.36 2.63 14.34
1/28/2021 10:30:00 PM -0.11 31.802 0.081 7.35 2.59 14.31
1/28/2021 10:45:00 PM -0.1 31.82 0.081 7.35 2.63 14.33
1/28/2021 11:00:00 PM -0.11 31.802 0.081 7.31 2.59 14.33
1/28/2021 11:15:00 PM -0.11 31.802 0.082 7.35 2.64 14.34
1/28/2021 11:30:00 PM -0.1 31.82 0.082 7.35 2.56 14.33
1/28/2021 11:45:00 PM -0.11 31.802 0.082 7.33 2.59 14.33
1/29/2021 12:00:00 AM -0.1 31.82 0.082 7.34 2.59 14.31
1/29/2021 12:15:00 AM -0.1 31.82 0.082 7.34 2.63 14.31
1/29/2021 12:30:00 AM -0.11 31.802 0.083 7.34 2.56 14.31
1/29/2021 12:45:00 AM -0.11 31.802 0.083 7.33 2.59 14.32
1/29/2021 1:00:00 AM -0.11 31.802 0.083 7.34 2.65 14.31
1/29/2021 1:15:00 AM -0.11 31.802 0.083 7.34 2.58 14.31
1/29/2021 1:30:00 AM -0.11 31.802 0.083 7.34 2.68 14.3
1/29/2021 1:45:00 AM -0.11 31.802 0.083 7.34 2.67 14.3
1/29/2021 2:00:00 AM -0.11 31.802 0.083 7.34 2.6 14.29
1/29/2021 2:15:00 AM -0.1 31.82 0.083 7.34 2.58 14.28
1/29/2021 2:30:00 AM -0.11 31.802 0.084 7.34 2.59 14.28
1/29/2021 2:45:00 AM -0.11 31.802 0.084 7.3 2.61 14.29
1/29/2021 3:00:00 AM -0.11 31.802 0.084 7.34 2.56 14.29
1/29/2021 3:15:00 AM -0.11 31.802 0.084 7.34 2.6 14.29
1/29/2021 3:30:00 AM -0.1 31.82 0.084 7.34 2.6 14.27
1/29/2021 3:45:00 AM -0.11 31.802 0.084 7.34 2.6 14.29
1/29/2021 4:00:00 AM -0.1 31.82 0.084 7.29 2.58 14.28
1/29/2021 4:15:00 AM -0.1 31.82 0.084 7.33 2.59 14.27
1/29/2021 4:30:00 AM -0.11 31.802 0.085 7.33 2.82 14.25
1/29/2021 4:45:00 AM -0.1 31.82 0.085 7.3 2.64 14.26
1/29/2021 5:00:00 AM -0.1 31.82 0.085 7.33 2.65 14.27
1/29/2021 5:15:00 AM -0.1 31.82 0.085 7.33 2.59 14.27
1/29/2021 5:30:00 AM -0.1 31.82 0.085 7.32 2.62 14.27
1/29/2021 5:45:00 AM -0.1 31.82 0.085 7.33 2.66 14.27
1/29/2021 6:00:00 AM -0.1 31.82 0.086 7.33 2.57 14.26
1/29/2021 6:15:00 AM -0.1 31.82 0.086 7.32 2.61 14.26
1/29/2021 6:30:00 AM -0.1 31.82 0.086 7.32 2.55 14.25
1/29/2021 6:45:00 AM -0.1 31.82 0.086 7.33 2.65 14.25
1/29/2021 7:00:00 AM -0.1 31.82 0.086 7.32 2.57 14.24
1/29/2021 7:15:00 AM -0.1 31.82 0.086 7.33 2.58 14.25
1/29/2021 7:30:00 AM -0.1 31.82 0.086 7.29 2.54 14.25
1/29/2021 7:45:00 AM -0.1 31.82 0.086 7.31 2.54 14.24
1/29/2021 8:00:00 AM -0.1 31.82 0.087 7.33 2.61 14.26
1/29/2021 8:15:00 AM -0.1 31.82 0.087 7.34 2.58 14.32
1/29/2021 8:30:00 AM -0.1 31.82 0.087 7.35 2.55 14.4
1/29/2021 8:45:00 AM -0.1 31.82 0.087 7.34 2.56 14.48
1/29/2021 9:00:00 AM -0.1 31.82 0.087 7.38 2.54 14.56
1/29/2021 9:15:00 AM -0.1 31.82 0.087 7.41 2.54 14.64
1/29/2021 9:30:00 AM -0.1 31.82 0.087 7.44 2.55 14.76
1/29/2021 9:45:00 AM -0.11 31.802 0.087 7.45 2.57 14.82
1/29/2021 10:00:00 AM -0.11 31.802 0.086 7.51 2.66 14.95
1/29/2021 10:15:00 AM -0.11 31.802 0.086 7.51 2.6 14.98
1/29/2021 10:30:00 AM -0.11 31.802 0.086 7.51 2.56 15.09
1/29/2021 10:45:00 AM -0.11 31.802 0.086 7.57 2.68 15.11
1/29/2021 11:00:00 AM -0.11 31.802 0.086 7.58 2.58 15.16
1/29/2021 11:15:00 AM -0.11 31.802 0.086 7.59 2.58 15.18
1/29/2021 11:30:00 AM -0.11 31.802 0.086 7.61 2.6 15.21
1/29/2021 11:45:00 AM -0.11 31.802 0.086 7.62 2.57 15.24
1/29/2021 12:00:00 PM -0.11 31.802 0.086 7.62 2.61 15.24
1/29/2021 12:15:00 PM -0.1 31.82 0.085 7.62 2.73 15.23
1/29/2021 12:30:00 PM -0.1 31.82 0.085 7.64 2.66 15.25
1/29/2021 12:45:00 PM -0.11 31.802 0.085 7.66 2.71 15.25
1/29/2021 1:00:00 PM -0.1 31.82 0.084 7.64 2.64 15.22
1/29/2021 1:15:00 PM -0.11 31.802 0.084 7.65 2.61 15.21
1/29/2021 1:30:00 PM -0.1 31.82 0.084 7.62 2.63 15.2
1/29/2021 1:45:00 PM -0.11 31.802 0.084 7.66 2.58 15.19
1/29/2021 2:00:00 PM -0.1 31.82 0.083 7.68 2.6 15.2
1/29/2021 2:15:00 PM -0.1 31.82 0.083 7.7 2.7 15.2
1/29/2021 2:30:00 PM -0.1 31.82 0.083 7.69 2.67 15.19
1/29/2021 2:45:00 PM -0.11 31.802 0.083 7.67 2.6 15.19
1/29/2021 3:00:00 PM -0.11 31.802 0.082 7.69 2.66 15.22
1/29/2021 3:15:00 PM -0.11 31.802 0.082 7.71 2.66 15.23
1/29/2021 3:30:00 PM -0.11 31.802 0.082 7.7 2.62 15.24
1/29/2021 3:45:00 PM -0.11 31.802 0.082 7.73 2.69 15.25
1/29/2021 4:00:00 PM -0.11 31.802 0.082 7.73 2.89 15.26
1/29/2021 4:15:00 PM -0.11 31.802 0.082 7.71 2.61 15.24
1/29/2021 4:30:00 PM -0.11 31.802 0.082 7.7 2.61 15.22
1/29/2021 4:45:00 PM -0.11 31.802 0.082 7.67 2.6 15.17
1/29/2021 5:00:00 PM -0.11 31.802 0.082 7.65 2.54 15.12
1/29/2021 5:15:00 PM -0.12 31.784 0.082 7.62 2.58 15.05
1/29/2021 5:30:00 PM -0.11 31.802 0.082 7.58 2.58 14.96
1/29/2021 5:45:00 PM -0.11 31.802 0.081 7.54 2.57 14.87
1/29/2021 6:00:00 PM -0.11 31.802 0.081 7.52 2.62 14.79
1/29/2021 6:15:00 PM -0.11 31.802 0.081 7.48 2.57 14.74
1/29/2021 6:30:00 PM -0.11 31.802 0.081 7.46 2.59 14.68
1/29/2021 6:45:00 PM -0.11 31.802 0.081 7.46 2.58 14.64
1/29/2021 7:00:00 PM -0.11 31.802 0.081 7.44 2.58 14.59
1/29/2021 7:15:00 PM -0.11 31.802 0.081 7.41 2.59 14.55
1/29/2021 7:30:00 PM -0.11 31.802 0.081 7.42 2.58 14.52
1/29/2021 7:45:00 PM -0.11 31.802 0.081 7.4 2.58 14.5
1/29/2021 8:00:00 PM -0.11 31.802 0.081 7.39 2.57 14.48
1/29/2021 8:15:00 PM -0.11 31.802 0.081 7.38 2.59 14.45
1/29/2021 8:30:00 PM -0.11 31.802 0.081 7.38 2.57 14.42
1/29/2021 8:45:00 PM -0.11 31.802 0.081 7.38 2.6 14.41
1/29/2021 9:00:00 PM -0.12 31.784 0.081 7.34 2.55 14.4
1/29/2021 9:15:00 PM -0.11 31.802 0.081 7.37 2.6 14.39
1/29/2021 9:30:00 PM -0.11 31.802 0.081 7.35 2.58 14.34
1/29/2021 9:45:00 PM -0.11 31.802 0.081 7.35 2.59 14.3
1/29/2021 10:00:00 PM -0.11 31.802 0.081 7.34 2.58 14.32
1/29/2021 10:15:00 PM -0.11 31.802 0.081 7.31 2.54 14.33
1/29/2021 10:30:00 PM -0.11 31.802 0.081 7.35 2.59 14.33
1/29/2021 10:45:00 PM -0.11 31.802 0.081 7.35 2.66 14.33
1/29/2021 11:00:00 PM -0.11 31.802 0.081 7.34 2.65 14.32
1/29/2021 11:15:00 PM -0.11 31.802 0.081 7.29 2.88 14.34
1/29/2021 11:30:00 PM -0.11 31.802 0.081 7.33 3.05 14.34
1/29/2021 11:45:00 PM -0.11 31.802 0.081 7.34 2.57 14.33
1/30/2021 12:00:00 AM -0.11 31.802 0.082 7.34 2.55 14.32
1/30/2021 12:15:00 AM -0.11 31.802 0.082 7.33 2.56 14.32
1/30/2021 12:30:00 AM -0.11 31.802 0.082 7.28 2.57 14.33
1/30/2021 12:45:00 AM -0.11 31.802 0.082 7.33 2.58 14.33
1/30/2021 1:00:00 AM -0.11 31.802 0.082 7.33 2.62 14.33
1/30/2021 1:15:00 AM -0.11 31.802 0.082 7.29 2.56 14.34
1/30/2021 1:30:00 AM -0.12 31.784 0.082 7.33 2.54 14.33
1/30/2021 1:45:00 AM -0.12 31.784 0.082 7.3 2.58 14.34
1/30/2021 2:00:00 AM -0.11 31.802 0.082 7.33 2.62 14.33
1/30/2021 2:15:00 AM -0.12 31.784 0.082 7.33 2.56 14.32
1/30/2021 2:30:00 AM -0.11 31.802 0.082 7.3 2.66 14.33
1/30/2021 2:45:00 AM -0.11 31.802 0.082 7.32 2.56 14.33
1/30/2021 3:00:00 AM -0.11 31.802 0.082 7.32 2.55 14.33
1/30/2021 3:15:00 AM -0.11 31.802 0.082 7.28 2.57 14.32
1/30/2021 3:30:00 AM -0.11 31.802 0.082 7.32 2.64 14.33
1/30/2021 3:45:00 AM -0.11 31.802 0.082 7.31 2.55 14.32
1/30/2021 4:00:00 AM -0.12 31.784 0.082 7.32 2.54 14.33
1/30/2021 4:15:00 AM -0.11 31.802 0.082 7.32 2.53 14.32
1/30/2021 4:30:00 AM -0.12 31.784 0.082 7.28 2.55 14.33
1/30/2021 4:45:00 AM -0.11 31.802 0.082 7.32 2.54 14.32
1/30/2021 5:00:00 AM -0.11 31.802 0.082 7.29 2.56 14.31
1/30/2021 5:15:00 AM -0.11 31.802 0.082 7.31 2.58 14.3
1/30/2021 5:30:00 AM -0.11 31.802 0.082 7.31 2.56 14.28
1/30/2021 5:45:00 AM -0.11 31.802 0.083 7.27 2.56 14.3
1/30/2021 6:00:00 AM -0.11 31.802 0.083 7.31 2.53 14.32
1/30/2021 6:15:00 AM -0.11 31.802 0.083 7.31 2.74 14.31
1/30/2021 6:30:00 AM -0.11 31.802 0.083 7.31 2.53 14.31
1/30/2021 6:45:00 AM -0.12 31.784 0.083 7.31 2.61 14.32
1/30/2021 7:00:00 AM -0.12 31.784 0.083 7.31 2.57 14.33
1/30/2021 7:15:00 AM -0.11 31.802 0.083 7.31 2.58 14.33
1/30/2021 7:30:00 AM -0.12 31.784 0.083 7.31 2.55 14.34
1/30/2021 7:45:00 AM -0.12 31.784 0.083 7.26 2.53 14.38
1/30/2021 8:00:00 AM -0.12 31.784 0.083 7.33 2.59 14.43
1/30/2021 8:15:00 AM -0.12 31.784 0.083 7.33 2.54 14.51
1/30/2021 8:30:00 AM -0.11 31.802 0.083 7.36 2.53 14.6
1/30/2021 8:45:00 AM -0.11 31.802 0.083 7.36 2.54 14.72
1/30/2021 9:00:00 AM -0.11 31.802 0.083 7.41 2.54 14.82
1/30/2021 9:15:00 AM -0.11 31.802 0.083 7.44 2.53 14.93
1/30/2021 9:30:00 AM -0.11 31.802 0.083 7.46 2.53 15.02
1/30/2021 9:45:00 AM -0.11 31.802 0.083 7.49 2.57 15.09
1/30/2021 10:00:00 AM -0.11 31.802 0.082 7.52 2.54 15.18
1/30/2021 10:15:00 AM -0.11 31.802 0.082 7.54 2.54 15.23
1/30/2021 10:30:00 AM -0.11 31.802 0.082 7.57 2.63 15.25
1/30/2021 10:45:00 AM -0.11 31.802 0.082 7.57 2.62 15.29
1/30/2021 11:00:00 AM -0.11 31.802 0.082 7.61 2.58 15.29
1/30/2021 11:15:00 AM -0.11 31.802 0.081 7.62 2.55 15.34
1/30/2021 11:30:00 AM -0.11 31.802 0.081 7.65 2.59 15.35
1/30/2021 11:45:00 AM -0.1 31.82 0.081 7.66 2.54 15.35
1/30/2021 12:00:00 PM -0.1 31.82 0.081 7.67 2.55 15.36
1/30/2021 12:15:00 PM -0.1 31.82 0.08 7.67 2.6 15.34
1/30/2021 12:30:00 PM -0.09 31.838 0.08 7.68 2.67 15.31
1/30/2021 12:45:00 PM -0.09 31.838 0.08 7.66 2.67 15.3
1/30/2021 1:00:00 PM -0.08 31.856 0.08 7.69 2.62 15.28
1/30/2021 1:15:00 PM -0.08 31.856 0.08 7.69 2.83 15.26
1/30/2021 1:30:00 PM -0.07 31.874 0.08 7.7 2.62 15.24
1/30/2021 1:45:00 PM -0.06 31.892 0.079 7.65 2.57 15.21
1/30/2021 2:00:00 PM -0.06 31.892 0.079 7.7 2.62 15.19
1/30/2021 2:15:00 PM -0.06 31.892 0.079 7.7 2.67 15.18
1/30/2021 2:30:00 PM -0.06 31.892 0.079 7.69 2.67 15.16
1/30/2021 2:45:00 PM -0.06 31.892 0.079 7.7 2.66 15.14
1/30/2021 3:00:00 PM -0.06 31.892 0.079 7.7 2.61 15.13
1/30/2021 3:15:00 PM -0.07 31.874 0.079 7.68 2.56 15.13
1/30/2021 3:30:00 PM -0.08 31.856 0.079 7.7 2.63 15.13
1/30/2021 3:45:00 PM -0.09 31.838 0.079 7.7 2.73 15.14
1/30/2021 4:00:00 PM -0.1 31.82 0.079 7.7 2.57 15.14
1/30/2021 4:15:00 PM -0.1 31.82 0.079 7.69 2.69 15.14
1/30/2021 4:30:00 PM -0.11 31.802 0.079 7.62 2.56 15.12
1/30/2021 4:45:00 PM -0.12 31.784 0.079 7.66 2.63 15.1
1/30/2021 5:00:00 PM -0.12 31.784 0.079 7.62 2.55 15.06
1/30/2021 5:15:00 PM -0.12 31.784 0.079 7.61 2.68 15
1/30/2021 5:30:00 PM -0.12 31.784 0.079 7.55 2.72 14.93
1/30/2021 5:45:00 PM -0.12 31.784 0.079 7.54 2.63 14.85
1/30/2021 6:00:00 PM -0.12 31.784 0.079 7.51 2.57 14.78
1/30/2021 6:15:00 PM -0.12 31.784 0.079 7.48 2.54 14.72
1/30/2021 6:30:00 PM -0.12 31.784 0.079 7.47 2.59 14.67
1/30/2021 6:45:00 PM -0.12 31.784 0.079 7.45 2.56 14.62
1/30/2021 7:00:00 PM -0.12 31.784 0.079 7.43 2.6 14.59
1/30/2021 7:15:00 PM -0.12 31.784 0.079 7.42 2.61 14.56
1/30/2021 7:30:00 PM -0.12 31.784 0.079 7.4 2.58 14.53
1/30/2021 7:45:00 PM -0.12 31.784 0.079 7.4 2.56 14.51
1/30/2021 8:00:00 PM -0.12 31.784 0.08 7.4 2.69 14.49
1/30/2021 8:15:00 PM -0.12 31.784 0.08 7.36 2.56 14.48
1/30/2021 8:30:00 PM -0.12 31.784 0.08 7.38 2.54 14.47
1/30/2021 8:45:00 PM -0.12 31.784 0.08 7.38 2.54 14.45
1/30/2021 9:00:00 PM -0.12 31.784 0.08 7.38 2.54 14.44
1/30/2021 9:15:00 PM -0.12 31.784 0.081 7.37 2.51 14.43
1/30/2021 9:30:00 PM -0.12 31.784 0.081 7.37 2.56 14.42
1/30/2021 9:45:00 PM -0.12 31.784 0.081 7.35 2.6 14.41
1/30/2021 10:00:00 PM -0.11 31.802 0.081 7.35 2.57 14.4
1/30/2021 10:15:00 PM -0.11 31.802 0.082 7.34 2.57 14.4
1/30/2021 10:30:00 PM -0.11 31.802 0.082 7.35 2.55 14.39
1/30/2021 10:45:00 PM -0.11 31.802 0.082 7.36 2.54 14.37
1/30/2021 11:00:00 PM -0.11 31.802 0.082 7.35 2.53 14.37
1/30/2021 11:15:00 PM -0.11 31.802 0.083 7.35 2.53 14.36
1/30/2021 11:30:00 PM -0.11 31.802 0.083 7.31 2.51 14.35
1/30/2021 11:45:00 PM -0.11 31.802 0.083 7.34 2.56 14.36
1/31/2021 12:00:00 AM -0.11 31.802 0.083 7.35 2.52 14.35
1/31/2021 12:15:00 AM -0.11 31.802 0.083 7.32 2.51 14.35
1/31/2021 12:30:00 AM -0.11 31.802 0.084 7.35 2.55 14.34
1/31/2021 12:45:00 AM -0.11 31.802 0.084 7.32 2.58 14.34
1/31/2021 1:00:00 AM -0.11 31.802 0.084 7.35 2.52 14.33
1/31/2021 1:15:00 AM -0.11 31.802 0.084 7.35 2.53 14.33
1/31/2021 1:30:00 AM -0.11 31.802 0.084 7.34 2.57 14.33
1/31/2021 1:45:00 AM -0.11 31.802 0.084 7.32 2.51 14.32
1/31/2021 2:00:00 AM -0.11 31.802 0.084 7.34 2.57 14.32
1/31/2021 2:15:00 AM -0.11 31.802 0.084 7.33 2.52 14.32
1/31/2021 2:30:00 AM -0.11 31.802 0.084 7.34 2.53 14.31
1/31/2021 2:45:00 AM -0.11 31.802 0.084 7.34 2.49 14.31
1/31/2021 3:00:00 AM -0.11 31.802 0.084 7.34 2.55 14.32
1/31/2021 3:15:00 AM -0.11 31.802 0.084 7.34 2.57 14.31
1/31/2021 3:30:00 AM -0.11 31.802 0.084 7.33 2.51 14.29
1/31/2021 3:45:00 AM -0.11 31.802 0.084 7.34 2.53 14.3
1/31/2021 4:00:00 AM -0.11 31.802 0.084 7.32 2.51 14.29
1/31/2021 4:15:00 AM -0.11 31.802 0.084 7.34 2.51 14.3
1/31/2021 4:30:00 AM -0.11 31.802 0.084 7.33 2.53 14.29
1/31/2021 4:45:00 AM -0.11 31.802 0.084 7.34 2.51 14.29
1/31/2021 5:00:00 AM -0.11 31.802 0.084 7.33 2.5 14.28
1/31/2021 5:15:00 AM -0.11 31.802 0.084 7.3 2.46 14.27
1/31/2021 5:30:00 AM -0.11 31.802 0.084 7.33 2.49 14.27
1/31/2021 5:45:00 AM -0.11 31.802 0.084 7.33 2.48 14.26
1/31/2021 6:00:00 AM -0.11 31.802 0.084 7.33 2.52 14.26
1/31/2021 6:15:00 AM -0.11 31.802 0.084 7.33 2.48 14.26
1/31/2021 6:30:00 AM -0.11 31.802 0.084 7.33 2.47 14.25
1/31/2021 6:45:00 AM -0.11 31.802 0.084 7.32 2.48 14.25
1/31/2021 7:00:00 AM -0.11 31.802 0.084 7.31 2.61 14.25
1/31/2021 7:15:00 AM -0.11 31.802 0.084 7.33 2.49 14.25
1/31/2021 7:30:00 AM -0.11 31.802 0.084 7.33 2.48 14.25
1/31/2021 7:45:00 AM -0.11 31.802 0.084 7.33 2.48 14.25
1/31/2021 8:00:00 AM -0.11 31.802 0.083 7.33 2.47 14.28
1/31/2021 8:15:00 AM -0.11 31.802 0.083 7.32 2.52 14.3
1/31/2021 8:30:00 AM -0.11 31.802 0.083 7.34 2.5 14.33
1/31/2021 8:45:00 AM -0.11 31.802 0.083 7.36 2.45 14.37
1/31/2021 9:00:00 AM -0.11 31.802 0.083 7.37 2.47 14.42
1/31/2021 9:15:00 AM -0.11 31.802 0.083 7.37 2.48 14.48
1/31/2021 9:30:00 AM -0.11 31.802 0.083 7.4 2.51 14.54
1/31/2021 9:45:00 AM -0.11 31.802 0.083 7.42 2.47 14.62
1/31/2021 10:00:00 AM -0.11 31.802 0.082 7.44 2.49 14.71
1/31/2021 10:15:00 AM -0.11 31.802 0.082 7.46 2.49 14.8
1/31/2021 10:30:00 AM -0.11 31.802 0.082 7.46 2.5 14.87
1/31/2021 10:45:00 AM -0.11 31.802 0.082 7.52 2.51 14.95
1/31/2021 11:00:00 AM -0.1 31.82 0.082 7.54 2.58 15.02
1/31/2021 11:15:00 AM -0.1 31.82 0.081 7.57 2.54 15.08
1/31/2021 11:30:00 AM -0.09 31.838 0.081 7.6 2.5 15.13
1/31/2021 11:45:00 AM -0.09 31.838 0.081 7.62 2.47 15.16
1/31/2021 12:00:00 PM -0.09 31.838 0.081 7.6 2.51 15.19
1/31/2021 12:15:00 PM -0.09 31.838 0.08 7.66 2.47 15.21
1/31/2021 12:30:00 PM -0.09 31.838 0.08 7.64 2.47 15.23
1/31/2021 12:45:00 PM -0.09 31.838 0.08 7.69 2.48 15.24
1/31/2021 1:00:00 PM -0.09 31.838 0.079 7.69 2.46 15.24
1/31/2021 1:15:00 PM -0.08 31.856 0.079 7.7 2.51 15.26
1/31/2021 1:30:00 PM -0.08 31.856 0.079 7.72 2.5 15.25
1/31/2021 1:45:00 PM -0.08 31.856 0.079 7.69 2.47 15.25
1/31/2021 2:00:00 PM -0.08 31.856 0.078 7.73 2.5 15.25
1/31/2021 2:15:00 PM -0.09 31.838 0.078 7.74 2.49 15.25
1/31/2021 2:30:00 PM -0.08 31.856 0.078 7.72 2.49 15.25
1/31/2021 2:45:00 PM -0.07 31.874 0.078 7.76 2.49 15.25
1/31/2021 3:00:00 PM -0.07 31.874 0.078 7.77 2.53 15.25
1/31/2021 3:15:00 PM -0.08 31.856 0.079 7.76 2.45 15.25
1/31/2021 3:30:00 PM -0.09 31.838 0.079 7.77 2.47 15.23
1/31/2021 3:45:00 PM -0.09 31.838 0.079 7.77 2.55 15.21
1/31/2021 4:00:00 PM -0.1 31.82 0.079 7.75 2.56 15.18
1/31/2021 4:15:00 PM -0.1 31.82 0.079 7.74 2.58 15.15
1/31/2021 4:30:00 PM -0.1 31.82 0.078 7.72 2.52 15.12
1/31/2021 4:45:00 PM -0.11 31.802 0.078 7.69 2.64 15.1
1/31/2021 5:00:00 PM -0.11 31.802 0.078 7.67 2.51 15.02
1/31/2021 5:15:00 PM -0.11 31.802 0.078 7.64 2.43 14.94
1/31/2021 5:30:00 PM -0.11 31.802 0.078 7.6 2.5 14.84
1/31/2021 5:45:00 PM -0.11 31.802 0.078 7.55 2.49 14.76
1/31/2021 6:00:00 PM -0.11 31.802 0.078 7.53 2.46 14.67
1/31/2021 6:15:00 PM -0.11 31.802 0.078 7.51 2.46 14.61
1/31/2021 6:30:00 PM -0.11 31.802 0.078 7.49 2.52 14.55
1/31/2021 6:45:00 PM -0.11 31.802 0.078 7.47 2.56 14.5
1/31/2021 7:00:00 PM -0.11 31.802 0.078 7.45 2.53 14.46
1/31/2021 7:15:00 PM -0.11 31.802 0.079 7.44 2.57 14.42
1/31/2021 7:30:00 PM -0.11 31.802 0.079 7.43 2.53 14.39
1/31/2021 7:45:00 PM -0.11 31.802 0.079 7.37 2.64 14.35
1/31/2021 8:00:00 PM -0.12 31.784 0.079 7.41 2.49 14.32
1/31/2021 8:15:00 PM -0.11 31.802 0.079 7.4 2.5 14.3
1/31/2021 8:30:00 PM -0.12 31.784 0.079 7.39 2.53 14.28
1/31/2021 8:45:00 PM -0.12 31.784 0.079 7.38 2.49 14.26
1/31/2021 9:00:00 PM -0.12 31.784 0.079 7.38 2.54 14.25
1/31/2021 9:15:00 PM -0.11 31.802 0.08 7.37 2.52 14.24
1/31/2021 9:30:00 PM -0.11 31.802 0.08 7.37 2.52 14.22
1/31/2021 9:45:00 PM -0.11 31.802 0.08 7.37 2.49 14.21
1/31/2021 10:00:00 PM -0.11 31.802 0.08 7.37 2.54 14.2
1/31/2021 10:15:00 PM -0.11 31.802 0.08 7.32 2.49 14.19
1/31/2021 10:30:00 PM -0.11 31.802 0.08 7.36 2.49 14.19
1/31/2021 10:45:00 PM -0.11 31.802 0.08 7.36 2.69 14.18
1/31/2021 11:00:00 PM -0.11 31.802 0.08 7.36 2.51 14.17
1/31/2021 11:15:00 PM -0.11 31.802 0.08 7.35 2.47 14.16
1/31/2021 11:30:00 PM -0.11 31.802 0.08 7.28 2.49 14.16
1/31/2021 11:45:00 PM -0.11 31.802 0.08 7.34 2.56 14.15
2/1/2021 12:00:00 AM -0.11 31.802 0.08 7.35 2.56 14.15
2/1/2021 12:15:00 AM -0.11 31.802 0.08 7.31 2.54 14.15
2/1/2021 12:30:00 AM -0.11 31.802 0.08 7.34 2.5 14.14
2/1/2021 12:45:00 AM -0.11 31.802 0.08 7.34 2.53 14.14
2/1/2021 1:00:00 AM -0.11 31.802 0.08 7.34 2.49 14.14
2/1/2021 1:15:00 AM -0.11 31.802 0.08 7.34 2.51 14.13
2/1/2021 1:30:00 AM -0.11 31.802 0.08 7.34 2.52 14.13
2/1/2021 1:45:00 AM -0.11 31.802 0.079 7.33 2.47 14.13
2/1/2021 2:00:00 AM -0.11 31.802 0.079 7.31 2.49 14.12
2/1/2021 2:15:00 AM -0.11 31.802 0.079 7.33 2.44 14.13
2/1/2021 2:30:00 AM -0.11 31.802 0.079 7.33 2.48 14.13
2/1/2021 2:45:00 AM -0.11 31.802 0.079 7.33 2.44 14.12
2/1/2021 3:00:00 AM -0.11 31.802 0.079 7.33 2.45 14.12
2/1/2021 3:15:00 AM -0.11 31.802 0.079 7.32 2.5 14.11
2/1/2021 3:30:00 AM -0.11 31.802 0.079 7.33 2.49 14.11
2/1/2021 3:45:00 AM -0.11 31.802 0.079 7.32 2.5 14.11
2/1/2021 4:00:00 AM -0.11 31.802 0.079 7.32 2.48 14.11
2/1/2021 4:15:00 AM -0.11 31.802 0.079 7.31 2.51 14.11
2/1/2021 4:30:00 AM -0.11 31.802 0.079 7.32 2.47 14.1
2/1/2021 4:45:00 AM -0.11 31.802 0.079 7.32 2.48 14.1
2/1/2021 5:00:00 AM -0.11 31.802 0.079 7.31 2.5 14.1
2/1/2021 5:15:00 AM -0.11 31.802 0.079 7.31 2.53 14.1
2/1/2021 5:30:00 AM -0.11 31.802 0.079 7.31 2.5 14.1
2/1/2021 5:45:00 AM -0.11 31.802 0.079 7.32 2.52 14.1
2/1/2021 6:00:00 AM -0.11 31.802 0.079 7.29 2.55 14.11
2/1/2021 6:15:00 AM -0.11 31.802 0.079 7.32 2.53 14.1
2/1/2021 6:30:00 AM -0.11 31.802 0.079 7.32 2.51 14.11
2/1/2021 6:45:00 AM -0.11 31.802 0.079 7.29 2.5 14.1
2/1/2021 7:00:00 AM -0.11 31.802 0.079 7.31 2.49 14.11
2/1/2021 7:15:00 AM -0.11 31.802 0.079 7.32 2.47 14.1
2/1/2021 7:30:00 AM -0.11 31.802 0.079 7.29 2.59 14.11
2/1/2021 7:45:00 AM -0.11 31.802 0.078 7.33 2.46 14.14
2/1/2021 8:00:00 AM -0.11 31.802 0.078 7.33 2.43 14.17
2/1/2021 8:15:00 AM -0.11 31.802 0.078 7.29 2.48 14.22
2/1/2021 8:30:00 AM -0.11 31.802 0.078 7.36 2.5 14.29
2/1/2021 8:45:00 AM -0.11 31.802 0.078 7.34 2.47 14.37
2/1/2021 9:00:00 AM -0.11 31.802 0.078 7.39 2.43 14.46
2/1/2021 9:15:00 AM -0.11 31.802 0.078 7.41 2.5 14.55
2/1/2021 9:30:00 AM -0.11 31.802 0.078 7.44 2.62 14.63
2/1/2021 9:45:00 AM -0.1 31.82 0.077 7.46 2.53 14.7
2/1/2021 10:00:00 AM -0.1 31.82 0.077 7.49 2.49 14.77
2/1/2021 10:15:00 AM -0.1 31.82 0.077 7.51 2.48 14.82
2/1/2021 10:30:00 AM -0.1 31.82 0.077 7.48 2.53 14.87
2/1/2021 10:45:00 AM -0.09 31.838 0.077 7.54 2.51 14.92
2/1/2021 11:00:00 AM -0.09 31.838 0.077 7.58 2.49 14.96
2/1/2021 11:15:00 AM -0.08 31.856 0.076 7.6 2.53 14.99
2/1/2021 11:30:00 AM -0.08 31.856 0.076 7.61 2.48 15.02
2/1/2021 11:45:00 AM -0.08 31.856 0.076 7.59 2.68 15.04
2/1/2021 12:00:00 PM -0.08 31.856 0.076 7.64 2.5 15.05
2/1/2021 12:15:00 PM -0.08 31.856 0.076 7.65 2.55 15.06
2/1/2021 12:30:00 PM -0.08 31.856 0.076 7.67 2.48 15.08
2/1/2021 12:45:00 PM -0.07 31.874 0.076 7.64 2.59 15.08
2/1/2021 1:00:00 PM -0.07 31.874 0.077 7.69 2.52 15.09
2/1/2021 1:15:00 PM -0.06 31.892 0.077 7.69 2.56 15.08
2/1/2021 1:30:00 PM -0.06 31.892 0.077 7.7 2.56 15.08
2/1/2021 1:45:00 PM -0.06 31.892 0.077 7.71 2.48 15.08
2/1/2021 2:00:00 PM -0.04 31.928 0.076 7.72 2.51 15.08
2/1/2021 2:15:00 PM -0.03 31.946 0.076 7.71 2.53 15.06
2/1/2021 2:30:00 PM -0.03 31.946 0.075 7.73 2.51 15.05
2/1/2021 2:45:00 PM -0.04 31.928 0.075 7.74 2.5 15.04
2/1/2021 3:00:00 PM -0.05 31.91 0.075 7.74 2.64 15.03
2/1/2021 3:15:00 PM -0.06 31.892 0.075 7.73 2.53 15.01
2/1/2021 3:30:00 PM -0.06 31.892 0.076 7.69 2.56 14.99
2/1/2021 3:45:00 PM -0.06 31.892 0.076 7.72 2.52 14.98
2/1/2021 4:00:00 PM -0.07 31.874 0.076 7.72 2.5 14.97
2/1/2021 4:15:00 PM -0.07 31.874 0.076 7.7 2.49 14.94
2/1/2021 4:30:00 PM -0.08 31.856 0.076 7.69 2.52 14.9
2/1/2021 4:45:00 PM -0.08 31.856 0.076 7.68 2.52 14.87
2/1/2021 5:00:00 PM -0.09 31.838 0.075 7.62 2.53 14.81
2/1/2021 5:15:00 PM -0.09 31.838 0.075 7.61 2.49 14.74
2/1/2021 5:30:00 PM -0.1 31.82 0.075 7.58 2.52 14.66
2/1/2021 5:45:00 PM -0.1 31.82 0.075 7.55 2.49 14.58
2/1/2021 6:00:00 PM -0.1 31.82 0.075 7.52 2.49 14.5
2/1/2021 6:15:00 PM -0.11 31.802 0.075 7.5 2.53 14.44
2/1/2021 6:30:00 PM -0.11 31.802 0.075 7.47 2.54 14.39
2/1/2021 6:45:00 PM -0.11 31.802 0.075 7.46 2.5 14.34
2/1/2021 7:00:00 PM -0.11 31.802 0.075 7.44 2.48 14.31
2/1/2021 7:15:00 PM -0.11 31.802 0.075 7.41 2.53 14.28
2/1/2021 7:30:00 PM -0.11 31.802 0.075 7.42 2.52 14.25
2/1/2021 7:45:00 PM -0.11 31.802 0.075 7.41 2.53 14.23
2/1/2021 8:00:00 PM -0.11 31.802 0.075 7.4 2.62 14.21
2/1/2021 8:15:00 PM -0.11 31.802 0.075 7.34 2.53 14.19
2/1/2021 8:30:00 PM -0.11 31.802 0.076 7.39 2.57 14.18
2/1/2021 8:45:00 PM -0.11 31.802 0.076 7.38 2.53 14.16
2/1/2021 9:00:00 PM -0.11 31.802 0.076 7.38 2.57 14.16
2/1/2021 9:15:00 PM -0.11 31.802 0.076 7.34 2.53 14.15
2/1/2021 9:30:00 PM -0.11 31.802 0.076 7.36 2.51 14.13
2/1/2021 9:45:00 PM -0.11 31.802 0.076 7.37 2.49 14.14
2/1/2021 10:00:00 PM -0.11 31.802 0.076 7.36 2.51 14.13
2/1/2021 10:15:00 PM -0.11 31.802 0.076 7.36 2.47 14.12
2/1/2021 10:30:00 PM -0.11 31.802 0.076 7.35 2.97 14.12
2/1/2021 10:45:00 PM -0.11 31.802 0.076 7.34 2.56 14.13
2/1/2021 11:00:00 PM -0.11 31.802 0.076 7.35 2.54 14.12
2/1/2021 11:15:00 PM -0.11 31.802 0.077 7.34 2.49 14.13
2/1/2021 11:30:00 PM -0.11 31.802 0.077 7.35 2.51 14.12
2/1/2021 11:45:00 PM -0.11 31.802 0.077 7.34 2.53 14.12
2/2/2021 12:00:00 AM -0.11 31.802 0.077 7.35 2.54 14.11
2/2/2021 12:15:00 AM -0.11 31.802 0.077 7.34 2.53 14.11
2/2/2021 12:30:00 AM -0.11 31.802 0.077 7.35 2.54 14.11
2/2/2021 12:45:00 AM -0.11 31.802 0.077 7.34 2.51 14.11
2/2/2021 1:00:00 AM -0.11 31.802 0.077 7.31 2.52 14.11
2/2/2021 1:15:00 AM -0.11 31.802 0.078 7.34 2.54 14.1
2/2/2021 1:30:00 AM -0.11 31.802 0.078 7.34 2.6 14.1
2/2/2021 1:45:00 AM -0.11 31.802 0.078 7.34 2.66 14.09
2/2/2021 2:00:00 AM -0.11 31.802 0.078 7.34 2.54 14.09
2/2/2021 2:15:00 AM -0.11 31.802 0.078 7.34 2.51 14.09
2/2/2021 2:30:00 AM -0.11 31.802 0.078 7.33 2.48 14.09
2/2/2021 2:45:00 AM -0.11 31.802 0.078 7.34 2.52 14.08
2/2/2021 3:00:00 AM -0.11 31.802 0.078 7.33 2.49 14.08
2/2/2021 3:15:00 AM -0.11 31.802 0.078 7.33 2.58 14.08
2/2/2021 3:30:00 AM -0.11 31.802 0.078 7.33 2.53 14.08
2/2/2021 3:45:00 AM -0.11 31.802 0.078 7.33 2.5 14.07
2/2/2021 4:00:00 AM -0.11 31.802 0.078 7.33 2.5 14.07
2/2/2021 4:15:00 AM -0.11 31.802 0.078 7.33 2.5 14.08
2/2/2021 4:30:00 AM -0.11 31.802 0.078 7.33 2.48 14.08
2/2/2021 4:45:00 AM -0.11 31.802 0.078 7.31 2.76 14.07
2/2/2021 5:00:00 AM -0.12 31.784 0.078 7.33 2.65 14.08
2/2/2021 5:15:00 AM -0.11 31.802 0.078 7.33 2.62 14.08
2/2/2021 5:30:00 AM -0.11 31.802 0.078 7.33 2.59 14.07
2/2/2021 5:45:00 AM -0.11 31.802 0.078 7.3 2.62 14.07
2/2/2021 6:00:00 AM -0.11 31.802 0.078 7.33 2.62 14.08
2/2/2021 6:15:00 AM -0.11 31.802 0.078 7.31 2.62 14.08
2/2/2021 6:30:00 AM -0.12 31.784 0.078 7.32 3.02 14.07
2/2/2021 6:45:00 AM -0.11 31.802 0.078 7.31 2.58 14.07
2/2/2021 7:00:00 AM -0.11 31.802 0.078 7.32 2.59 14.07
2/2/2021 7:15:00 AM -0.11 31.802 0.078 7.32 2.62 14.07
2/2/2021 7:30:00 AM -0.11 31.802 0.078 7.29 2.59 14.07
2/2/2021 7:45:00 AM -0.11 31.802 0.078 7.31 2.7 14.09
2/2/2021 8:00:00 AM -0.11 31.802 0.078 7.34 2.59 14.13
2/2/2021 8:15:00 AM -0.11 31.802 0.078 7.34 2.62 14.17
2/2/2021 8:30:00 AM -0.11 31.802 0.078 7.36 2.72 14.24
2/2/2021 8:45:00 AM -0.11 31.802 0.078 7.38 2.59 14.3
2/2/2021 9:00:00 AM -0.11 31.802 0.078 7.39 2.66 14.38
2/2/2021 9:15:00 AM -0.11 31.802 0.077 7.41 2.81 14.47
2/2/2021 9:30:00 AM -0.11 31.802 0.077 7.44 2.62 14.53
2/2/2021 9:45:00 AM -0.1 31.82 0.077 7.46 2.65 14.59
2/2/2021 10:00:00 AM -0.1 31.82 0.077 7.49 2.62 14.65
2/2/2021 10:15:00 AM -0.1 31.82 0.077 7.51 2.63 14.71
2/2/2021 10:30:00 AM -0.1 31.82 0.077 7.52 2.61 14.76
2/2/2021 10:45:00 AM -0.1 31.82 0.076 7.55 2.74 14.8
2/2/2021 11:00:00 AM -0.09 31.838 0.076 7.57 2.69 14.84
2/2/2021 11:15:00 AM -0.1 31.82 0.076 7.58 2.66 14.86
2/2/2021 11:30:00 AM -0.09 31.838 0.076 7.6 2.64 14.89
2/2/2021 11:45:00 AM -0.09 31.838 0.076 7.61 2.69 14.9
2/2/2021 12:00:00 PM -0.08 31.856 0.076 7.63 2.67 14.93
2/2/2021 12:15:00 PM -0.08 31.856 0.076 7.64 2.69 14.93
2/2/2021 12:30:00 PM -0.08 31.856 0.076 7.61 2.59 14.94
2/2/2021 12:45:00 PM -0.08 31.856 0.076 7.66 2.63 14.93
2/2/2021 1:00:00 PM -0.09 31.838 0.076 7.66 2.56 14.92
2/2/2021 1:15:00 PM -0.09 31.838 0.076 7.66 2.62 14.91
2/2/2021 1:30:00 PM -0.1 31.82 0.076 7.65 2.6 14.9
2/2/2021 1:45:00 PM -0.1 31.82 0.076 7.66 2.6 14.88
2/2/2021 2:00:00 PM -0.1 31.82 0.075 7.64 2.59 14.88
2/2/2021 2:15:00 PM -0.1 31.82 0.076 7.66 2.59 14.87
2/2/2021 2:30:00 PM -0.1 31.82 0.076 7.65 2.56 14.85
2/2/2021 2:45:00 PM -0.1 31.82 0.076 7.65 2.6 14.84
2/2/2021 3:00:00 PM -0.1 31.82 0.076 7.65 2.56 14.84
2/2/2021 3:15:00 PM -0.1 31.82 0.076 7.64 2.61 14.82
2/2/2021 3:30:00 PM -0.1 31.82 0.076 7.64 2.57 14.81
2/2/2021 3:45:00 PM -0.1 31.82 0.076 7.64 2.54 14.8
2/2/2021 4:00:00 PM -0.1 31.82 0.076 7.63 2.68 14.78
2/2/2021 4:15:00 PM -0.11 31.802 0.076 7.61 2.76 14.76
2/2/2021 4:30:00 PM -0.11 31.802 0.076 7.62 2.64 14.74
2/2/2021 4:45:00 PM -0.11 31.802 0.076 7.57 2.53 14.72
2/2/2021 5:00:00 PM -0.11 31.802 0.076 7.59 2.58 14.68
2/2/2021 5:15:00 PM -0.11 31.802 0.076 7.58 2.54 14.63
2/2/2021 5:30:00 PM -0.11 31.802 0.076 7.51 2.56 14.56
2/2/2021 5:45:00 PM -0.11 31.802 0.077 7.52 2.58 14.47
2/2/2021 6:00:00 PM -0.11 31.802 0.077 7.48 2.6 14.41
2/2/2021 6:15:00 PM -0.11 31.802 0.077 7.48 2.58 14.35
2/2/2021 6:30:00 PM -0.11 31.802 0.077 7.46 2.57 14.3
2/2/2021 6:45:00 PM -0.11 31.802 0.077 7.44 2.52 14.26
2/2/2021 7:00:00 PM -0.11 31.802 0.077 7.41 2.64 14.23
2/2/2021 7:15:00 PM -0.11 31.802 0.077 7.42 2.61 14.19
2/2/2021 7:30:00 PM -0.11 31.802 0.077 7.41 2.61 14.17
2/2/2021 7:45:00 PM -0.11 31.802 0.077 7.39 2.68 14.14
2/2/2021 8:00:00 PM -0.11 31.802 0.077 7.38 2.57 14.12
2/2/2021 8:15:00 PM -0.11 31.802 0.077 7.38 2.59 14.1
2/2/2021 8:30:00 PM -0.11 31.802 0.078 7.38 2.62 14.09
2/2/2021 8:45:00 PM -0.11 31.802 0.078 7.37 2.66 14.09
2/2/2021 9:00:00 PM -0.11 31.802 0.078 7.37 2.78 14.07
2/2/2021 9:15:00 PM -0.11 31.802 0.078 7.34 2.54 14.06
2/2/2021 9:30:00 PM -0.11 31.802 0.078 7.35 2.6 14.05
2/2/2021 9:45:00 PM -0.11 31.802 0.078 7.35 2.59 14.04
2/2/2021 10:00:00 PM -0.11 31.802 0.078 7.36 2.77 14.03
2/2/2021 10:15:00 PM -0.11 31.802 0.078 7.35 2.58 14.03
2/2/2021 10:30:00 PM -0.11 31.802 0.078 7.35 2.58 14.03
2/2/2021 10:45:00 PM -0.11 31.802 0.078 7.35 2.59 14.02
2/2/2021 11:00:00 PM -0.11 31.802 0.078 7.32 2.61 14.02
2/2/2021 11:15:00 PM -0.11 31.802 0.078 7.34 2.57 14.02
2/2/2021 11:30:00 PM -0.11 31.802 0.078 7.34 2.57 14.01
2/2/2021 11:45:00 PM -0.11 31.802 0.078 7.34 3.02 14
2/3/2021 12:00:00 AM -0.11 31.802 0.078 7.3 2.67 14
2/3/2021 12:15:00 AM -0.11 31.802 0.078 7.33 2.56 14.01
2/3/2021 12:30:00 AM -0.11 31.802 0.078 7.34 2.59 14.01
2/3/2021 12:45:00 AM -0.11 31.802 0.078 7.34 3.05 13.99
2/3/2021 1:00:00 AM -0.11 31.802 0.078 7.31 2.53 13.99
2/3/2021 1:15:00 AM -0.11 31.802 0.078 7.33 2.56 14
2/3/2021 1:30:00 AM -0.11 31.802 0.078 7.34 2.56 13.99
2/3/2021 1:45:00 AM -0.11 31.802 0.078 7.33 2.57 13.99
2/3/2021 2:00:00 AM -0.11 31.802 0.078 7.32 2.56 13.99
2/3/2021 2:15:00 AM -0.11 31.802 0.078 7.33 2.59 13.99
2/3/2021 2:30:00 AM -0.11 31.802 0.079 7.31 2.59 14
2/3/2021 2:45:00 AM -0.11 31.802 0.079 7.32 2.42 13.99
2/3/2021 3:00:00 AM -0.11 31.802 0.079 7.33 2.46 14
2/3/2021 3:15:00 AM -0.11 31.802 0.079 7.33 2.4 13.99
2/3/2021 3:30:00 AM -0.11 31.802 0.079 7.33 2.4 13.99
2/3/2021 3:45:00 AM -0.11 31.802 0.079 7.33 2.39 13.99
2/3/2021 4:00:00 AM -0.11 31.802 0.079 7.33 2.44 13.99
2/3/2021 4:15:00 AM -0.11 31.802 0.079 7.33 2.41 13.99
2/3/2021 4:30:00 AM -0.11 31.802 0.079 7.32 2.29 13.99
2/3/2021 4:45:00 AM -0.11 31.802 0.079 7.32 2.42 13.99
2/3/2021 5:00:00 AM -0.11 31.802 0.079 7.32 2.32 13.99
2/3/2021 5:15:00 AM -0.11 31.802 0.079 7.31 2.32 13.99
2/3/2021 5:30:00 AM -0.11 31.802 0.078 7.32 2.65 13.98
2/3/2021 5:45:00 AM -0.11 31.802 0.078 7.32 2.4 13.99
2/3/2021 6:00:00 AM -0.11 31.802 0.078 7.32 2.36 14
2/3/2021 6:15:00 AM -0.11 31.802 0.078 7.32 2.49 14
2/3/2021 6:30:00 AM -0.11 31.802 0.078 7.32 2.34 13.99
2/3/2021 6:45:00 AM -0.11 31.802 0.078 7.29 2.34 14
2/3/2021 7:00:00 AM -0.11 31.802 0.078 7.32 2.38 14
2/3/2021 7:15:00 AM -0.11 31.802 0.078 7.32 2.32 14
2/3/2021 7:30:00 AM -0.11 31.802 0.078 7.32 2.41 14
2/3/2021 7:45:00 AM -0.11 31.802 0.078 7.29 2.39 14.02
2/3/2021 8:00:00 AM -0.11 31.802 0.078 7.33 2.4 14.05
2/3/2021 8:15:00 AM -0.11 31.802 0.078 7.34 2.49 14.09
2/3/2021 8:30:00 AM -0.11 31.802 0.078 7.35 2.43 14.14
2/3/2021 8:45:00 AM -0.11 31.802 0.078 7.31 2.42 14.2
2/3/2021 9:00:00 AM -0.11 31.802 0.078 7.38 2.4 14.27
2/3/2021 9:15:00 AM -0.11 31.802 0.077 7.4 2.47 14.36
2/3/2021 9:30:00 AM -0.1 31.82 0.077 7.42 2.42 14.44
2/3/2021 9:45:00 AM -0.1 31.82 0.077 7.45 2.4 14.52
2/3/2021 10:00:00 AM -0.1 31.82 0.077 7.48 2.42 14.6
2/3/2021 10:15:00 AM -0.1 31.82 0.077 7.46 4.13 14.66
2/3/2021 10:30:00 AM -0.09 31.838 0.076 7.52 2.43 14.71
2/3/2021 10:45:00 AM -0.09 31.838 0.076 7.55 2.43 14.77
2/3/2021 11:00:00 AM -0.08 31.856 0.076 7.55 2.6 14.82
2/3/2021 11:15:00 AM -0.06 31.892 0.076 7.59 2.42 14.85
2/3/2021 11:30:00 AM -0.03 31.946 0.076 7.61 2.48 14.87
2/3/2021 11:45:00 AM -0.01 31.982 0.076 7.63 2.52 14.87
2/3/2021 12:00:00 PM 0.01 32.018 0.076 7.63 2.52 14.86
2/3/2021 12:15:00 PM 0.02 32.036 0.075 7.61 2.47 14.85
2/3/2021 12:30:00 PM 0.02 32.036 0.075 7.65 2.47 14.84
2/3/2021 12:45:00 PM 0.04 32.072 0.075 7.66 2.51 14.83
2/3/2021 1:00:00 PM 0.05 32.09 0.076 7.66 2.44 14.81
2/3/2021 1:15:00 PM 0.06 32.108 0.076 7.66 2.72 14.79
2/3/2021 1:30:00 PM 0.07 32.126 0.076 7.67 2.46 14.75
2/3/2021 1:45:00 PM 0.09 32.162 0.076 7.62 2.61 14.73
2/3/2021 2:00:00 PM 0.1 32.18 0.076 7.67 2.53 14.69
2/3/2021 2:15:00 PM 0.1 32.18 0.076 7.64 2.56 14.68
2/3/2021 2:30:00 PM 0.09 32.162 0.076 7.66 2.49 14.64
2/3/2021 2:45:00 PM 0.08 32.144 0.076 7.66 12.38 14.63
2/3/2021 3:00:00 PM 0.07 32.126 0.076 7.66 2.41 14.62
2/3/2021 3:15:00 PM 0.05 32.09 0.076 7.64 2.32 14.62
2/3/2021 3:30:00 PM 0.02 32.036 0.075 7.65 2.3 14.62
2/3/2021 3:45:00 PM -0.01 31.982 0.075 7.62 2.32 14.62
2/3/2021 4:00:00 PM -0.03 31.946 0.075 7.63 2.35 14.62
2/3/2021 4:15:00 PM -0.05 31.91 0.075 7.62 2.26 14.61
2/3/2021 4:30:00 PM -0.07 31.874 0.076 7.61 2.29 14.59
2/3/2021 4:45:00 PM -0.08 31.856 0.075 7.6 2.31 14.58
2/3/2021 5:00:00 PM -0.09 31.838 0.075 7.58 2.24 14.56
2/3/2021 5:15:00 PM -0.1 31.82 0.075 7.55 2.21 14.52
2/3/2021 5:30:00 PM -0.11 31.802 0.075 7.54 2.19 14.48
2/3/2021 5:45:00 PM -0.12 31.784 0.075 7.51 2.24 14.42
2/3/2021 6:00:00 PM -0.12 31.784 0.075 7.46 2.26 14.36
2/3/2021 6:15:00 PM -0.12 31.784 0.075 7.47 2.19 14.32
2/3/2021 6:30:00 PM -0.12 31.784 0.075 7.45 2.22 14.28
2/3/2021 6:45:00 PM -0.11 31.802 0.075 7.43 2.17 14.25
2/3/2021 7:00:00 PM -0.11 31.802 0.076 7.42 2.18 14.22
2/3/2021 7:15:00 PM -0.11 31.802 0.076 7.4 2.15 14.21
2/3/2021 7:30:00 PM -0.11 31.802 0.076 7.4 2.21 14.18
2/3/2021 7:45:00 PM -0.11 31.802 0.076 7.37 2.25 14.17
2/3/2021 8:00:00 PM -0.11 31.802 0.077 7.39 2.21 14.17
2/3/2021 8:15:00 PM -0.11 31.802 0.077 7.39 2.21 14.15
2/3/2021 8:30:00 PM -0.11 31.802 0.077 7.38 2.23 14.14
2/3/2021 8:45:00 PM -0.11 31.802 0.077 7.37 2.21 14.14
2/3/2021 9:00:00 PM -0.11 31.802 0.077 7.37 2.2 14.13
2/3/2021 9:15:00 PM -0.11 31.802 0.077 7.37 2.19 14.13
2/3/2021 9:30:00 PM -0.11 31.802 0.078 7.34 2.52 14.13
2/3/2021 9:45:00 PM -0.11 31.802 0.078 7.36 2.19 14.12
2/3/2021 10:00:00 PM -0.11 31.802 0.078 7.36 2.3 14.12
2/3/2021 10:15:00 PM -0.11 31.802 0.078 7.34 2.24 14.12
2/3/2021 10:30:00 PM -0.11 31.802 0.079 7.36 2.23 14.13
2/3/2021 10:45:00 PM -0.11 31.802 0.079 7.35 2.29 14.14
2/3/2021 11:00:00 PM -0.11 31.802 0.079 7.33 2.27 14.15
2/3/2021 11:15:00 PM -0.11 31.802 0.079 7.34 2.23 14.15
2/3/2021 11:30:00 PM -0.11 31.802 0.08 7.35 2.23 14.14
2/3/2021 11:45:00 PM -0.11 31.802 0.08 7.35 2.29 14.15
2/4/2021 12:00:00 AM -0.11 31.802 0.081 7.35 2.36 14.14
2/4/2021 12:15:00 AM -0.11 31.802 0.081 7.35 2.26 14.16
2/4/2021 12:30:00 AM -0.11 31.802 0.081 7.31 2.27 14.17
2/4/2021 12:45:00 AM -0.11 31.802 0.082 7.34 2.2 14.16
2/4/2021 1:00:00 AM -0.11 31.802 0.082 7.34 2.24 14.15
2/4/2021 1:15:00 AM -0.11 31.802 0.082 7.34 2.29 14.16
2/4/2021 1:30:00 AM -0.11 31.802 0.082 7.31 2.28 14.17
2/4/2021 1:45:00 AM -0.11 31.802 0.082 7.34 2.26 14.15
2/4/2021 2:00:00 AM -0.11 31.802 0.082 7.34 2.25 14.17
2/4/2021 2:15:00 AM -0.1 31.82 0.082 7.3 2.22 14.16
2/4/2021 2:30:00 AM -0.1 31.82 0.083 7.33 2.27 14.16
2/4/2021 2:45:00 AM -0.1 31.82 0.083 7.33 2.27 14.16
2/4/2021 3:00:00 AM -0.11 31.802 0.083 7.3 2.25 14.18
2/4/2021 3:15:00 AM -0.11 31.802 0.083 7.33 2.25 14.16
2/4/2021 3:30:00 AM -0.1 31.82 0.083 7.3 2.26 14.15
2/4/2021 3:45:00 AM -0.1 31.82 0.083 7.33 2.27 14.15
2/4/2021 4:00:00 AM -0.1 31.82 0.084 7.32 2.58 14.15
2/4/2021 4:15:00 AM -0.1 31.82 0.084 7.33 2.29 14.16
2/4/2021 4:30:00 AM -0.1 31.82 0.084 7.32 2.24 14.15
2/4/2021 4:45:00 AM -0.1 31.82 0.084 7.31 2.18 14.14
2/4/2021 5:00:00 AM -0.1 31.82 0.084 7.32 2.16 14.14
2/4/2021 5:15:00 AM -0.1 31.82 0.085 7.31 2.23 14.14
2/4/2021 5:30:00 AM -0.09 31.838 0.085 7.32 2.2 14.14
2/4/2021 5:45:00 AM -0.1 31.82 0.085 7.31 2.28 14.13
2/4/2021 6:00:00 AM -0.1 31.82 0.085 7.3 2.22 14.13
2/4/2021 6:15:00 AM -0.1 31.82 0.086 7.32 2.47 14.14
2/4/2021 6:30:00 AM -0.1 31.82 0.086 7.31 2.22 14.13
2/4/2021 6:45:00 AM -0.09 31.838 0.086 7.3 2.11 14.11
2/4/2021 7:00:00 AM -0.09 31.838 0.086 7.3 2.17 14.1
2/4/2021 7:15:00 AM -0.09 31.838 0.086 7.28 2.13 14.09
2/4/2021 7:30:00 AM -0.09 31.838 0.087 7.3 2.13 14.06
2/4/2021 7:45:00 AM -0.09 31.838 0.087 7.27 2.15 14.06
2/4/2021 8:00:00 AM -0.09 31.838 0.087 7.29 2.19 14.08
2/4/2021 8:15:00 AM -0.09 31.838 0.087 7.31 2.12 14.13
2/4/2021 8:30:00 AM -0.08 31.856 0.087 7.28 2.22 14.14
2/4/2021 8:45:00 AM -0.08 31.856 0.089 7.28 2.17 14.18
2/4/2021 9:00:00 AM -0.08 31.856 0.089 7.3 2.14 14.25
2/4/2021 9:15:00 AM -0.08 31.856 0.088 7.33 2.13 14.32
2/4/2021 9:30:00 AM -0.09 31.838 0.088 7.36 2.14 14.42
2/4/2021 9:45:00 AM -0.08 31.856 0.088 7.38 2.16 14.46
2/4/2021 10:00:00 AM -0.09 31.838 0.088 7.4 2.15 14.56
2/4/2021 10:15:00 AM -0.09 31.838 0.087 7.43 2.1 14.69
2/4/2021 10:30:00 AM -0.09 31.838 0.087 7.45 2.13 14.65
2/4/2021 10:45:00 AM -0.09 31.838 0.086 7.47 2.14 14.78
2/4/2021 11:00:00 AM -0.09 31.838 0.086 7.49 2.18 14.87
2/4/2021 11:15:00 AM -0.09 31.838 0.086 7.52 2.16 14.91
2/4/2021 11:30:00 AM -0.08 31.856 0.085 7.53 2.19 14.91
2/4/2021 11:45:00 AM -0.08 31.856 0.085 7.52 2.29 14.9
2/4/2021 12:00:00 PM -0.07 31.874 0.084 7.56 2.18 14.88
2/4/2021 12:15:00 PM -0.07 31.874 0.084 7.58 2.41 14.91
2/4/2021 12:30:00 PM -0.07 31.874 0.083 7.61 2.63 14.96
2/4/2021 12:45:00 PM -0.06 31.892 0.082 7.64 2.28 14.98
2/4/2021 1:00:00 PM -0.03 31.946 0.082 7.65 2.36 14.95
2/4/2021 1:15:00 PM -0.01 31.982 0.082 7.63 2.28 14.91
2/4/2021 1:30:00 PM 0 32 0.082 7.66 2.37 14.9
2/4/2021 1:45:00 PM 0.01 32.018 0.082 7.66 2.34 14.86
2/4/2021 2:00:00 PM 0 32 0.082 7.67 2.65 14.85
2/4/2021 2:15:00 PM 0.01 32.018 0.082 7.64 2.4 14.8
2/4/2021 2:30:00 PM 0.01 32.018 0.082 7.67 2.37 14.79
2/4/2021 2:45:00 PM 0.01 32.018 0.082 7.68 2.31 14.77
2/4/2021 3:00:00 PM 0 32 0.083 7.68 2.54 14.8
2/4/2021 3:15:00 PM -0.01 31.982 0.083 7.69 2.42 14.83
2/4/2021 3:30:00 PM -0.04 31.928 0.083 7.69 2.63 14.84
2/4/2021 3:45:00 PM -0.07 31.874 0.083 7.7 2.54 14.87
2/4/2021 4:00:00 PM -0.08 31.856 0.083 7.69 2.46 14.88
2/4/2021 4:15:00 PM -0.09 31.838 0.082 7.68 2.5 14.85
2/4/2021 4:30:00 PM -0.09 31.838 0.081 7.65 2.38 14.82
2/4/2021 4:45:00 PM -0.1 31.82 0.081 7.61 2.39 14.78
2/4/2021 5:00:00 PM -0.11 31.802 0.08 7.61 2.36 14.73
2/4/2021 5:15:00 PM -0.11 31.802 0.079 7.59 2.44 14.7
2/4/2021 5:30:00 PM -0.12 31.784 0.079 7.57 2.41 14.65
2/4/2021 5:45:00 PM -0.12 31.784 0.079 7.54 2.69 14.57
2/4/2021 6:00:00 PM -0.12 31.784 0.078 7.51 2.75 14.5
2/4/2021 6:15:00 PM -0.12 31.784 0.078 7.46 2.6 14.45
2/4/2021 6:30:00 PM -0.12 31.784 0.078 7.46 2.34 14.4
2/4/2021 6:45:00 PM -0.12 31.784 0.078 7.45 2.37 14.37
2/4/2021 7:00:00 PM -0.11 31.802 0.078 7.42 2.38 14.32
2/4/2021 7:15:00 PM -0.11 31.802 0.078 7.42 2.33 14.29
2/4/2021 7:30:00 PM -0.11 31.802 0.078 7.41 2.35 14.26
2/4/2021 7:45:00 PM -0.11 31.802 0.078 7.4 2.36 14.23
2/4/2021 8:00:00 PM -0.11 31.802 0.078 7.39 2.31 14.21
2/4/2021 8:15:00 PM -0.11 31.802 0.078 7.35 2.35 14.19
2/4/2021 8:30:00 PM -0.11 31.802 0.078 7.37 2.32 14.17
2/4/2021 8:45:00 PM -0.11 31.802 0.079 7.37 2.36 14.16
2/4/2021 9:00:00 PM -0.11 31.802 0.079 7.37 2.34 14.14
2/4/2021 9:15:00 PM -0.11 31.802 0.079 7.37 2.35 14.12
2/4/2021 9:30:00 PM -0.11 31.802 0.079 7.37 2.35 14.12
2/4/2021 9:45:00 PM -0.11 31.802 0.079 7.35 2.36 14.11
2/4/2021 10:00:00 PM -0.11 31.802 0.079 7.36 2.32 14.1
2/4/2021 10:15:00 PM -0.11 31.802 0.08 7.35 2.3 14.08
2/4/2021 10:30:00 PM -0.11 31.802 0.08 7.35 2.32 14.08
2/4/2021 10:45:00 PM -0.11 31.802 0.08 7.32 2.36 14.07
2/4/2021 11:00:00 PM -0.11 31.802 0.08 7.35 2.36 14.06
2/4/2021 11:15:00 PM -0.11 31.802 0.08 7.35 2.29 14.06
2/4/2021 11:30:00 PM -0.1 31.82 0.08 7.35 2.28 14.05
2/4/2021 11:45:00 PM -0.1 31.82 0.08 7.35 2.45 14.04
2/5/2021 12:00:00 AM -0.11 31.802 0.08 7.33 2.27 14.05
2/5/2021 12:15:00 AM -0.11 31.802 0.08 7.35 2.29 14.05
2/5/2021 12:30:00 AM -0.1 31.82 0.081 7.33 2.33 14.04
2/5/2021 12:45:00 AM -0.1 31.82 0.081 7.35 2.3 14.02
2/5/2021 1:00:00 AM -0.11 31.802 0.081 7.35 2.33 14.02
2/5/2021 1:15:00 AM -0.1 31.82 0.081 7.35 2.32 14.01
2/5/2021 1:30:00 AM -0.1 31.82 0.081 7.35 2.3 14.01
2/5/2021 1:45:00 AM -0.1 31.82 0.081 7.32 2.27 14
2/5/2021 2:00:00 AM -0.1 31.82 0.081 7.33 2.22 14
2/5/2021 2:15:00 AM -0.1 31.82 0.081 7.35 2.31 13.99
2/5/2021 2:30:00 AM -0.1 31.82 0.081 7.35 2.28 13.99
2/5/2021 2:45:00 AM -0.1 31.82 0.081 7.35 2.25 13.98
2/5/2021 3:00:00 AM -0.1 31.82 0.08 7.32 2.43 13.97
2/5/2021 3:15:00 AM -0.1 31.82 0.08 7.35 2.29 13.96
2/5/2021 3:30:00 AM -0.1 31.82 0.08 7.35 2.3 13.95
2/5/2021 3:45:00 AM -0.1 31.82 0.08 7.35 2.29 13.94
2/5/2021 4:00:00 AM -0.1 31.82 0.08 7.35 2.23 13.93
2/5/2021 4:15:00 AM -0.1 31.82 0.08 7.34 2.26 13.92
2/5/2021 4:30:00 AM -0.09 31.838 0.08 7.34 2.28 13.9
2/5/2021 4:45:00 AM -0.09 31.838 0.08 7.35 2.25 13.89
2/5/2021 5:00:00 AM -0.09 31.838 0.08 7.33 2.83 13.88
2/5/2021 5:15:00 AM -0.09 31.838 0.08 7.35 2.38 13.89
2/5/2021 5:30:00 AM -0.09 31.838 0.08 7.35 4.16 13.87
2/5/2021 5:45:00 AM -0.09 31.838 0.08 7.35 2.26 13.88
2/5/2021 6:00:00 AM -0.08 31.856 0.08 7.35 2.25 13.88
2/5/2021 6:15:00 AM -0.08 31.856 0.08 7.32 2.21 13.88
2/5/2021 6:30:00 AM -0.08 31.856 0.08 7.34 2.24 13.87
2/5/2021 6:45:00 AM -0.08 31.856 0.081 7.35 2.28 13.88
2/5/2021 7:00:00 AM -0.08 31.856 0.084 7.34 2.24 13.87
2/5/2021 7:15:00 AM -0.08 31.856 0.085 7.32 2.26 13.88
2/5/2021 7:30:00 AM -0.08 31.856 0.086 7.34 2.3 13.89
2/5/2021 7:45:00 AM -0.08 31.856 0.085 7.35 2.36 13.91
2/5/2021 8:00:00 AM -0.08 31.856 0.084 7.36 2.31 13.96
2/5/2021 8:15:00 AM -0.07 31.874 0.082 7.36 2.29 14.06
2/5/2021 8:30:00 AM -0.06 31.892 0.082 7.41 2.2 14.18
2/5/2021 8:45:00 AM -0.04 31.928 0.082 7.44 2.25 14.29
2/5/2021 9:00:00 AM -0.05 31.91 0.082 7.46 2.27 14.35
2/5/2021 9:15:00 AM -0.05 31.91 0.083 7.48 2.2 14.41
2/5/2021 9:30:00 AM -0.05 31.91 0.083 7.46 2.29 14.45
2/5/2021 9:45:00 AM -0.03 31.946 0.083 7.51 2.22 14.52
2/5/2021 10:00:00 AM -0.02 31.964 0.083 7.55 2.25 14.58